Wetterdaten: Montag, 11.07.2016
Datum Zeit Temp. A. Temp. A. max Feuchte A. Luftdruck Regen Wind Richtung Richtung Sonnenschein ET UV Solar Taupunkt Windben
11.07.2016 02:00 17,4 C 17,5 C 86 % 1012,3 hPa 0,0 mm 1,6 km/h (1 Bft) N 360 0 min 0,025 mm 0,0 UV-I 0 W/m 15,0 C 3,2 km/h (1 Bft)
11.07.2016 02:01 17,4 C 17,5 C 87 % 1012,4 hPa 0,0 mm 1,6 km/h (1 Bft) N 360 0 min 0,000 mm 0,0 UV-I 0 W/m 15,2 C 4,8 km/h (1 Bft)
11.07.2016 02:02 17,4 C 17,4 C 87 % 1012,3 hPa 0,0 mm 3,2 km/h (1 Bft) N-NW 337 0 min 0,000 mm 0,0 UV-I 0 W/m 15,2 C 4,8 km/h (1 Bft)
11.07.2016 02:03 17,3 C 17,4 C 86 % 1012,3 hPa 0,0 mm 3,2 km/h (1 Bft) W-SW 247 0 min 0,000 mm 0,0 UV-I 0 W/m 14,9 C 6,4 km/h (2 Bft)
11.07.2016 02:04 17,3 C 17,3 C 87 % 1012,3 hPa 0,0 mm 1,6 km/h (1 Bft) W 270 0 min 0,000 mm 0,0 UV-I 0 W/m 15,1 C 1,6 km/h (1 Bft)
11.07.2016 02:05 17,3 C 17,3 C 86 % 1012,3 hPa 0,0 mm 0,0 km/h (0 Bft) W 270 0 min 0,000 mm 0,0 UV-I 0 W/m 14,9 C 1,6 km/h (1 Bft)
11.07.2016 02:06 17,3 C 17,4 C 85 % 1012,3 hPa 0,0 mm 3,2 km/h (1 Bft) N 360 0 min 0,000 mm 0,0 UV-I 0 W/m 14,8 C 4,8 km/h (1 Bft)
11.07.2016 02:07 17,4 C 17,4 C 86 % 1012,3 hPa 0,0 mm 3,2 km/h (1 Bft) O-SO 112 0 min 0,000 mm 0,0 UV-I 0 W/m 15,0 C 4,8 km/h (1 Bft)
11.07.2016 02:08 17,4 C 17,4 C 85 % 1012,3 hPa 0,0 mm 0,0 km/h (0 Bft) O-SO 112 0 min 0,000 mm 0,0 UV-I 0 W/m 14,8 C 3,2 km/h (1 Bft)
11.07.2016 02:09 17,5 C 17,5 C 85 % 1012,3 hPa 0,0 mm 0,0 km/h (0 Bft) N 0 0 min 0,000 mm 0,0 UV-I 0 W/m 14,9 C 0,0 km/h (0 Bft)
11.07.2016 02:10 17,5 C 17,5 C 85 % 1012,3 hPa 0,0 mm 0,0 km/h (0 Bft) N 0 0 min 0,000 mm 0,0 UV-I 0 W/m 14,9 C 0,0 km/h (0 Bft)
11.07.2016 02:11 17,4 C 17,5 C 86 % 1012,3 hPa 0,0 mm 0,0 km/h (0 Bft) N 0 0 min 0,000 mm 0,0 UV-I 0 W/m 15,0 C 0,0 km/h (0 Bft)
11.07.2016 02:12 17,4 C 17,4 C 85 % 1012,2 hPa 0,0 mm 0,0 km/h (0 Bft) N-NW 337 0 min 0,000 mm 0,0 UV-I 0 W/m 14,8 C 1,6 km/h (1 Bft)
11.07.2016 02:13 17,4 C 17,4 C 85 % 1012,3 hPa 0,0 mm 3,2 km/h (1 Bft) N-NW 337 0 min 0,000 mm 0,0 UV-I 0 W/m 14,8 C 6,4 km/h (2 Bft)
11.07.2016 02:14 17,4 C 17,4 C 83 % 1012,3 hPa 0,0 mm 3,2 km/h (1 Bft) O-SO 112 0 min 0,000 mm 0,0 UV-I 0 W/m 14,5 C 4,8 km/h (1 Bft)
11.07.2016 02:15 17,4 C 17,4 C 84 % 1012,2 hPa 0,0 mm 1,6 km/h (1 Bft) SO 135 0 min 0,000 mm 0,0 UV-I 0 W/m 14,7 C 3,2 km/h (1 Bft)
11.07.2016 02:16 17,4 C 17,4 C 84 % 1012,3 hPa 0,0 mm 1,6 km/h (1 Bft) O 90 0 min 0,000 mm 0,0 UV-I 0 W/m 14,7 C 3,2 km/h (1 Bft)
11.07.2016 02:17 17,4 C 17,4 C 86 % 1012,2 hPa 0,0 mm 0,0 km/h (0 Bft) O 90 0 min 0,000 mm 0,0 UV-I 0 W/m 15,0 C 1,6 km/h (1 Bft)
11.07.2016 02:18 17,5 C 17,5 C 83 % 1012,3 hPa 0,0 mm 3,2 km/h (1 Bft) NW 315 0 min 0,000 mm 0,0 UV-I 0 W/m 14,6 C 4,8 km/h (1 Bft)
11.07.2016 02:19 17,5 C 17,5 C 86 % 1012,3 hPa 0,0 mm 1,6 km/h (1 Bft) N 360 0 min 0,000 mm 0,0 UV-I 0 W/m 15,1 C 4,8 km/h (1 Bft)
11.07.2016 02:20 17,4 C 17,4 C 84 % 1012,3 hPa 0,0 mm 1,6 km/h (1 Bft) NW 315 0 min 0,000 mm 0,0 UV-I 0 W/m 14,7 C 3,2 km/h (1 Bft)
11.07.2016 02:21 17,3 C 17,4 C 84 % 1012,3 hPa 0,0 mm 1,6 km/h (1 Bft) W-NW 292 0 min 0,000 mm 0,0 UV-I 0 W/m 14,6 C 4,8 km/h (1 Bft)
11.07.2016 02:22 17,4 C 17,4 C 84 % 1012,3 hPa 0,0 mm 1,6 km/h (1 Bft) W-NW 292 0 min 0,000 mm 0,0 UV-I 0 W/m 14,7 C 4,8 km/h (1 Bft)
11.07.2016 02:23 17,3 C 17,4 C 86 % 1012,3 hPa 0,0 mm 3,2 km/h (1 Bft) O-NO 67 0 min 0,000 mm 0,0 UV-I 0 W/m 14,9 C 8,0 km/h (2 Bft)
11.07.2016 02:24 17,4 C 17,4 C 84 % 1012,3 hPa 0,0 mm 4,8 km/h (1 Bft) O 90 0 min 0,000 mm 0,0 UV-I 0 W/m 14,7 C 8,0 km/h (2 Bft)
11.07.2016 02:25 17,5 C 17,5 C 84 % 1012,3 hPa 0,0 mm 1,6 km/h (1 Bft) S-SO 157 0 min 0,000 mm 0,0 UV-I 0 W/m 14,8 C 3,2 km/h (1 Bft)
11.07.2016 02:26 17,6 C 17,6 C 84 % 1012,3 hPa 0,0 mm 1,6 km/h (1 Bft) S-SO 157 0 min 0,000 mm 0,0 UV-I 0 W/m 14,9 C 3,2 km/h (1 Bft)
11.07.2016 02:27 17,6 C 17,6 C 84 % 1012,3 hPa 0,0 mm 1,6 km/h (1 Bft) S-SO 157 0 min 0,000 mm 0,0 UV-I 0 W/m 14,9 C 3,2 km/h (1 Bft)
11.07.2016 02:29 17,4 C 17,6 C 84 % 1012,3 hPa 0,0 mm 0,0 km/h (0 Bft) S-SO 149 0 min 0,000 mm 0,0 UV-I 0 W/m 14,7 C 0,0 km/h (0 Bft)
11.07.2016 02:30 17,4 C 17,5 C 85 % 1012,2 hPa 0,0 mm 1,5 km/h (1 Bft) SO 145 0 min 0,000 mm 0,0 UV-I 0 W/m 14,8 C 3,2 km/h (1 Bft)
11.07.2016 02:31 17,4 C 17,4 C 84 % 1012,3 hPa 0,0 mm 1,1 km/h (1 Bft) SO 145 0 min 0,000 mm 0,0 UV-I 0 W/m 14,7 C 3,2 km/h (1 Bft)
11.07.2016 02:32 17,4 C 17,4 C 85 % 1012,3 hPa 0,0 mm 2,1 km/h (1 Bft) NO 35 0 min 0,000 mm 0,0 UV-I 0 W/m 14,8 C 3,2 km/h (1 Bft)
11.07.2016 02:33 17,3 C 17,4 C 84 % 1012,3 hPa 0,0 mm 1,3 km/h (1 Bft) NO 36 0 min 0,000 mm 0,0 UV-I 0 W/m 14,6 C 3,2 km/h (1 Bft)
11.07.2016 02:34 17,4 C 17,4 C 83 % 1012,3 hPa 0,0 mm 1,5 km/h (1 Bft) NO 51 0 min 0,000 mm 0,0 UV-I 0 W/m 14,5 C 3,2 km/h (1 Bft)
11.07.2016 02:35 17,4 C 17,4 C 84 % 1012,2 hPa 0,0 mm 0,2 km/h (0 Bft) NO 51 0 min 0,000 mm 0,0 UV-I 0 W/m 14,7 C 1,6 km/h (1 Bft)
11.07.2016 02:36 17,4 C 17,4 C 83 % 1012,2 hPa 0,0 mm 0,0 km/h (0 Bft) NO 51 0 min 0,000 mm 0,0 UV-I 0 W/m 14,5 C 0,0 km/h (0 Bft)
11.07.2016 02:37 17,5 C 17,6 C 82 % 1012,3 hPa 0,0 mm 0,3 km/h (0 Bft) NO 51 0 min 0,000 mm 0,0 UV-I 0 W/m 14,4 C 1,6 km/h (1 Bft)
11.07.2016 02:38 17,6 C 17,6 C 81 % 1012,2 hPa 0,0 mm 0,7 km/h (0 Bft) NO 51 0 min 0,000 mm 0,0 UV-I 0 W/m 14,3 C 1,6 km/h (1 Bft)
11.07.2016 02:39 17,6 C 17,6 C 81 % 1012,2 hPa 0,0 mm 0,8 km/h (0 Bft) NO 51 0 min 0,000 mm 0,0 UV-I 0 W/m 14,3 C 1,6 km/h (1 Bft)
11.07.2016 02:40 17,7 C 17,7 C 80 % 1012,2 hPa 0,0 mm 0,6 km/h (0 Bft) NO 51 0 min 0,000 mm 0,0 UV-I 0 W/m 14,2 C 1,6 km/h (1 Bft)
11.07.2016 02:41 17,8 C 17,8 C 80 % 1012,2 hPa 0,0 mm 0,2 km/h (0 Bft) NO 44 0 min 0,000 mm 0,0 UV-I 0 W/m 14,3 C 1,6 km/h (1 Bft)
11.07.2016 02:42 17,8 C 17,8 C 79 % 1012,2 hPa 0,0 mm 0,8 km/h (0 Bft) NO 44 0 min 0,000 mm 0,0 UV-I 0 W/m 14,1 C 1,6 km/h (1 Bft)
11.07.2016 02:43 17,9 C 17,9 C 79 % 1012,3 hPa 0,0 mm 2,2 km/h (1 Bft) W-SW 258 0 min 0,000 mm 0,0 UV-I 0 W/m 14,2 C 4,8 km/h (1 Bft)
11.07.2016 02:44 18,0 C 18,0 C 80 % 1012,3 hPa 0,0 mm 2,0 km/h (1 Bft) W-SW 246 0 min 0,000 mm 0,0 UV-I 0 W/m 14,5 C 3,2 km/h (1 Bft)
11.07.2016 02:45 18,0 C 18,0 C 80 % 1012,3 hPa 0,0 mm 2,3 km/h (1 Bft) W 265 0 min 0,000 mm 0,0 UV-I 0 W/m 14,5 C 4,8 km/h (1 Bft)
11.07.2016 02:46 18,0 C 18,0 C 80 % 1012,3 hPa 0,0 mm 3,1 km/h (1 Bft) W-SW 257 0 min 0,000 mm 0,0 UV-I 0 W/m 14,5 C 4,8 km/h (1 Bft)
11.07.2016 02:47 18,1 C 18,1 C 80 % 1012,3 hPa 0,0 mm 3,8 km/h (1 Bft) W-SW 250 0 min 0,000 mm 0,0 UV-I 0 W/m 14,6 C 4,8 km/h (1 Bft)
11.07.2016 02:48 17,9 C 18,1 C 80 % 1012,3 hPa 0,0 mm 3,2 km/h (1 Bft) W-SW 244 0 min 0,000 mm 0,0 UV-I 0 W/m 14,4 C 4,8 km/h (1 Bft)
11.07.2016 02:49 17,9 C 17,9 C 81 % 1012,3 hPa 0,0 mm 3,6 km/h (1 Bft) W-SW 251 0 min 0,000 mm 0,0 UV-I 0 W/m 14,6 C 6,4 km/h (2 Bft)
11.07.2016 02:50 17,9 C 17,9 C 80 % 1012,3 hPa 0,0 mm 2,3 km/h (1 Bft) W-SW 254 0 min 0,000 mm 0,0 UV-I 0 W/m 14,4 C 4,8 km/h (1 Bft)
11.07.2016 02:51 17,9 C 17,9 C 79 % 1012,4 hPa 0,0 mm 1,1 km/h (1 Bft) W-SW 254 0 min 0,000 mm 0,0 UV-I 0 W/m 14,2 C 1,6 km/h (1 Bft)
11.07.2016 02:52 17,9 C 17,9 C 81 % 1012,3 hPa 0,0 mm 0,9 km/h (0 Bft) W-SW 254 0 min 0,000 mm 0,0 UV-I 0 W/m 14,6 C 1,6 km/h (1 Bft)
11.07.2016 02:53 17,8 C 17,9 C 81 % 1012,4 hPa 0,0 mm 0,3 km/h (0 Bft) W-SW 254 0 min 0,000 mm 0,0 UV-I 0 W/m 14,5 C 1,6 km/h (1 Bft)
11.07.2016 02:54 17,8 C 17,8 C 82 % 1012,4 hPa 0,0 mm 1,6 km/h (1 Bft) SW 215 0 min 0,000 mm 0,0 UV-I 0 W/m 14,7 C 3,2 km/h (1 Bft)
11.07.2016 02:55 17,7 C 17,8 C 82 % 1012,4 hPa 0,0 mm 0,5 km/h (0 Bft) SW 215 0 min 0,000 mm 0,0 UV-I 0 W/m 14,6 C 1,6 km/h (1 Bft)
11.07.2016 02:56 17,6 C 17,7 C 83 % 1012,4 hPa 0,0 mm 0,5 km/h (0 Bft) SW 215 0 min 0,000 mm 0,0 UV-I 0 W/m 14,7 C 1,6 km/h (1 Bft)
11.07.2016 02:57 17,4 C 17,6 C 84 % 1012,4 hPa 0,0 mm 0,7 km/h (0 Bft) SW 215 0 min 0,000 mm 0,0 UV-I 0 W/m 14,7 C 1,6 km/h (1 Bft)
11.07.2016 02:58 17,3 C 17,4 C 84 % 1012,4 hPa 0,0 mm 0,8 km/h (0 Bft) SW 215 0 min 0,000 mm 0,0 UV-I 0 W/m 14,6 C 1,6 km/h (1 Bft)
11.07.2016 02:59 17,3 C 17,3 C 84 % 1012,4 hPa 0,0 mm 0,3 km/h (0 Bft) SW 215 0 min 0,000 mm 0,0 UV-I 0 W/m 14,6 C 1,6 km/h (1 Bft)
11.07.2016 03:00 17,1 C 17,3 C 86 % 1012,4 hPa 0,0 mm 0,0 km/h (0 Bft) SW 215 0 min 0,001 mm 0,0 UV-I 0 W/m 14,7 C 0,0 km/h (0 Bft)
11.07.2016 03:01 17,0 C 17,1 C 85 % 1012,3 hPa 0,0 mm 0,4 km/h (0 Bft) SW 215 0 min 0,000 mm 0,0 UV-I 0 W/m 14,5 C 1,6 km/h (1 Bft)
11.07.2016 03:02 16,9 C 17,0 C 85 % 1012,4 hPa 0,0 mm 0,8 km/h (0 Bft) SW 215 0 min 0,000 mm 0,0 UV-I 0 W/m 14,4 C 1,6 km/h (1 Bft)
11.07.2016 03:03 17,0 C 17,0 C 84 % 1012,4 hPa 0,0 mm 1,1 km/h (1 Bft) SW 215 0 min 0,000 mm 0,0 UV-I 0 W/m 14,3 C 1,6 km/h (1 Bft)
11.07.2016 03:04 17,1 C 17,1 C 84 % 1012,4 hPa 0,0 mm 1,4 km/h (1 Bft) SW 215 0 min 0,000 mm 0,0 UV-I 0 W/m 14,4 C 3,2 km/h (1 Bft)
11.07.2016 03:05 17,1 C 17,1 C 85 % 1012,3 hPa 0,0 mm 1,2 km/h (1 Bft) SW 215 0 min 0,000 mm 0,0 UV-I 0 W/m 14,6 C 1,6 km/h (1 Bft)
11.07.2016 03:06 17,0 C 17,1 C 85 % 1012,3 hPa 0,0 mm 1,3 km/h (1 Bft) W-SW 246 0 min 0,000 mm 0,0 UV-I 0 W/m 14,5 C 3,2 km/h (1 Bft)
11.07.2016 03:07 17,0 C 17,0 C 85 % 1012,4 hPa 0,0 mm 0,8 km/h (0 Bft) W-SW 245 0 min 0,000 mm 0,0 UV-I 0 W/m 14,5 C 3,2 km/h (1 Bft)
11.07.2016 03:08 16,9 C 17,0 C 85 % 1012,4 hPa 0,0 mm 1,5 km/h (1 Bft) W-SW 245 0 min 0,000 mm 0,0 UV-I 0 W/m 14,4 C 3,2 km/h (1 Bft)
11.07.2016 03:09 16,9 C 16,9 C 85 % 1012,4 hPa 0,0 mm 0,3 km/h (0 Bft) W-SW 245 0 min 0,000 mm 0,0 UV-I 0 W/m 14,4 C 1,6 km/h (1 Bft)
11.07.2016 03:10 16,9 C 16,9 C 86 % 1012,4 hPa 0,0 mm 0,3 km/h (0 Bft) W-SW 245 0 min 0,000 mm 0,0 UV-I 0 W/m 14,5 C 1,6 km/h (1 Bft)
11.07.2016 03:11 16,8 C 16,9 C 85 % 1012,4 hPa 0,0 mm 0,1 km/h (0 Bft) W-SW 245 0 min 0,000 mm 0,0 UV-I 0 W/m 14,3 C 1,6 km/h (1 Bft)
11.07.2016 03:12 16,8 C 16,8 C 85 % 1012,4 hPa 0,0 mm 0,7 km/h (0 Bft) W-SW 245 0 min 0,000 mm 0,0 UV-I 0 W/m 14,3 C 1,6 km/h (1 Bft)
11.07.2016 03:13 16,8 C 16,8 C 85 % 1012,4 hPa 0,0 mm 1,1 km/h (1 Bft) W-SW 245 0 min 0,000 mm 0,0 UV-I 0 W/m 14,3 C 1,6 km/h (1 Bft)
11.07.2016 03:14 16,8 C 16,8 C 87 % 1012,4 hPa 0,0 mm 2,0 km/h (1 Bft) S 190 0 min 0,000 mm 0,0 UV-I 0 W/m 14,6 C 3,2 km/h (1 Bft)
11.07.2016 03:15 16,8 C 16,8 C 87 % 1012,4 hPa 0,0 mm 2,3 km/h (1 Bft) S 190 0 min 0,000 mm 0,0 UV-I 0 W/m 14,6 C 3,2 km/h (1 Bft)
11.07.2016 03:16 16,8 C 16,8 C 87 % 1012,4 hPa 0,0 mm 0,5 km/h (0 Bft) S 190 0 min 0,000 mm 0,0 UV-I 0 W/m 14,6 C 3,2 km/h (1 Bft)
11.07.2016 03:17 16,8 C 16,8 C 86 % 1012,4 hPa 0,0 mm 0,0 km/h (0 Bft) S 190 0 min 0,000 mm 0,0 UV-I 0 W/m 14,4 C 0,0 km/h (0 Bft)
11.07.2016 03:18 16,8 C 16,8 C 86 % 1012,4 hPa 0,0 mm 1,9 km/h (1 Bft) S 189 0 min 0,000 mm 0,0 UV-I 0 W/m 14,4 C 3,2 km/h (1 Bft)
11.07.2016 03:19 16,8 C 16,8 C 86 % 1012,4 hPa 0,0 mm 1,7 km/h (1 Bft) S 189 0 min 0,000 mm 0,0 UV-I 0 W/m 14,4 C 3,2 km/h (1 Bft)
11.07.2016 03:20 16,8 C 16,8 C 86 % 1012,4 hPa 0,0 mm 0,6 km/h (0 Bft) S 189 0 min 0,000 mm 0,0 UV-I 0 W/m 14,4 C 3,2 km/h (1 Bft)
11.07.2016 03:21 16,8 C 16,8 C 85 % 1012,4 hPa 0,0 mm 0,9 km/h (0 Bft) S 189 0 min 0,000 mm 0,0 UV-I 0 W/m 14,3 C 1,6 km/h (1 Bft)
11.07.2016 03:22 16,8 C 16,8 C 85 % 1012,4 hPa 0,0 mm 0,4 km/h (0 Bft) S 189 0 min 0,000 mm 0,0 UV-I 0 W/m 14,3 C 1,6 km/h (1 Bft)
11.07.2016 03:23 16,8 C 16,8 C 85 % 1012,3 hPa 0,0 mm 0,1 km/h (0 Bft) S 189 0 min 0,000 mm 0,0 UV-I 0 W/m 14,3 C 1,6 km/h (1 Bft)
11.07.2016 03:24 16,8 C 16,8 C 85 % 1012,3 hPa 0,0 mm 0,0 km/h (0 Bft) S 189 0 min 0,000 mm 0,0 UV-I 0 W/m 14,3 C 0,0 km/h (0 Bft)
11.07.2016 03:25 16,8 C 16,8 C 85 % 1012,3 hPa 0,0 mm 0,3 km/h (0 Bft) S 189 0 min 0,000 mm 0,0 UV-I 0 W/m 14,3 C 1,6 km/h (1 Bft)
11.07.2016 03:26 16,8 C 16,8 C 85 % 1012,2 hPa 0,0 mm 0,6 km/h (0 Bft) S 189 0 min 0,000 mm 0,0 UV-I 0 W/m 14,3 C 1,6 km/h (1 Bft)
11.07.2016 03:27 16,8 C 16,8 C 85 % 1012,2 hPa 0,0 mm 0,2 km/h (0 Bft) S 189 0 min 0,000 mm 0,0 UV-I 0 W/m 14,3 C 1,6 km/h (1 Bft)
11.07.2016 03:28 16,9 C 16,9 C 84 % 1012,3 hPa 0,0 mm 0,3 km/h (0 Bft) S 189 0 min 0,000 mm 0,0 UV-I 0 W/m 14,2 C 1,6 km/h (1 Bft)
11.07.2016 03:29 16,9 C 16,9 C 85 % 1012,2 hPa 0,0 mm 1,2 km/h (1 Bft) S 188 0 min 0,000 mm 0,0 UV-I 0 W/m 14,4 C 3,2 km/h (1 Bft)
11.07.2016 03:30 16,9 C 16,9 C 86 % 1012,2 hPa 0,0 mm 0,3 km/h (0 Bft) S 188 0 min 0,000 mm 0,0 UV-I 0 W/m 14,5 C 1,6 km/h (1 Bft)
11.07.2016 03:31 16,9 C 16,9 C 85 % 1012,2 hPa 0,0 mm 0,3 km/h (0 Bft) S 188 0 min 0,000 mm 0,0 UV-I 0 W/m 14,4 C 1,6 km/h (1 Bft)
11.07.2016 03:32 17,0 C 17,0 C 84 % 1012,2 hPa 0,0 mm 0,8 km/h (0 Bft) S 188 0 min 0,000 mm 0,0 UV-I 0 W/m 14,3 C 1,6 km/h (1 Bft)
11.07.2016 03:33 17,1 C 17,1 C 84 % 1012,1 hPa 0,0 mm 0,9 km/h (0 Bft) S 188 0 min 0,000 mm 0,0 UV-I 0 W/m 14,4 C 3,2 km/h (1 Bft)
11.07.2016 03:34 17,0 C 17,1 C 84 % 1012,1 hPa 0,0 mm 0,9 km/h (0 Bft) S 188 0 min 0,000 mm 0,0 UV-I 0 W/m 14,3 C 1,6 km/h (1 Bft)
11.07.2016 03:35 17,2 C 17,2 C 83 % 1012,1 hPa 0,0 mm 0,3 km/h (0 Bft) S 188 0 min 0,000 mm 0,0 UV-I 0 W/m 14,3 C 1,6 km/h (1 Bft)
11.07.2016 03:36 17,2 C 17,2 C 82 % 1012,1 hPa 0,0 mm 0,5 km/h (0 Bft) S 188 0 min 0,000 mm 0,0 UV-I 0 W/m 14,1 C 1,6 km/h (1 Bft)
11.07.2016 03:37 17,3 C 17,3 C 82 % 1012,1 hPa 0,0 mm 0,3 km/h (0 Bft) S 188 0 min 0,000 mm 0,0 UV-I 0 W/m 14,2 C 1,6 km/h (1 Bft)
11.07.2016 03:38 17,3 C 17,3 C 82 % 1012,1 hPa 0,0 mm 0,7 km/h (0 Bft) W 273 0 min 0,000 mm 0,0 UV-I 0 W/m 14,2 C 3,2 km/h (1 Bft)
11.07.2016 03:39 17,4 C 17,4 C 81 % 1012,1 hPa 0,0 mm 0,8 km/h (0 Bft) SW 231 0 min 0,000 mm 0,0 UV-I 0 W/m 14,1 C 1,6 km/h (1 Bft)
11.07.2016 03:40 17,3 C 17,4 C 83 % 1012,1 hPa 0,0 mm 1,1 km/h (1 Bft) SW 219 0 min 0,000 mm 0,0 UV-I 0 W/m 14,4 C 3,2 km/h (1 Bft)
11.07.2016 03:41 17,3 C 17,3 C 85 % 1012,1 hPa 0,0 mm 0,2 km/h (0 Bft) SW 219 0 min 0,000 mm 0,0 UV-I 0 W/m 14,8 C 1,6 km/h (1 Bft)
11.07.2016 03:42 17,3 C 17,3 C 83 % 1012,1 hPa 0,0 mm 1,5 km/h (1 Bft) W 261 0 min 0,000 mm 0,0 UV-I 0 W/m 14,4 C 3,2 km/h (1 Bft)
11.07.2016 03:43 17,3 C 17,3 C 82 % 1012,1 hPa 0,0 mm 1,8 km/h (1 Bft) S-SW 200 0 min 0,000 mm 0,0 UV-I 0 W/m 14,2 C 3,2 km/h (1 Bft)
11.07.2016 03:44 17,3 C 17,3 C 82 % 1012,1 hPa 0,0 mm 1,9 km/h (1 Bft) N-NW 340 0 min 0,000 mm 0,0 UV-I 0 W/m 14,2 C 3,2 km/h (1 Bft)
11.07.2016 03:45 17,3 C 17,3 C 83 % 1012,0 hPa 0,0 mm 1,5 km/h (1 Bft) N-NW 340 0 min 0,000 mm 0,0 UV-I 0 W/m 14,4 C 3,2 km/h (1 Bft)
11.07.2016 03:46 17,3 C 17,3 C 82 % 1012,0 hPa 0,0 mm 0,6 km/h (0 Bft) N-NW 340 0 min 0,000 mm 0,0 UV-I 0 W/m 14,2 C 1,6 km/h (1 Bft)
11.07.2016 03:47 17,3 C 17,3 C 81 % 1012,0 hPa 0,0 mm 0,9 km/h (0 Bft) N-NW 340 0 min 0,000 mm 0,0 UV-I 0 W/m 14,0 C 3,2 km/h (1 Bft)
11.07.2016 03:48 17,3 C 17,3 C 81 % 1012,0 hPa 0,0 mm 0,6 km/h (0 Bft) N-NW 340 0 min 0,000 mm 0,0 UV-I 0 W/m 14,0 C 1,6 km/h (1 Bft)
11.07.2016 03:49 17,4 C 17,4 C 81 % 1012,0 hPa 0,0 mm 0,3 km/h (0 Bft) N-NW 340 0 min 0,000 mm 0,0 UV-I 0 W/m 14,1 C 1,6 km/h (1 Bft)
11.07.2016 03:50 17,4 C 17,4 C 81 % 1012,0 hPa 0,0 mm 0,8 km/h (0 Bft) N-NW 340 0 min 0,000 mm 0,0 UV-I 0 W/m 14,1 C 1,6 km/h (1 Bft)
11.07.2016 03:51 17,4 C 17,4 C 81 % 1011,9 hPa 0,0 mm 0,9 km/h (0 Bft) N-NW 340 0 min 0,000 mm 0,0 UV-I 0 W/m 14,1 C 1,6 km/h (1 Bft)
11.07.2016 03:52 17,3 C 17,4 C 82 % 1011,9 hPa 0,0 mm 0,8 km/h (0 Bft) N-NO 21 0 min 0,000 mm 0,0 UV-I 0 W/m 14,2 C 3,2 km/h (1 Bft)
11.07.2016 03:53 17,3 C 17,3 C 81 % 1011,9 hPa 0,0 mm 1,0 km/h (0 Bft) N-NO 21 0 min 0,000 mm 0,0 UV-I 0 W/m 14,0 C 1,6 km/h (1 Bft)
11.07.2016 03:54 17,4 C 17,4 C 81 % 1011,9 hPa 0,0 mm 0,2 km/h (0 Bft) N-NO 21 0 min 0,000 mm 0,0 UV-I 0 W/m 14,1 C 1,6 km/h (1 Bft)
11.07.2016 03:55 17,4 C 17,4 C 81 % 1011,9 hPa 0,0 mm 0,5 km/h (0 Bft) N-NO 21 0 min 0,000 mm 0,0 UV-I 0 W/m 14,1 C 1,6 km/h (1 Bft)
11.07.2016 03:56 17,4 C 17,5 C 80 % 1011,9 hPa 0,0 mm 0,3 km/h (0 Bft) N-NO 21 0 min 0,000 mm 0,0 UV-I 0 W/m 13,9 C 1,6 km/h (1 Bft)
11.07.2016 03:57 17,5 C 17,5 C 80 % 1011,9 hPa 0,0 mm 0,8 km/h (0 Bft) N-NO 21 0 min 0,000 mm 0,0 UV-I 0 W/m 14,0 C 1,6 km/h (1 Bft)
11.07.2016 03:58 17,5 C 17,5 C 80 % 1011,9 hPa 0,0 mm 0,7 km/h (0 Bft) N-NO 21 0 min 0,000 mm 0,0 UV-I 0 W/m 14,0 C 1,6 km/h (1 Bft)
11.07.2016 03:59 17,6 C 17,6 C 80 % 1011,8 hPa 0,0 mm 1,5 km/h (1 Bft) N-NO 21 0 min 0,000 mm 0,0 UV-I 0 W/m 14,1 C 3,2 km/h (1 Bft)
11.07.2016 04:00 17,5 C 17,6 C 81 % 1011,9 hPa 0,0 mm 0,7 km/h (0 Bft) N-NO 21 0 min 0,000 mm 0,0 UV-I 0 W/m 14,2 C 1,6 km/h (1 Bft)
11.07.2016 04:01 17,4 C 17,5 C 80 % 1011,8 hPa 0,0 mm 1,0 km/h (0 Bft) N-NO 21 0 min 0,025 mm 0,0 UV-I 0 W/m 13,9 C 1,6 km/h (1 Bft)
11.07.2016 04:02 17,5 C 17,5 C 80 % 1011,8 hPa 0,0 mm 0,5 km/h (0 Bft) N-NO 21 0 min 0,000 mm 0,0 UV-I 0 W/m 14,0 C 1,6 km/h (1 Bft)
11.07.2016 04:03 17,4 C 17,5 C 81 % 1011,9 hPa 0,0 mm 0,8 km/h (0 Bft) N-NO 21 0 min 0,000 mm 0,0 UV-I 0 W/m 14,1 C 1,6 km/h (1 Bft)
11.07.2016 04:04 17,4 C 17,4 C 80 % 1011,9 hPa 0,0 mm 0,3 km/h (0 Bft) N-NO 21 0 min 0,000 mm 0,0 UV-I 0 W/m 13,9 C 1,6 km/h (1 Bft)
11.07.2016 04:05 17,4 C 17,4 C 80 % 1011,9 hPa 0,0 mm 0,5 km/h (0 Bft) N-NO 21 0 min 0,000 mm 0,0 UV-I 0 W/m 13,9 C 1,6 km/h (1 Bft)
11.07.2016 04:06 17,4 C 17,4 C 80 % 1011,8 hPa 0,0 mm 2,1 km/h (1 Bft) O-NO 74 0 min 0,000 mm 0,0 UV-I 0 W/m 13,9 C 3,2 km/h (1 Bft)
11.07.2016 04:07 17,4 C 17,4 C 80 % 1011,8 hPa 0,0 mm 0,8 km/h (0 Bft) O-NO 74 0 min 0,000 mm 0,0 UV-I 0 W/m 13,9 C 3,2 km/h (1 Bft)
11.07.2016 04:08 17,4 C 17,4 C 79 % 1011,8 hPa 0,0 mm 1,7 km/h (1 Bft) NW 311 0 min 0,000 mm 0,0 UV-I 0 W/m 13,7 C 3,2 km/h (1 Bft)
11.07.2016 04:09 17,4 C 17,5 C 80 % 1011,9 hPa 0,0 mm 1,1 km/h (1 Bft) NW 311 0 min 0,000 mm 0,0 UV-I 0 W/m 13,9 C 1,6 km/h (1 Bft)
11.07.2016 04:10 17,4 C 17,4 C 80 % 1011,9 hPa 0,0 mm 0,7 km/h (0 Bft) NW 311 0 min 0,000 mm 0,0 UV-I 0 W/m 13,9 C 1,6 km/h (1 Bft)
11.07.2016 04:11 17,4 C 17,4 C 81 % 1011,8 hPa 0,0 mm 0,7 km/h (0 Bft) NW 311 0 min 0,000 mm 0,0 UV-I 0 W/m 14,1 C 1,6 km/h (1 Bft)
11.07.2016 04:12 17,4 C 17,4 C 80 % 1011,8 hPa 0,0 mm 0,5 km/h (0 Bft) NW 311 0 min 0,000 mm 0,0 UV-I 0 W/m 13,9 C 1,6 km/h (1 Bft)
11.07.2016 04:13 17,4 C 17,4 C 80 % 1011,8 hPa 0,0 mm 0,7 km/h (0 Bft) NW 311 0 min 0,000 mm 0,0 UV-I 0 W/m 13,9 C 1,6 km/h (1 Bft)
11.07.2016 04:14 17,4 C 17,4 C 80 % 1011,8 hPa 0,0 mm 0,5 km/h (0 Bft) NW 311 0 min 0,000 mm 0,0 UV-I 0 W/m 13,9 C 1,6 km/h (1 Bft)
11.07.2016 04:15 17,4 C 17,4 C 79 % 1011,8 hPa 0,0 mm 0,1 km/h (0 Bft) NW 311 0 min 0,000 mm 0,0 UV-I 0 W/m 13,7 C 1,6 km/h (1 Bft)
11.07.2016 04:16 17,5 C 17,5 C 79 % 1011,8 hPa 0,0 mm 1,1 km/h (1 Bft) NW 311 0 min 0,000 mm 0,0 UV-I 0 W/m 13,8 C 3,2 km/h (1 Bft)
11.07.2016 04:17 17,4 C 17,5 C 80 % 1011,8 hPa 0,0 mm 1,1 km/h (1 Bft) NW 311 0 min 0,000 mm 0,0 UV-I 0 W/m 13,9 C 1,6 km/h (1 Bft)
11.07.2016 04:18 17,4 C 17,5 C 83 % 1011,8 hPa 0,0 mm 1,1 km/h (1 Bft) NW 311 0 min 0,000 mm 0,0 UV-I 0 W/m 14,5 C 3,2 km/h (1 Bft)
11.07.2016 04:19 17,3 C 17,4 C 82 % 1011,8 hPa 0,0 mm 0,3 km/h (0 Bft) NW 311 0 min 0,000 mm 0,0 UV-I 0 W/m 14,2 C 1,6 km/h (1 Bft)
11.07.2016 04:20 17,3 C 17,3 C 81 % 1011,8 hPa 0,0 mm 0,4 km/h (0 Bft) NW 311 0 min 0,000 mm 0,0 UV-I 0 W/m 14,0 C 1,6 km/h (1 Bft)
11.07.2016 04:21 17,3 C 17,3 C 80 % 1011,7 hPa 0,0 mm 0,1 km/h (0 Bft) NW 311 0 min 0,000 mm 0,0 UV-I 0 W/m 13,8 C 1,6 km/h (1 Bft)
11.07.2016 04:22 17,3 C 17,3 C 80 % 1011,7 hPa 0,0 mm 0,5 km/h (0 Bft) NW 311 0 min 0,000 mm 0,0 UV-I 0 W/m 13,8 C 1,6 km/h (1 Bft)
11.07.2016 04:23 17,3 C 17,3 C 79 % 1011,7 hPa 0,0 mm 0,3 km/h (0 Bft) NW 311 0 min 0,000 mm 0,0 UV-I 0 W/m 13,6 C 1,6 km/h (1 Bft)
11.07.2016 04:24 17,4 C 17,4 C 79 % 1011,8 hPa 0,0 mm 0,0 km/h (0 Bft) NW 311 0 min 0,000 mm 0,0 UV-I 0 W/m 13,7 C 0,0 km/h (0 Bft)
11.07.2016 04:25 17,4 C 17,4 C 79 % 1011,8 hPa 0,0 mm 0,6 km/h (0 Bft) NW 311 0 min 0,000 mm 0,0 UV-I 0 W/m 13,7 C 1,6 km/h (1 Bft)
11.07.2016 04:26 17,5 C 17,5 C 78 % 1011,8 hPa 0,0 mm 1,9 km/h (1 Bft) N 355 0 min 0,000 mm 0,0 UV-I 0 W/m 13,6 C 3,2 km/h (1 Bft)
11.07.2016 04:27 17,6 C 17,6 C 79 % 1011,8 hPa 0,0 mm 2,1 km/h (1 Bft) N 360 0 min 0,000 mm 0,0 UV-I 0 W/m 13,9 C 3,2 km/h (1 Bft)
11.07.2016 04:28 17,6 C 17,6 C 78 % 1011,8 hPa 0,0 mm 0,5 km/h (0 Bft) N 360 0 min 0,000 mm 0,0 UV-I 0 W/m 13,7 C 1,6 km/h (1 Bft)
11.07.2016 04:29 17,6 C 17,6 C 79 % 1011,7 hPa 0,0 mm 0,6 km/h (0 Bft) N 360 0 min 0,000 mm 0,0 UV-I 0 W/m 13,9 C 1,6 km/h (1 Bft)
11.07.2016 04:30 17,5 C 17,6 C 79 % 1011,7 hPa 0,0 mm 1,4 km/h (1 Bft) N 360 0 min 0,000 mm 0,0 UV-I 0 W/m 13,8 C 1,6 km/h (1 Bft)
11.07.2016 04:31 17,4 C 17,5 C 78 % 1011,7 hPa 0,0 mm 0,9 km/h (0 Bft) NO 38 0 min 0,000 mm 0,0 UV-I 0 W/m 13,5 C 3,2 km/h (1 Bft)
11.07.2016 04:32 17,4 C 17,4 C 79 % 1011,7 hPa 0,0 mm 0,7 km/h (0 Bft) NO 38 0 min 0,000 mm 0,0 UV-I 0 W/m 13,7 C 1,6 km/h (1 Bft)
11.07.2016 04:33 17,4 C 17,4 C 78 % 1011,7 hPa 0,0 mm 1,6 km/h (1 Bft) O-NO 68 0 min 0,000 mm 0,0 UV-I 0 W/m 13,5 C 3,2 km/h (1 Bft)
11.07.2016 04:34 17,4 C 17,4 C 79 % 1011,6 hPa 0,0 mm 1,6 km/h (1 Bft) O-NO 67 0 min 0,000 mm 0,0 UV-I 0 W/m 13,7 C 3,2 km/h (1 Bft)
11.07.2016 04:35 17,4 C 17,5 C 80 % 1011,7 hPa 0,0 mm 1,3 km/h (1 Bft) O-NO 64 0 min 0,000 mm 0,0 UV-I 0 W/m 13,9 C 3,2 km/h (1 Bft)
11.07.2016 04:36 17,4 C 17,4 C 79 % 1011,6 hPa 0,0 mm 1,4 km/h (1 Bft) O-NO 64 0 min 0,000 mm 0,0 UV-I 0 W/m 13,7 C 3,2 km/h (1 Bft)
11.07.2016 04:37 17,4 C 17,4 C 79 % 1011,6 hPa 0,0 mm 0,5 km/h (0 Bft) O-NO 64 0 min 0,000 mm 0,0 UV-I 0 W/m 13,7 C 1,6 km/h (1 Bft)
11.07.2016 04:38 17,4 C 17,4 C 78 % 1011,6 hPa 0,0 mm 0,5 km/h (0 Bft) O-NO 64 0 min 0,000 mm 0,0 UV-I 0 W/m 13,5 C 1,6 km/h (1 Bft)
11.07.2016 04:39 17,5 C 17,5 C 79 % 1011,6 hPa 0,0 mm 1,0 km/h (0 Bft) O-NO 64 0 min 0,000 mm 0,0 UV-I 0 W/m 13,8 C 1,6 km/h (1 Bft)
11.07.2016 04:40 17,6 C 17,6 C 78 % 1011,6 hPa 0,0 mm 0,9 km/h (0 Bft) O-NO 64 0 min 0,000 mm 0,0 UV-I 0 W/m 13,7 C 1,6 km/h (1 Bft)
11.07.2016 04:41 17,6 C 17,6 C 78 % 1011,5 hPa 0,0 mm 1,0 km/h (0 Bft) O-NO 64 0 min 0,000 mm 0,0 UV-I 0 W/m 13,7 C 3,2 km/h (1 Bft)
11.07.2016 04:42 17,5 C 17,6 C 79 % 1011,5 hPa 0,0 mm 1,8 km/h (1 Bft) O-NO 66 0 min 0,000 mm 0,0 UV-I 0 W/m 13,8 C 3,2 km/h (1 Bft)
11.07.2016 04:43 17,4 C 17,5 C 79 % 1011,6 hPa 0,0 mm 1,0 km/h (0 Bft) O-NO 66 0 min 0,000 mm 0,0 UV-I 0 W/m 13,7 C 1,6 km/h (1 Bft)
11.07.2016 04:44 17,3 C 17,4 C 79 % 1011,6 hPa 0,0 mm 0,2 km/h (0 Bft) O-NO 66 0 min 0,000 mm 0,0 UV-I 0 W/m 13,6 C 1,6 km/h (1 Bft)
11.07.2016 04:45 17,3 C 17,3 C 78 % 1011,6 hPa 0,0 mm 0,5 km/h (0 Bft) O-NO 66 0 min 0,000 mm 0,0 UV-I 0 W/m 13,4 C 1,6 km/h (1 Bft)
11.07.2016 04:46 17,3 C 17,3 C 78 % 1011,5 hPa 0,0 mm 1,0 km/h (0 Bft) O-NO 66 0 min 0,000 mm 0,0 UV-I 0 W/m 13,4 C 1,6 km/h (1 Bft)
11.07.2016 04:47 17,4 C 17,4 C 78 % 1011,5 hPa 0,0 mm 0,2 km/h (0 Bft) O-NO 66 0 min 0,000 mm 0,0 UV-I 0 W/m 13,5 C 1,6 km/h (1 Bft)
11.07.2016 04:48 17,4 C 17,4 C 78 % 1011,5 hPa 0,0 mm 0,1 km/h (0 Bft) O-NO 66 0 min 0,000 mm 0,0 UV-I 0 W/m 13,5 C 1,6 km/h (1 Bft)
11.07.2016 04:49 17,4 C 17,5 C 79 % 1011,5 hPa 0,0 mm 0,8 km/h (0 Bft) O-NO 59 0 min 0,000 mm 0,0 UV-I 0 W/m 13,7 C 1,6 km/h (1 Bft)
11.07.2016 04:50 17,3 C 17,4 C 79 % 1011,5 hPa 0,0 mm 0,7 km/h (0 Bft) O-NO 59 0 min 0,000 mm 0,0 UV-I 0 W/m 13,6 C 1,6 km/h (1 Bft)
11.07.2016 04:51 17,3 C 17,4 C 78 % 1011,5 hPa 0,0 mm 0,0 km/h (0 Bft) O-NO 59 0 min 0,000 mm 0,0 UV-I 0 W/m 13,4 C 0,0 km/h (0 Bft)
11.07.2016 04:52 17,4 C 17,4 C 78 % 1011,5 hPa 0,0 mm 0,0 km/h (0 Bft) O-NO 59 0 min 0,000 mm 0,0 UV-I 0 W/m 13,5 C 0,0 km/h (0 Bft)
11.07.2016 04:53 17,4 C 17,4 C 77 % 1011,5 hPa 0,0 mm 0,5 km/h (0 Bft) O-NO 58 0 min 0,000 mm 0,0 UV-I 0 W/m 13,3 C 1,6 km/h (1 Bft)
11.07.2016 04:54 17,4 C 17,4 C 78 % 1011,5 hPa 0,0 mm 1,3 km/h (1 Bft) NO 40 0 min 0,000 mm 0,0 UV-I 0 W/m 13,5 C 3,2 km/h (1 Bft)
11.07.2016 04:55 17,4 C 17,4 C 77 % 1011,6 hPa 0,0 mm 0,0 km/h (0 Bft) NO 40 0 min 0,000 mm 0,0 UV-I 0 W/m 13,3 C 0,0 km/h (0 Bft)
11.07.2016 04:56 17,4 C 17,4 C 77 % 1011,6 hPa 0,0 mm 0,0 km/h (0 Bft) NO 40 0 min 0,000 mm 0,0 UV-I 0 W/m 13,3 C 0,0 km/h (0 Bft)
11.07.2016 04:57 17,4 C 17,4 C 77 % 1011,6 hPa 0,0 mm 0,1 km/h (0 Bft) NO 40 0 min 0,000 mm 0,0 UV-I 0 W/m 13,3 C 1,6 km/h (1 Bft)
11.07.2016 04:58 17,5 C 17,5 C 77 % 1011,6 hPa 0,0 mm 0,8 km/h (0 Bft) NO 40 0 min 0,000 mm 0,0 UV-I 0 W/m 13,4 C 3,2 km/h (1 Bft)
11.07.2016 04:59 17,5 C 17,5 C 78 % 1011,6 hPa 0,0 mm 0,3 km/h (0 Bft) NO 40 0 min 0,000 mm 0,0 UV-I 0 W/m 13,6 C 1,6 km/h (1 Bft)
11.07.2016 05:00 17,5 C 17,6 C 79 % 1011,5 hPa 0,0 mm 1,3 km/h (1 Bft) NO 40 0 min 0,026 mm 0,0 UV-I 0 W/m 13,8 C 3,2 km/h (1 Bft)
11.07.2016 05:01 17,4 C 17,5 C 79 % 1011,5 hPa 0,0 mm 1,2 km/h (1 Bft) NO 40 0 min 0,000 mm 0,0 UV-I 0 W/m 13,7 C 3,2 km/h (1 Bft)
11.07.2016 05:02 17,4 C 17,4 C 78 % 1011,5 hPa 0,0 mm 0,5 km/h (0 Bft) NO 40 0 min 0,000 mm 0,0 UV-I 0 W/m 13,5 C 1,6 km/h (1 Bft)
11.07.2016 05:03 17,3 C 17,4 C 79 % 1011,6 hPa 0,0 mm 0,1 km/h (0 Bft) NO 40 0 min 0,000 mm 0,0 UV-I 0 W/m 13,6 C 1,6 km/h (1 Bft)
11.07.2016 05:04 17,3 C 17,4 C 79 % 1011,6 hPa 0,0 mm 0,1 km/h (0 Bft) NO 40 0 min 0,000 mm 0,0 UV-I 0 W/m 13,6 C 1,6 km/h (1 Bft)
11.07.2016 05:05 17,2 C 17,3 C 80 % 1011,5 hPa 0,0 mm 0,0 km/h (0 Bft) NO 40 0 min 0,000 mm 0,0 UV-I 0 W/m 13,7 C 0,0 km/h (0 Bft)
11.07.2016 05:06 17,1 C 17,2 C 80 % 1011,5 hPa 0,0 mm 0,1 km/h (0 Bft) NO 40 0 min 0,000 mm 0,0 UV-I 0 W/m 13,6 C 1,6 km/h (1 Bft)
11.07.2016 05:07 16,9 C 17,1 C 80 % 1011,5 hPa 0,0 mm 0,1 km/h (0 Bft) NO 40 0 min 0,000 mm 0,0 UV-I 0 W/m 13,4 C 1,6 km/h (1 Bft)
11.07.2016 05:08 16,9 C 16,9 C 80 % 1011,5 hPa 0,0 mm 0,1 km/h (0 Bft) NO 40 0 min 0,000 mm 0,0 UV-I 0 W/m 13,4 C 1,6 km/h (1 Bft)
11.07.2016 05:09 16,9 C 16,9 C 80 % 1011,5 hPa 0,0 mm 0,0 km/h (0 Bft) NO 40 0 min 0,000 mm 0,0 UV-I 0 W/m 13,4 C 0,0 km/h (0 Bft)
11.07.2016 05:10 16,8 C 16,9 C 80 % 1011,5 hPa 0,0 mm 0,0 km/h (0 Bft) NO 40 0 min 0,000 mm 0,0 UV-I 0 W/m 13,3 C 0,0 km/h (0 Bft)
11.07.2016 05:11 16,9 C 16,9 C 80 % 1011,6 hPa 0,0 mm 0,0 km/h (0 Bft) NO 40 0 min 0,000 mm 0,0 UV-I 0 W/m 13,4 C 0,0 km/h (0 Bft)
11.07.2016 05:12 16,8 C 16,9 C 80 % 1011,5 hPa 0,0 mm 0,0 km/h (0 Bft) NO 40 0 min 0,000 mm 0,0 UV-I 0 W/m 13,3 C 0,0 km/h (0 Bft)
11.07.2016 05:13 16,8 C 16,8 C 80 % 1011,5 hPa 0,0 mm 0,0 km/h (0 Bft) NO 40 0 min 0,000 mm 0,0 UV-I 0 W/m 13,3 C 0,0 km/h (0 Bft)
11.07.2016 05:14 16,8 C 16,8 C 81 % 1011,5 hPa 0,0 mm 0,3 km/h (0 Bft) NO 40 0 min 0,000 mm 0,0 UV-I 0 W/m 13,5 C 1,6 km/h (1 Bft)
11.07.2016 05:15 16,7 C 16,8 C 81 % 1011,5 hPa 0,0 mm 0,1 km/h (0 Bft) NO 40 0 min 0,000 mm 0,0 UV-I 0 W/m 13,4 C 1,6 km/h (1 Bft)
11.07.2016 05:16 16,7 C 16,7 C 82 % 1011,5 hPa 0,0 mm 0,0 km/h (0 Bft) NO 40 0 min 0,000 mm 0,0 UV-I 0 W/m 13,6 C 0,0 km/h (0 Bft)
11.07.2016 05:17 16,6 C 16,7 C 83 % 1011,5 hPa 0,0 mm 0,1 km/h (0 Bft) NO 40 0 min 0,000 mm 0,0 UV-I 0 W/m 13,7 C 1,6 km/h (1 Bft)
11.07.2016 05:18 16,4 C 16,6 C 83 % 1011,5 hPa 0,0 mm 0,0 km/h (0 Bft) NO 40 0 min 0,000 mm 0,0 UV-I 0 W/m 13,5 C 0,0 km/h (0 Bft)
11.07.2016 05:19 16,4 C 16,4 C 83 % 1011,4 hPa 0,0 mm 0,0 km/h (0 Bft) NO 40 0 min 0,000 mm 0,0 UV-I 0 W/m 13,5 C 0,0 km/h (0 Bft)
11.07.2016 05:20 16,3 C 16,4 C 83 % 1011,5 hPa 0,0 mm 0,1 km/h (0 Bft) NO 40 0 min 0,000 mm 0,0 UV-I 0 W/m 13,4 C 1,6 km/h (1 Bft)
11.07.2016 05:21 16,3 C 16,3 C 83 % 1011,5 hPa 0,0 mm 0,0 km/h (0 Bft) NO 40 0 min 0,000 mm 0,0 UV-I 0 W/m 13,4 C 0,0 km/h (0 Bft)
11.07.2016 05:22 16,3 C 16,3 C 83 % 1011,4 hPa 0,0 mm 0,0 km/h (0 Bft) NO 40 0 min 0,000 mm 0,0 UV-I 0 W/m 13,4 C 0,0 km/h (0 Bft)
11.07.2016 05:23 16,3 C 16,3 C 83 % 1011,4 hPa 0,0 mm 0,0 km/h (0 Bft) NO 40 0 min 0,000 mm 0,0 UV-I 0 W/m 13,4 C 0,0 km/h (0 Bft)
11.07.2016 05:24 16,3 C 16,3 C 83 % 1011,5 hPa 0,0 mm 0,6 km/h (0 Bft) NO 40 0 min 0,000 mm 0,0 UV-I 0 W/m 13,4 C 1,6 km/h (1 Bft)
11.07.2016 05:25 16,3 C 16,3 C 82 % 1011,4 hPa 0,0 mm 0,0 km/h (0 Bft) NO 40 0 min 0,000 mm 0,0 UV-I 0 W/m 13,2 C 0,0 km/h (0 Bft)
11.07.2016 05:26 16,4 C 16,4 C 81 % 1011,4 hPa 0,0 mm 0,0 km/h (0 Bft) NO 40 0 min 0,000 mm 0,0 UV-I 0 W/m 13,1 C 0,0 km/h (0 Bft)
11.07.2016 05:27 16,4 C 16,4 C 81 % 1011,4 hPa 0,0 mm 0,0 km/h (0 Bft) NO 40 0 min 0,000 mm 0,0 UV-I 0 W/m 13,1 C 0,0 km/h (0 Bft)
11.07.2016 05:28 16,3 C 16,4 C 82 % 1011,4 hPa 0,0 mm 0,1 km/h (0 Bft) NO 40 0 min 0,000 mm 0,0 UV-I 0 W/m 13,2 C 1,6 km/h (1 Bft)
11.07.2016 05:29 16,3 C 16,3 C 83 % 1011,4 hPa 0,0 mm 0,0 km/h (0 Bft) NO 40 0 min 0,000 mm 0,0 UV-I 0 W/m 13,4 C 0,0 km/h (0 Bft)
11.07.2016 05:30 16,3 C 16,3 C 82 % 1011,4 hPa 0,0 mm 0,0 km/h (0 Bft) NO 40 0 min 0,000 mm 0,0 UV-I 0 W/m 13,2 C 0,0 km/h (0 Bft)
11.07.2016 05:31 16,4 C 16,4 C 81 % 1011,4 hPa 0,0 mm 0,7 km/h (0 Bft) NO 40 0 min 0,000 mm 0,0 UV-I 0 W/m 13,1 C 1,6 km/h (1 Bft)
11.07.2016 05:32 16,4 C 16,4 C 81 % 1011,3 hPa 0,0 mm 0,3 km/h (0 Bft) NO 40 0 min 0,000 mm 0,0 UV-I 0 W/m 13,1 C 1,6 km/h (1 Bft)
11.07.2016 05:33 16,6 C 16,6 C 80 % 1011,3 hPa 0,0 mm 0,9 km/h (0 Bft) N-NO 14 0 min 0,000 mm 0,0 UV-I 5 W/m 13,1 C 1,6 km/h (1 Bft)
11.07.2016 05:34 16,7 C 16,7 C 79 % 1011,3 hPa 0,0 mm 0,8 km/h (0 Bft) O-NO 71 0 min 0,000 mm 0,0 UV-I 5 W/m 13,0 C 3,2 km/h (1 Bft)
11.07.2016 05:35 16,7 C 16,7 C 79 % 1011,3 hPa 0,0 mm 0,3 km/h (0 Bft) O-NO 71 0 min 0,000 mm 0,0 UV-I 5 W/m 13,0 C 1,6 km/h (1 Bft)
11.07.2016 05:36 16,8 C 16,8 C 79 % 1011,3 hPa 0,0 mm 0,4 km/h (0 Bft) O-NO 71 0 min 0,000 mm 0,0 UV-I 5 W/m 13,1 C 3,2 km/h (1 Bft)
11.07.2016 05:37 16,8 C 16,8 C 79 % 1011,3 hPa 0,0 mm 0,1 km/h (0 Bft) O-NO 71 0 min 0,000 mm 0,0 UV-I 5 W/m 13,1 C 1,6 km/h (1 Bft)
11.07.2016 05:38 16,8 C 16,8 C 78 % 1011,4 hPa 0,0 mm 0,2 km/h (0 Bft) O-NO 71 0 min 0,000 mm 0,0 UV-I 5 W/m 12,9 C 1,6 km/h (1 Bft)
11.07.2016 05:39 16,9 C 16,9 C 78 % 1011,3 hPa 0,0 mm 0,2 km/h (0 Bft) O-NO 71 0 min 0,000 mm 0,0 UV-I 7 W/m 13,0 C 1,6 km/h (1 Bft)
11.07.2016 05:40 16,9 C 16,9 C 78 % 1011,4 hPa 0,0 mm 0,1 km/h (0 Bft) O-NO 71 0 min 0,000 mm 0,0 UV-I 7 W/m 13,0 C 1,6 km/h (1 Bft)
11.07.2016 05:41 16,9 C 16,9 C 78 % 1011,3 hPa 0,0 mm 1,9 km/h (1 Bft) N 9 0 min 0,000 mm 0,0 UV-I 7 W/m 13,0 C 3,2 km/h (1 Bft)
11.07.2016 05:42 17,0 C 17,0 C 78 % 1011,3 hPa 0,0 mm 0,2 km/h (0 Bft) N 9 1 min 0,000 mm 0,0 UV-I 9 W/m 13,1 C 1,6 km/h (1 Bft)
11.07.2016 05:43 17,1 C 17,1 C 78 % 1011,3 hPa 0,0 mm 0,6 km/h (0 Bft) N 9 0 min 0,000 mm 0,0 UV-I 9 W/m 13,2 C 1,6 km/h (1 Bft)
11.07.2016 05:44 17,1 C 17,1 C 78 % 1011,3 hPa 0,0 mm 0,3 km/h (0 Bft) N 9 0 min 0,000 mm 0,0 UV-I 9 W/m 13,2 C 1,6 km/h (1 Bft)
11.07.2016 05:45 17,1 C 17,1 C 79 % 1011,3 hPa 0,0 mm 0,3 km/h (0 Bft) N 9 0 min 0,000 mm 0,0 UV-I 11 W/m 13,4 C 1,6 km/h (1 Bft)
11.07.2016 05:46 17,1 C 17,1 C 78 % 1011,3 hPa 0,0 mm 1,1 km/h (1 Bft) N 9 0 min 0,000 mm 0,0 UV-I 11 W/m 13,2 C 1,6 km/h (1 Bft)
11.07.2016 05:47 17,1 C 17,1 C 78 % 1011,3 hPa 0,0 mm 0,1 km/h (0 Bft) N 9 0 min 0,000 mm 0,0 UV-I 12 W/m 13,2 C 1,6 km/h (1 Bft)
11.07.2016 05:48 17,1 C 17,1 C 78 % 1011,3 hPa 0,0 mm 0,3 km/h (0 Bft) N 9 0 min 0,000 mm 0,0 UV-I 12 W/m 13,2 C 1,6 km/h (1 Bft)
11.07.2016 05:49 17,1 C 17,1 C 77 % 1011,3 hPa 0,0 mm 0,1 km/h (0 Bft) N 9 0 min 0,000 mm 0,0 UV-I 14 W/m 13,0 C 1,6 km/h (1 Bft)
11.07.2016 05:50 17,2 C 17,2 C 77 % 1011,3 hPa 0,0 mm 0,3 km/h (0 Bft) N 9 0 min 0,000 mm 0,0 UV-I 14 W/m 13,1 C 1,6 km/h (1 Bft)
11.07.2016 05:51 17,2 C 17,2 C 77 % 1011,3 hPa 0,0 mm 0,1 km/h (0 Bft) N 9 0 min 0,000 mm 0,0 UV-I 16 W/m 13,1 C 1,6 km/h (1 Bft)
11.07.2016 05:52 17,2 C 17,2 C 78 % 1011,2 hPa 0,0 mm 0,5 km/h (0 Bft) N 9 0 min 0,000 mm 0,0 UV-I 18 W/m 13,3 C 1,6 km/h (1 Bft)
11.07.2016 05:53 17,1 C 17,2 C 77 % 1011,3 hPa 0,0 mm 0,3 km/h (0 Bft) N 9 0 min 0,000 mm 0,0 UV-I 18 W/m 13,0 C 1,6 km/h (1 Bft)
11.07.2016 05:54 17,1 C 17,1 C 79 % 1011,2 hPa 0,0 mm 1,4 km/h (1 Bft) N 11 0 min 0,000 mm 0,0 UV-I 19 W/m 13,4 C 1,6 km/h (1 Bft)
11.07.2016 05:55 17,1 C 17,1 C 80 % 1011,2 hPa 0,0 mm 0,1 km/h (0 Bft) N 11 0 min 0,000 mm 0,0 UV-I 19 W/m 13,6 C 1,6 km/h (1 Bft)
11.07.2016 05:56 17,0 C 17,1 C 78 % 1011,1 hPa 0,0 mm 0,1 km/h (0 Bft) N 11 0 min 0,000 mm 0,0 UV-I 19 W/m 13,1 C 1,6 km/h (1 Bft)
11.07.2016 05:57 17,0 C 17,1 C 79 % 1011,1 hPa 0,0 mm 0,3 km/h (0 Bft) N 11 0 min 0,000 mm 0,0 UV-I 21 W/m 13,3 C 1,6 km/h (1 Bft)
11.07.2016 05:58 17,0 C 17,0 C 78 % 1011,1 hPa 0,0 mm 0,4 km/h (0 Bft) N 11 0 min 0,000 mm 0,0 UV-I 23 W/m 13,1 C 1,6 km/h (1 Bft)
11.07.2016 05:59 17,1 C 17,1 C 78 % 1011,1 hPa 0,0 mm 0,2 km/h (0 Bft) N 11 0 min 0,000 mm 0,0 UV-I 23 W/m 13,2 C 1,6 km/h (1 Bft)
11.07.2016 06:00 17,1 C 17,1 C 78 % 1011,1 hPa 0,0 mm 0,8 km/h (0 Bft) N 9 0 min 0,000 mm 0,0 UV-I 25 W/m 13,2 C 1,6 km/h (1 Bft)
11.07.2016 06:01 17,2 C 17,2 C 79 % 1011,1 hPa 0,0 mm 0,3 km/h (0 Bft) N 9 0 min 0,000 mm 0,0 UV-I 25 W/m 13,5 C 1,6 km/h (1 Bft)
11.07.2016 06:02 17,1 C 17,2 C 80 % 1011,1 hPa 0,0 mm 0,0 km/h (0 Bft) N 9 0 min 0,000 mm 0,0 UV-I 26 W/m 13,6 C 0,0 km/h (0 Bft)
11.07.2016 06:03 17,1 C 17,2 C 80 % 1011,1 hPa 0,0 mm 0,1 km/h (0 Bft) N 9 0 min 0,000 mm 0,0 UV-I 26 W/m 13,6 C 1,6 km/h (1 Bft)
11.07.2016 06:04 17,1 C 17,1 C 80 % 1011,1 hPa 0,0 mm 0,3 km/h (0 Bft) N 9 0 min 0,000 mm 0,0 UV-I 28 W/m 13,6 C 1,6 km/h (1 Bft)
11.07.2016 06:05 17,1 C 17,1 C 80 % 1011,1 hPa 0,0 mm 0,6 km/h (0 Bft) N 9 0 min 0,000 mm 0,0 UV-I 30 W/m 13,6 C 1,6 km/h (1 Bft)
11.07.2016 06:06 17,1 C 17,1 C 79 % 1011,1 hPa 0,0 mm 1,9 km/h (1 Bft) O 101 0 min 0,000 mm 0,0 UV-I 33 W/m 13,4 C 3,2 km/h (1 Bft)
11.07.2016 06:07 17,2 C 17,2 C 79 % 1011,1 hPa 0,0 mm 1,1 km/h (1 Bft) O 101 0 min 0,000 mm 0,0 UV-I 39 W/m 13,5 C 1,6 km/h (1 Bft)
11.07.2016 06:08 17,2 C 17,2 C 79 % 1011,1 hPa 0,0 mm 0,9 km/h (0 Bft) O 101 0 min 0,000 mm 0,0 UV-I 40 W/m 13,5 C 1,6 km/h (1 Bft)
11.07.2016 06:09 17,2 C 17,2 C 79 % 1011,1 hPa 0,0 mm 0,9 km/h (0 Bft) O 101 0 min 0,000 mm 0,0 UV-I 44 W/m 13,5 C 1,6 km/h (1 Bft)
11.07.2016 06:10 17,2 C 17,2 C 78 % 1011,0 hPa 0,0 mm 0,0 km/h (0 Bft) O 101 1 min 0,000 mm 0,0 UV-I 56 W/m 13,3 C 0,0 km/h (0 Bft)
11.07.2016 06:11 17,2 C 17,3 C 80 % 1011,0 hPa 0,0 mm 0,8 km/h (0 Bft) O 101 1 min 0,000 mm 0,0 UV-I 62 W/m 13,7 C 1,6 km/h (1 Bft)
11.07.2016 06:12 17,2 C 17,2 C 79 % 1011,0 hPa 0,0 mm 0,8 km/h (0 Bft) O 101 1 min 0,000 mm 0,0 UV-I 63 W/m 13,5 C 3,2 km/h (1 Bft)
11.07.2016 06:13 17,3 C 17,3 C 78 % 1011,0 hPa 0,0 mm 1,8 km/h (1 Bft) N-NO 26 1 min 0,000 mm 0,0 UV-I 63 W/m 13,4 C 4,8 km/h (1 Bft)
11.07.2016 06:14 17,3 C 17,3 C 78 % 1011,0 hPa 0,0 mm 1,2 km/h (1 Bft) NO 47 1 min 0,000 mm 0,0 UV-I 63 W/m 13,4 C 3,2 km/h (1 Bft)
11.07.2016 06:15 17,4 C 17,4 C 79 % 1011,0 hPa 0,0 mm 1,8 km/h (1 Bft) N-NO 17 1 min 0,000 mm 0,0 UV-I 70 W/m 13,7 C 3,2 km/h (1 Bft)
11.07.2016 06:16 17,4 C 17,4 C 79 % 1011,0 hPa 0,0 mm 0,4 km/h (0 Bft) N-NO 17 1 min 0,000 mm 0,0 UV-I 72 W/m 13,7 C 1,6 km/h (1 Bft)
11.07.2016 06:17 17,5 C 17,5 C 79 % 1011,0 hPa 0,0 mm 0,4 km/h (0 Bft) N-NO 17 1 min 0,000 mm 0,0 UV-I 74 W/m 13,8 C 1,6 km/h (1 Bft)
11.07.2016 06:18 17,6 C 17,6 C 79 % 1011,0 hPa 0,0 mm 1,1 km/h (1 Bft) N-NO 20 1 min 0,000 mm 0,0 UV-I 76 W/m 13,9 C 3,2 km/h (1 Bft)
11.07.2016 06:19 17,6 C 17,6 C 77 % 1011,0 hPa 0,0 mm 1,7 km/h (1 Bft) N 5 1 min 0,000 mm 0,0 UV-I 77 W/m 13,5 C 3,2 km/h (1 Bft)
11.07.2016 06:20 17,7 C 17,7 C 79 % 1011,0 hPa 0,0 mm 0,6 km/h (0 Bft) O-NO 65 1 min 0,000 mm 0,0 UV-I 79 W/m 14,0 C 1,6 km/h (1 Bft)
11.07.2016 06:21 17,7 C 17,7 C 78 % 1010,9 hPa 0,0 mm 2,7 km/h (1 Bft) SO 140 1 min 0,000 mm 0,0 UV-I 84 W/m 13,8 C 4,8 km/h (1 Bft)
11.07.2016 06:22 17,8 C 17,8 C 77 % 1010,9 hPa 0,0 mm 1,5 km/h (1 Bft) NO 38 1 min 0,000 mm 0,0 UV-I 84 W/m 13,7 C 3,2 km/h (1 Bft)
11.07.2016 06:23 17,8 C 17,8 C 78 % 1010,9 hPa 0,0 mm 0,0 km/h (0 Bft) NO 38 1 min 0,000 mm 0,0 UV-I 86 W/m 13,9 C 0,0 km/h (0 Bft)
11.07.2016 06:24 17,7 C 17,8 C 79 % 1010,9 hPa 0,0 mm 1,1 km/h (1 Bft) S-SO 166 1 min 0,000 mm 0,0 UV-I 88 W/m 14,0 C 4,8 km/h (1 Bft)
11.07.2016 06:25 17,8 C 17,8 C 77 % 1010,9 hPa 0,0 mm 3,8 km/h (1 Bft) O 92 1 min 0,000 mm 0,0 UV-I 91 W/m 13,7 C 6,4 km/h (2 Bft)
11.07.2016 06:26 17,9 C 17,9 C 76 % 1010,9 hPa 0,0 mm 0,9 km/h (0 Bft) O 92 1 min 0,000 mm 0,0 UV-I 91 W/m 13,6 C 1,6 km/h (1 Bft)
11.07.2016 06:27 18,1 C 18,1 C 76 % 1010,9 hPa 0,0 mm 0,8 km/h (0 Bft) O 92 1 min 0,000 mm 0,0 UV-I 90 W/m 13,8 C 1,6 km/h (1 Bft)
11.07.2016 06:28 18,1 C 18,1 C 75 % 1010,9 hPa 0,0 mm 1,0 km/h (0 Bft) O-SO 120 1 min 0,000 mm 0,0 UV-I 95 W/m 13,6 C 3,2 km/h (1 Bft)
11.07.2016 06:29 18,1 C 18,2 C 77 % 1010,8 hPa 0,0 mm 1,7 km/h (1 Bft) NW 320 1 min 0,000 mm 0,0 UV-I 95 W/m 14,0 C 4,8 km/h (1 Bft)
11.07.2016 06:30 18,2 C 18,2 C 77 % 1010,8 hPa 0,0 mm 1,3 km/h (1 Bft) NW 320 1 min 0,000 mm 0,0 UV-I 97 W/m 14,1 C 3,2 km/h (1 Bft)
11.07.2016 06:31 18,2 C 18,2 C 76 % 1010,8 hPa 0,0 mm 0,9 km/h (0 Bft) NW 321 1 min 0,000 mm 0,0 UV-I 97 W/m 13,9 C 1,6 km/h (1 Bft)
11.07.2016 06:32 18,2 C 18,2 C 76 % 1010,8 hPa 0,0 mm 0,4 km/h (0 Bft) NW 321 1 min 0,000 mm 0,0 UV-I 91 W/m 13,9 C 3,2 km/h (1 Bft)
11.07.2016 06:33 18,2 C 18,2 C 75 % 1010,7 hPa 0,0 mm 1,3 km/h (1 Bft) N-NO 18 1 min 0,000 mm 0,0 UV-I 91 W/m 13,7 C 1,6 km/h (1 Bft)
11.07.2016 06:34 18,2 C 18,2 C 77 % 1010,7 hPa 0,0 mm 1,0 km/h (0 Bft) N-NO 18 1 min 0,000 mm 0,0 UV-I 91 W/m 14,1 C 1,6 km/h (1 Bft)
11.07.2016 06:35 18,1 C 18,2 C 77 % 1010,8 hPa 0,0 mm 0,3 km/h (0 Bft) N-NO 18 1 min 0,000 mm 0,0 UV-I 93 W/m 14,0 C 1,6 km/h (1 Bft)
11.07.2016 06:36 18,1 C 18,1 C 76 % 1010,8 hPa 0,0 mm 0,1 km/h (0 Bft) N-NO 18 0 min 0,000 mm 0,0 UV-I 81 W/m 13,8 C 1,6 km/h (1 Bft)
11.07.2016 06:37 18,2 C 18,2 C 75 % 1010,8 hPa 0,0 mm 0,0 km/h (0 Bft) N-NO 18 0 min 0,000 mm 0,0 UV-I 69 W/m 13,7 C 0,0 km/h (0 Bft)
11.07.2016 06:38 18,3 C 18,3 C 75 % 1010,8 hPa 0,0 mm 1,2 km/h (1 Bft) N-NO 21 0 min 0,000 mm 0,0 UV-I 63 W/m 13,8 C 3,2 km/h (1 Bft)
11.07.2016 06:39 18,3 C 18,3 C 77 % 1010,8 hPa 0,0 mm 3,8 km/h (1 Bft) O 87 0 min 0,000 mm 0,0 UV-I 62 W/m 14,2 C 6,4 km/h (2 Bft)
11.07.2016 06:40 18,4 C 18,4 C 75 % 1010,8 hPa 0,0 mm 2,1 km/h (1 Bft) O 88 0 min 0,000 mm 0,0 UV-I 63 W/m 13,9 C 3,2 km/h (1 Bft)
11.07.2016 06:41 18,4 C 18,4 C 75 % 1010,8 hPa 0,0 mm 0,3 km/h (0 Bft) O 88 0 min 0,000 mm 0,0 UV-I 70 W/m 13,9 C 1,6 km/h (1 Bft)
11.07.2016 06:42 18,3 C 18,4 C 77 % 1010,8 hPa 0,0 mm 0,0 km/h (0 Bft) O 88 0 min 0,000 mm 0,0 UV-I 76 W/m 14,2 C 0,0 km/h (0 Bft)
11.07.2016 06:43 18,2 C 18,3 C 79 % 1010,8 hPa 0,0 mm 0,1 km/h (0 Bft) O 88 0 min 0,000 mm 0,0 UV-I 72 W/m 14,5 C 1,6 km/h (1 Bft)
11.07.2016 06:44 18,2 C 18,2 C 77 % 1010,8 hPa 0,0 mm 0,1 km/h (0 Bft) O 88 0 min 0,000 mm 0,0 UV-I 72 W/m 14,1 C 1,6 km/h (1 Bft)
11.07.2016 06:45 18,1 C 18,2 C 80 % 1010,8 hPa 0,0 mm 0,4 km/h (0 Bft) O 88 0 min 0,000 mm 0,0 UV-I 90 W/m 14,6 C 1,6 km/h (1 Bft)
11.07.2016 06:46 18,1 C 18,1 C 77 % 1010,8 hPa 0,0 mm 0,4 km/h (0 Bft) O 88 0 min 0,000 mm 0,5 UV-I 95 W/m 14,0 C 1,6 km/h (1 Bft)
11.07.2016 06:47 18,0 C 18,1 C 78 % 1010,8 hPa 0,0 mm 1,5 km/h (1 Bft) O 88 1 min 0,000 mm 0,5 UV-I 104 W/m 14,1 C 1,6 km/h (1 Bft)
11.07.2016 06:48 17,9 C 18,0 C 81 % 1010,8 hPa 0,0 mm 1,2 km/h (1 Bft) O 88 1 min 0,000 mm 0,5 UV-I 111 W/m 14,6 C 1,6 km/h (1 Bft)
11.07.2016 06:49 17,9 C 17,9 C 80 % 1010,8 hPa 0,0 mm 0,9 km/h (0 Bft) N-NO 30 1 min 0,000 mm 0,5 UV-I 105 W/m 14,4 C 1,6 km/h (1 Bft)
11.07.2016 06:50 17,8 C 17,9 C 80 % 1010,9 hPa 0,0 mm 1,1 km/h (1 Bft) NO 35 1 min 0,000 mm 0,5 UV-I 114 W/m 14,3 C 3,2 km/h (1 Bft)
11.07.2016 06:51 17,9 C 17,9 C 78 % 1010,8 hPa 0,0 mm 0,7 km/h (0 Bft) NO 35 1 min 0,000 mm 0,5 UV-I 160 W/m 14,0 C 1,6 km/h (1 Bft)
11.07.2016 06:52 18,0 C 18,0 C 78 % 1010,8 hPa 0,0 mm 1,5 km/h (1 Bft) NO 35 1 min 0,000 mm 0,5 UV-I 156 W/m 14,1 C 3,2 km/h (1 Bft)
11.07.2016 06:53 18,1 C 18,1 C 77 % 1010,8 hPa 0,0 mm 1,9 km/h (1 Bft) O-NO 75 1 min 0,000 mm 0,5 UV-I 148 W/m 14,0 C 3,2 km/h (1 Bft)
11.07.2016 06:54 18,2 C 18,2 C 78 % 1010,8 hPa 0,0 mm 1,2 km/h (1 Bft) O-NO 76 1 min 0,000 mm 0,5 UV-I 155 W/m 14,3 C 3,2 km/h (1 Bft)
11.07.2016 06:55 18,2 C 18,2 C 77 % 1010,8 hPa 0,0 mm 0,3 km/h (0 Bft) O-NO 76 1 min 0,000 mm 0,5 UV-I 149 W/m 14,1 C 1,6 km/h (1 Bft)
11.07.2016 06:56 18,2 C 18,2 C 81 % 1010,8 hPa 0,0 mm 0,6 km/h (0 Bft) O-NO 76 1 min 0,000 mm 0,5 UV-I 149 W/m 14,9 C 1,6 km/h (1 Bft)
11.07.2016 06:57 18,2 C 18,2 C 81 % 1010,8 hPa 0,0 mm 0,1 km/h (0 Bft) O-NO 76 0 min 0,000 mm 0,5 UV-I 97 W/m 14,9 C 1,6 km/h (1 Bft)
11.07.2016 06:58 18,2 C 18,2 C 78 % 1010,9 hPa 0,0 mm 1,1 km/h (1 Bft) O-NO 76 0 min 0,000 mm 0,5 UV-I 95 W/m 14,3 C 1,6 km/h (1 Bft)
11.07.2016 06:59 18,3 C 18,3 C 81 % 1010,9 hPa 0,0 mm 0,2 km/h (0 Bft) O-NO 76 0 min 0,000 mm 0,5 UV-I 95 W/m 15,0 C 1,6 km/h (1 Bft)
11.07.2016 07:00 18,4 C 18,4 C 77 % 1010,8 hPa 0,0 mm 0,2 km/h (0 Bft) O-NO 76 0 min 0,050 mm 0,6 UV-I 102 W/m 14,3 C 1,6 km/h (1 Bft)
11.07.2016 07:01 18,4 C 18,4 C 80 % 1010,9 hPa 0,0 mm 1,3 km/h (1 Bft) O-NO 76 0 min 0,000 mm 0,6 UV-I 104 W/m 14,9 C 3,2 km/h (1 Bft)
11.07.2016 07:02 18,4 C 18,4 C 77 % 1010,8 hPa 0,0 mm 1,7 km/h (1 Bft) O-NO 76 1 min 0,000 mm 0,6 UV-I 127 W/m 14,3 C 3,2 km/h (1 Bft)
11.07.2016 07:03 18,4 C 18,4 C 77 % 1010,9 hPa 0,0 mm 0,6 km/h (0 Bft) O-NO 76 1 min 0,000 mm 0,6 UV-I 132 W/m 14,3 C 1,6 km/h (1 Bft)
11.07.2016 07:04 18,6 C 18,6 C 75 % 1010,9 hPa 0,0 mm 1,5 km/h (1 Bft) O-NO 75 1 min 0,000 mm 0,6 UV-I 142 W/m 14,1 C 3,2 km/h (1 Bft)
11.07.2016 07:05 18,6 C 18,6 C 78 % 1010,9 hPa 0,0 mm 1,5 km/h (1 Bft) O-NO 75 1 min 0,000 mm 0,6 UV-I 149 W/m 14,7 C 3,2 km/h (1 Bft)
11.07.2016 07:06 18,7 C 18,7 C 74 % 1010,8 hPa 0,0 mm 2,1 km/h (1 Bft) O 98 1 min 0,000 mm 0,6 UV-I 137 W/m 14,0 C 4,8 km/h (1 Bft)
11.07.2016 07:07 18,7 C 18,7 C 77 % 1010,9 hPa 0,0 mm 1,7 km/h (1 Bft) O 98 0 min 0,000 mm 0,6 UV-I 102 W/m 14,6 C 3,2 km/h (1 Bft)
11.07.2016 07:08 18,6 C 18,7 C 76 % 1010,9 hPa 0,0 mm 1,1 km/h (1 Bft) O 98 0 min 0,000 mm 0,6 UV-I 114 W/m 14,3 C 1,6 km/h (1 Bft)
11.07.2016 07:09 18,6 C 18,6 C 82 % 1010,8 hPa 0,0 mm 0,7 km/h (0 Bft) O 98 0 min 0,000 mm 0,6 UV-I 109 W/m 15,5 C 1,6 km/h (1 Bft)
11.07.2016 07:10 18,6 C 18,6 C 78 % 1010,9 hPa 0,0 mm 0,1 km/h (0 Bft) O 98 0 min 0,000 mm 0,6 UV-I 86 W/m 14,7 C 1,6 km/h (1 Bft)
11.07.2016 07:11 18,6 C 18,6 C 78 % 1010,9 hPa 0,0 mm 0,3 km/h (0 Bft) O 98 0 min 0,000 mm 0,6 UV-I 84 W/m 14,7 C 1,6 km/h (1 Bft)
11.07.2016 07:12 18,6 C 18,6 C 78 % 1010,9 hPa 0,0 mm 1,7 km/h (1 Bft) S-SW 201 0 min 0,000 mm 0,6 UV-I 84 W/m 14,7 C 3,2 km/h (1 Bft)
11.07.2016 07:13 18,6 C 18,6 C 77 % 1010,9 hPa 0,0 mm 1,1 km/h (1 Bft) S 178 0 min 0,000 mm 0,6 UV-I 91 W/m 14,5 C 1,6 km/h (1 Bft)
11.07.2016 07:14 18,6 C 18,6 C 79 % 1010,9 hPa 0,0 mm 0,7 km/h (0 Bft) S 178 0 min 0,000 mm 0,7 UV-I 91 W/m 14,9 C 1,6 km/h (1 Bft)
11.07.2016 07:15 18,6 C 18,6 C 76 % 1010,9 hPa 0,0 mm 0,9 km/h (0 Bft) S 178 0 min 0,000 mm 0,7 UV-I 90 W/m 14,3 C 1,6 km/h (1 Bft)
11.07.2016 07:16 18,6 C 18,6 C 77 % 1010,9 hPa 0,0 mm 0,6 km/h (0 Bft) S 178 0 min 0,000 mm 0,7 UV-I 95 W/m 14,5 C 1,6 km/h (1 Bft)
11.07.2016 07:17 18,5 C 18,6 C 81 % 1010,9 hPa 0,0 mm 0,3 km/h (0 Bft) S 178 0 min 0,000 mm 0,7 UV-I 105 W/m 15,2 C 1,6 km/h (1 Bft)
11.07.2016 07:18 18,4 C 18,5 C 81 % 1010,9 hPa 0,0 mm 2,1 km/h (1 Bft) SO 129 0 min 0,000 mm 0,7 UV-I 107 W/m 15,1 C 3,2 km/h (1 Bft)
11.07.2016 07:19 18,4 C 18,4 C 79 % 1010,9 hPa 0,0 mm 1,0 km/h (0 Bft) SO 129 0 min 0,000 mm 0,7 UV-I 120 W/m 14,7 C 3,2 km/h (1 Bft)
11.07.2016 07:20 18,4 C 18,4 C 81 % 1010,9 hPa 0,0 mm 1,8 km/h (1 Bft) SO 129 1 min 0,000 mm 0,8 UV-I 186 W/m 15,1 C 3,2 km/h (1 Bft)
11.07.2016 07:21 18,4 C 18,4 C 81 % 1010,9 hPa 0,0 mm 0,4 km/h (0 Bft) SO 129 1 min 0,000 mm 0,8 UV-I 160 W/m 15,1 C 1,6 km/h (1 Bft)
11.07.2016 07:22 18,4 C 18,4 C 76 % 1010,9 hPa 0,0 mm 0,1 km/h (0 Bft) SO 129 1 min 0,000 mm 0,8 UV-I 160 W/m 14,1 C 1,6 km/h (1 Bft)
11.07.2016 07:23 18,6 C 18,6 C 80 % 1010,9 hPa 0,0 mm 0,2 km/h (0 Bft) SO 129 1 min 0,000 mm 0,9 UV-I 195 W/m 15,1 C 1,6 km/h (1 Bft)
11.07.2016 07:24 18,6 C 18,6 C 77 % 1010,9 hPa 0,0 mm 0,0 km/h (0 Bft) SO 129 1 min 0,000 mm 0,9 UV-I 195 W/m 14,5 C 0,0 km/h (0 Bft)
11.07.2016 07:25 18,8 C 18,8 C 77 % 1010,8 hPa 0,0 mm 0,2 km/h (0 Bft) SO 129 0 min 0,000 mm 0,8 UV-I 139 W/m 14,7 C 1,6 km/h (1 Bft)
11.07.2016 07:26 18,9 C 18,9 C 75 % 1010,9 hPa 0,0 mm 0,8 km/h (0 Bft) SO 129 0 min 0,000 mm 0,8 UV-I 132 W/m 14,4 C 1,6 km/h (1 Bft)
11.07.2016 07:27 18,9 C 18,9 C 79 % 1010,9 hPa 0,0 mm 0,4 km/h (0 Bft) SO 129 1 min 0,000 mm 0,9 UV-I 160 W/m 15,2 C 1,6 km/h (1 Bft)
11.07.2016 07:28 19,0 C 19,1 C 79 % 1010,9 hPa 0,0 mm 0,2 km/h (0 Bft) SO 129 0 min 0,000 mm 0,9 UV-I 155 W/m 15,3 C 1,6 km/h (1 Bft)
11.07.2016 07:29 19,1 C 19,1 C 76 % 1010,9 hPa 0,0 mm 2,3 km/h (1 Bft) N 5 1 min 0,000 mm 0,9 UV-I 162 W/m 14,8 C 4,8 km/h (1 Bft)
11.07.2016 07:30 19,1 C 19,1 C 77 % 1010,9 hPa 0,0 mm 1,6 km/h (1 Bft) N 5 0 min 0,000 mm 0,9 UV-I 155 W/m 15,0 C 3,2 km/h (1 Bft)
11.07.2016 07:31 19,4 C 19,4 C 73 % 1010,9 hPa 0,0 mm 2,0 km/h (1 Bft) S-SO 153 0 min 0,000 mm 0,9 UV-I 160 W/m 14,4 C 3,2 km/h (1 Bft)
11.07.2016 07:32 19,6 C 19,6 C 75 % 1010,9 hPa 0,0 mm 0,4 km/h (0 Bft) S-SO 153 1 min 0,000 mm 1,0 UV-I 197 W/m 15,0 C 1,6 km/h (1 Bft)
11.07.2016 07:33 19,6 C 19,6 C 75 % 1010,9 hPa 0,0 mm 0,0 km/h (0 Bft) S-SO 153 1 min 0,000 mm 1,0 UV-I 188 W/m 15,0 C 0,0 km/h (0 Bft)
11.07.2016 07:34 19,6 C 19,6 C 77 % 1010,9 hPa 0,0 mm 0,3 km/h (0 Bft) SO 131 1 min 0,000 mm 1,0 UV-I 188 W/m 15,5 C 1,6 km/h (1 Bft)
11.07.2016 07:35 19,6 C 19,6 C 78 % 1011,0 hPa 0,0 mm 1,1 km/h (1 Bft) SO 131 1 min 0,000 mm 1,1 UV-I 227 W/m 15,7 C 1,6 km/h (1 Bft)
11.07.2016 07:36 19,6 C 19,6 C 78 % 1011,0 hPa 0,0 mm 0,5 km/h (0 Bft) SO 131 1 min 0,000 mm 1,1 UV-I 236 W/m 15,7 C 1,6 km/h (1 Bft)
11.07.2016 07:37 19,6 C 19,6 C 77 % 1011,0 hPa 0,0 mm 0,5 km/h (0 Bft) SO 131 1 min 0,000 mm 1,0 UV-I 221 W/m 15,5 C 1,6 km/h (1 Bft)
11.07.2016 07:38 19,7 C 19,7 C 77 % 1011,0 hPa 0,0 mm 0,1 km/h (0 Bft) SO 131 0 min 0,000 mm 1,0 UV-I 148 W/m 15,5 C 1,6 km/h (1 Bft)
11.07.2016 07:39 19,7 C 19,7 C 77 % 1010,9 hPa 0,0 mm 0,4 km/h (0 Bft) SO 131 0 min 0,000 mm 1,0 UV-I 144 W/m 15,5 C 1,6 km/h (1 Bft)
11.07.2016 07:40 19,8 C 19,8 C 72 % 1011,0 hPa 0,0 mm 1,4 km/h (1 Bft) SO 131 0 min 0,000 mm 1,0 UV-I 156 W/m 14,6 C 3,2 km/h (1 Bft)
11.07.2016 07:41 19,9 C 19,9 C 77 % 1011,0 hPa 0,0 mm 0,0 km/h (0 Bft) SO 131 0 min 0,000 mm 1,0 UV-I 158 W/m 15,7 C 0,0 km/h (0 Bft)
11.07.2016 07:42 19,9 C 19,9 C 72 % 1011,0 hPa 0,0 mm 1,0 km/h (0 Bft) SO 131 0 min 0,000 mm 1,0 UV-I 155 W/m 14,7 C 1,6 km/h (1 Bft)
11.07.2016 07:43 20,0 C 20,0 C 73 % 1010,9 hPa 0,0 mm 1,5 km/h (1 Bft) SO 131 1 min 0,000 mm 1,1 UV-I 188 W/m 15,0 C 3,2 km/h (1 Bft)
11.07.2016 07:44 20,0 C 20,0 C 74 % 1011,0 hPa 0,0 mm 0,1 km/h (0 Bft) SO 131 0 min 0,000 mm 1,1 UV-I 179 W/m 15,2 C 1,6 km/h (1 Bft)
11.07.2016 07:45 19,9 C 20,0 C 79 % 1011,0 hPa 0,0 mm 0,0 km/h (0 Bft) SO 131 0 min 0,000 mm 1,1 UV-I 179 W/m 16,1 C 0,0 km/h (0 Bft)
11.07.2016 07:46 19,9 C 19,9 C 74 % 1011,0 hPa 0,0 mm 0,0 km/h (0 Bft) SO 131 0 min 0,000 mm 1,1 UV-I 181 W/m 15,1 C 0,0 km/h (0 Bft)
11.07.2016 07:47 19,9 C 19,9 C 74 % 1011,0 hPa 0,0 mm 0,0 km/h (0 Bft) SO 131 1 min 0,000 mm 1,1 UV-I 190 W/m 15,1 C 0,0 km/h (0 Bft)
11.07.2016 07:48 19,9 C 19,9 C 73 % 1011,0 hPa 0,0 mm 0,5 km/h (0 Bft) SO 131 0 min 0,000 mm 1,1 UV-I 179 W/m 14,9 C 1,6 km/h (1 Bft)
11.07.2016 07:49 20,0 C 20,0 C 78 % 1011,0 hPa 0,0 mm 0,0 km/h (0 Bft) SO 131 0 min 0,000 mm 1,1 UV-I 163 W/m 16,0 C 0,0 km/h (0 Bft)
11.07.2016 07:50 20,0 C 20,0 C 79 % 1011,0 hPa 0,0 mm 0,9 km/h (0 Bft) SO 131 0 min 0,000 mm 1,1 UV-I 167 W/m 16,2 C 1,6 km/h (1 Bft)
11.07.2016 07:51 20,1 C 20,1 C 77 % 1011,0 hPa 0,0 mm 0,2 km/h (0 Bft) SO 131 0 min 0,000 mm 1,2 UV-I 183 W/m 15,9 C 1,6 km/h (1 Bft)
11.07.2016 07:52 20,1 C 20,1 C 73 % 1011,0 hPa 0,0 mm 0,5 km/h (0 Bft) SO 131 1 min 0,000 mm 1,3 UV-I 202 W/m 15,1 C 1,6 km/h (1 Bft)
11.07.2016 07:53 20,2 C 20,2 C 74 % 1011,0 hPa 0,0 mm 0,1 km/h (0 Bft) SO 131 1 min 0,000 mm 1,3 UV-I 223 W/m 15,4 C 1,6 km/h (1 Bft)
11.07.2016 07:54 20,2 C 20,2 C 79 % 1011,0 hPa 0,0 mm 0,0 km/h (0 Bft) SO 132 1 min 0,000 mm 1,4 UV-I 241 W/m 16,4 C 0,0 km/h (0 Bft)
11.07.2016 07:55 20,3 C 20,3 C 78 % 1011,0 hPa 0,0 mm 0,7 km/h (0 Bft) SO 131 1 min 0,000 mm 1,4 UV-I 262 W/m 16,3 C 1,6 km/h (1 Bft)
11.07.2016 07:56 20,3 C 20,3 C 79 % 1011,0 hPa 0,0 mm 1,5 km/h (1 Bft) S-SW 200 1 min 0,000 mm 1,4 UV-I 262 W/m 16,5 C 3,2 km/h (1 Bft)
11.07.2016 07:57 20,3 C 20,3 C 75 % 1011,0 hPa 0,0 mm 1,3 km/h (1 Bft) S-SO 156 1 min 0,000 mm 1,4 UV-I 258 W/m 15,7 C 3,2 km/h (1 Bft)
11.07.2016 07:58 20,3 C 20,4 C 72 % 1011,0 hPa 0,0 mm 2,0 km/h (1 Bft) S-SO 157 1 min 0,000 mm 1,5 UV-I 260 W/m 15,1 C 3,2 km/h (1 Bft)
11.07.2016 07:59 20,4 C 20,4 C 72 % 1011,1 hPa 0,0 mm 0,9 km/h (0 Bft) S-SO 157 1 min 0,000 mm 1,5 UV-I 265 W/m 15,2 C 1,6 km/h (1 Bft)
11.07.2016 08:00 20,5 C 20,5 C 77 % 1011,1 hPa 0,0 mm 0,6 km/h (0 Bft) S-SO 157 1 min 0,000 mm 1,5 UV-I 281 W/m 16,3 C 1,6 km/h (1 Bft)
11.07.2016 08:01 20,5 C 20,5 C 75 % 1011,1 hPa 0,0 mm 1,6 km/h (1 Bft) W-NW 299 1 min 0,102 mm 1,5 UV-I 276 W/m 15,9 C 4,8 km/h (1 Bft)
11.07.2016 08:02 20,5 C 20,5 C 73 % 1011,1 hPa 0,0 mm 1,6 km/h (1 Bft) SW 236 1 min 0,000 mm 1,6 UV-I 294 W/m 15,5 C 3,2 km/h (1 Bft)
11.07.2016 08:03 20,6 C 20,6 C 71 % 1011,1 hPa 0,0 mm 0,7 km/h (0 Bft) SW 236 1 min 0,000 mm 1,5 UV-I 285 W/m 15,2 C 1,6 km/h (1 Bft)
11.07.2016 08:04 20,8 C 20,8 C 71 % 1011,1 hPa 0,0 mm 1,1 km/h (1 Bft) S-SW 211 1 min 0,000 mm 1,5 UV-I 278 W/m 15,3 C 3,2 km/h (1 Bft)
11.07.2016 08:05 20,8 C 20,8 C 68 % 1011,1 hPa 0,0 mm 2,7 km/h (1 Bft) S 184 1 min 0,000 mm 1,5 UV-I 274 W/m 14,7 C 4,8 km/h (1 Bft)
11.07.2016 08:06 20,8 C 20,8 C 72 % 1011,1 hPa 0,0 mm 0,5 km/h (0 Bft) S 184 1 min 0,000 mm 1,5 UV-I 274 W/m 15,6 C 1,6 km/h (1 Bft)
11.07.2016 08:07 20,8 C 20,8 C 74 % 1011,1 hPa 0,0 mm 0,1 km/h (0 Bft) S 184 1 min 0,000 mm 1,5 UV-I 241 W/m 16,0 C 1,6 km/h (1 Bft)
11.07.2016 08:08 20,8 C 20,8 C 74 % 1011,1 hPa 0,0 mm 2,1 km/h (1 Bft) SW 223 1 min 0,000 mm 1,5 UV-I 244 W/m 16,0 C 4,8 km/h (1 Bft)
11.07.2016 08:09 20,8 C 20,8 C 71 % 1011,1 hPa 0,0 mm 1,1 km/h (1 Bft) SW 223 1 min 0,000 mm 1,5 UV-I 248 W/m 15,3 C 3,2 km/h (1 Bft)
11.07.2016 08:10 20,8 C 20,8 C 73 % 1011,1 hPa 0,0 mm 1,7 km/h (1 Bft) S-SO 163 1 min 0,000 mm 1,5 UV-I 239 W/m 15,8 C 3,2 km/h (1 Bft)
11.07.2016 08:11 20,8 C 20,8 C 75 % 1011,1 hPa 0,0 mm 1,3 km/h (1 Bft) S-SO 163 1 min 0,000 mm 1,5 UV-I 236 W/m 16,2 C 3,2 km/h (1 Bft)
11.07.2016 08:12 20,8 C 20,8 C 72 % 1011,1 hPa 0,0 mm 0,3 km/h (0 Bft) S-SO 163 1 min 0,000 mm 1,5 UV-I 243 W/m 15,6 C 1,6 km/h (1 Bft)
11.07.2016 08:13 20,9 C 20,9 C 71 % 1011,0 hPa 0,0 mm 0,3 km/h (0 Bft) S-SO 163 0 min 0,000 mm 1,5 UV-I 221 W/m 15,4 C 1,6 km/h (1 Bft)
11.07.2016 08:14 20,9 C 20,9 C 73 % 1011,0 hPa 0,0 mm 0,4 km/h (0 Bft) S-SO 163 0 min 0,000 mm 1,5 UV-I 223 W/m 15,9 C 1,6 km/h (1 Bft)
11.07.2016 08:15 20,9 C 20,9 C 73 % 1011,0 hPa 0,0 mm 0,5 km/h (0 Bft) S-SO 163 0 min 0,000 mm 1,5 UV-I 200 W/m 15,9 C 1,6 km/h (1 Bft)
11.07.2016 08:16 20,9 C 21,0 C 75 % 1011,1 hPa 0,0 mm 0,3 km/h (0 Bft) S-SO 163 0 min 0,000 mm 1,5 UV-I 218 W/m 16,3 C 3,2 km/h (1 Bft)
11.07.2016 08:17 20,9 C 20,9 C 76 % 1011,1 hPa 0,0 mm 1,6 km/h (1 Bft) S-SO 163 0 min 0,000 mm 1,5 UV-I 223 W/m 16,5 C 3,2 km/h (1 Bft)
11.07.2016 08:18 20,9 C 20,9 C 75 % 1011,0 hPa 0,0 mm 1,3 km/h (1 Bft) S 173 1 min 0,000 mm 1,6 UV-I 236 W/m 16,3 C 3,2 km/h (1 Bft)
11.07.2016 08:19 21,1 C 21,1 C 69 % 1011,0 hPa 0,0 mm 0,6 km/h (0 Bft) S 173 1 min 0,000 mm 1,7 UV-I 272 W/m 15,2 C 1,6 km/h (1 Bft)
11.07.2016 08:20 21,2 C 21,2 C 72 % 1011,1 hPa 0,0 mm 1,1 km/h (1 Bft) W-SW 246 1 min 0,000 mm 1,7 UV-I 272 W/m 15,9 C 1,6 km/h (1 Bft)
11.07.2016 08:21 21,3 C 21,3 C 75 % 1011,1 hPa 0,0 mm 4,2 km/h (1 Bft) NW 306 1 min 0,000 mm 1,8 UV-I 295 W/m 16,7 C 6,4 km/h (2 Bft)
11.07.2016 08:22 21,4 C 21,4 C 74 % 1011,1 hPa 0,0 mm 2,5 km/h (1 Bft) W-NW 298 1 min 0,000 mm 1,9 UV-I 306 W/m 16,6 C 4,8 km/h (1 Bft)
11.07.2016 08:23 21,6 C 21,6 C 75 % 1011,1 hPa 0,0 mm 0,0 km/h (0 Bft) W-NW 298 1 min 0,000 mm 1,9 UV-I 308 W/m 17,0 C 0,0 km/h (0 Bft)
11.07.2016 08:24 21,7 C 21,7 C 76 % 1011,1 hPa 0,0 mm 0,0 km/h (0 Bft) W-NW 298 1 min 0,000 mm 1,9 UV-I 301 W/m 17,3 C 0,0 km/h (0 Bft)
11.07.2016 08:25 21,8 C 21,8 C 72 % 1011,1 hPa 0,0 mm 0,0 km/h (0 Bft) W-NW 293 1 min 0,000 mm 1,9 UV-I 336 W/m 16,5 C 0,0 km/h (0 Bft)
11.07.2016 08:26 21,7 C 21,8 C 71 % 1011,1 hPa 0,0 mm 0,0 km/h (0 Bft) W-NW 288 1 min 0,000 mm 2,0 UV-I 336 W/m 16,2 C 0,0 km/h (0 Bft)
11.07.2016 08:27 21,7 C 21,7 C 71 % 1011,1 hPa 0,0 mm 0,0 km/h (0 Bft) W-NW 288 1 min 0,000 mm 2,1 UV-I 345 W/m 16,2 C 0,0 km/h (0 Bft)
11.07.2016 08:28 21,7 C 21,7 C 71 % 1011,1 hPa 0,0 mm 0,0 km/h (0 Bft) W-NW 288 1 min 0,000 mm 2,1 UV-I 369 W/m 16,2 C 0,0 km/h (0 Bft)
11.07.2016 08:29 21,7 C 21,7 C 76 % 1011,1 hPa 0,0 mm 0,0 km/h (0 Bft) W-NW 288 1 min 0,000 mm 2,1 UV-I 348 W/m 17,3 C 0,0 km/h (0 Bft)
11.07.2016 08:30 21,6 C 21,7 C 75 % 1011,1 hPa 0,0 mm 0,0 km/h (0 Bft) W-NW 288 1 min 0,000 mm 2,1 UV-I 345 W/m 17,0 C 0,0 km/h (0 Bft)
11.07.2016 08:31 21,7 C 21,7 C 72 % 1011,1 hPa 0,0 mm 0,0 km/h (0 Bft) S 181 1 min 0,000 mm 2,2 UV-I 381 W/m 16,4 C 0,0 km/h (0 Bft)
11.07.2016 08:32 21,9 C 21,9 C 70 % 1011,1 hPa 0,0 mm 0,0 km/h (0 Bft) S 178 1 min 0,000 mm 2,2 UV-I 411 W/m 16,2 C 0,0 km/h (0 Bft)
11.07.2016 08:33 21,9 C 21,9 C 70 % 1011,1 hPa 0,0 mm 0,0 km/h (0 Bft) S 178 1 min 0,000 mm 2,2 UV-I 404 W/m 16,2 C 0,0 km/h (0 Bft)
11.07.2016 08:34 22,0 C 22,0 C 68 % 1011,1 hPa 0,0 mm 0,0 km/h (0 Bft) S-SO 167 1 min 0,000 mm 2,2 UV-I 394 W/m 15,8 C 0,0 km/h (0 Bft)
11.07.2016 08:35 22,1 C 22,1 C 71 % 1011,1 hPa 0,0 mm 0,0 km/h (0 Bft) S-SO 160 1 min 0,000 mm 2,1 UV-I 380 W/m 16,6 C 0,0 km/h (0 Bft)
11.07.2016 08:36 22,1 C 22,1 C 75 % 1011,1 hPa 0,0 mm 0,0 km/h (0 Bft) S-SO 160 1 min 0,000 mm 2,2 UV-I 401 W/m 17,5 C 0,0 km/h (0 Bft)
11.07.2016 08:37 22,2 C 22,2 C 70 % 1011,2 hPa 0,0 mm 0,0 km/h (0 Bft) S-SO 160 1 min 0,000 mm 2,1 UV-I 394 W/m 16,5 C 0,0 km/h (0 Bft)
11.07.2016 08:38 22,3 C 22,3 C 71 % 1011,2 hPa 0,0 mm 0,0 km/h (0 Bft) S-SO 161 1 min 0,000 mm 1,9 UV-I 323 W/m 16,8 C 0,0 km/h (0 Bft)
11.07.2016 08:39 22,3 C 22,3 C 73 % 1011,2 hPa 0,0 mm 0,0 km/h (0 Bft) NW 309 1 min 0,000 mm 1,9 UV-I 302 W/m 17,2 C 0,0 km/h (0 Bft)
11.07.2016 08:40 22,4 C 22,4 C 73 % 1011,2 hPa 0,0 mm 1,3 km/h (1 Bft) SO 130 1 min 0,000 mm 1,9 UV-I 302 W/m 17,3 C 3,2 km/h (1 Bft)
11.07.2016 08:41 22,3 C 22,4 C 67 % 1011,1 hPa 0,0 mm 2,9 km/h (1 Bft) SO 130 1 min 0,000 mm 1,9 UV-I 294 W/m 15,9 C 4,8 km/h (1 Bft)
11.07.2016 08:42 22,3 C 22,3 C 69 % 1011,2 hPa 0,0 mm 1,5 km/h (1 Bft) SO 130 1 min 0,000 mm 1,9 UV-I 281 W/m 16,3 C 1,6 km/h (1 Bft)
11.07.2016 08:43 22,3 C 22,3 C 69 % 1011,2 hPa 0,0 mm 0,8 km/h (0 Bft) S-SO 157 1 min 0,000 mm 1,9 UV-I 272 W/m 16,3 C 3,2 km/h (1 Bft)
11.07.2016 08:44 22,4 C 22,4 C 67 % 1011,2 hPa 0,0 mm 0,1 km/h (0 Bft) S-SO 157 0 min 0,000 mm 1,9 UV-I 250 W/m 16,0 C 1,6 km/h (1 Bft)
11.07.2016 08:45 22,4 C 22,4 C 70 % 1011,1 hPa 0,0 mm 0,0 km/h (0 Bft) S-SO 157 1 min 0,000 mm 2,0 UV-I 283 W/m 16,7 C 0,0 km/h (0 Bft)
11.07.2016 08:46 22,4 C 22,4 C 74 % 1011,1 hPa 0,0 mm 0,1 km/h (0 Bft) S-SO 157 1 min 0,000 mm 2,0 UV-I 276 W/m 17,5 C 1,6 km/h (1 Bft)
11.07.2016 08:47 22,4 C 22,4 C 74 % 1011,1 hPa 0,0 mm 0,9 km/h (0 Bft) S-SW 194 1 min 0,000 mm 2,2 UV-I 308 W/m 17,5 C 1,6 km/h (1 Bft)
11.07.2016 08:48 22,4 C 22,4 C 71 % 1011,1 hPa 0,0 mm 1,6 km/h (1 Bft) S-SO 150 1 min 0,000 mm 2,3 UV-I 362 W/m 16,9 C 4,8 km/h (1 Bft)
11.07.2016 08:49 22,3 C 22,4 C 71 % 1011,1 hPa 0,0 mm 3,5 km/h (1 Bft) S-SO 150 1 min 0,000 mm 2,5 UV-I 432 W/m 16,8 C 4,8 km/h (1 Bft)
11.07.2016 08:50 22,4 C 22,4 C 70 % 1011,1 hPa 0,0 mm 1,8 km/h (1 Bft) S-SO 150 1 min 0,000 mm 2,5 UV-I 415 W/m 16,7 C 3,2 km/h (1 Bft)
11.07.2016 08:51 22,6 C 22,6 C 73 % 1011,1 hPa 0,0 mm 1,5 km/h (1 Bft) SW 235 1 min 0,000 mm 2,6 UV-I 459 W/m 17,5 C 4,8 km/h (1 Bft)
11.07.2016 08:52 22,8 C 22,8 C 73 % 1011,1 hPa 0,0 mm 2,5 km/h (1 Bft) W-SW 248 1 min 0,000 mm 2,6 UV-I 443 W/m 17,7 C 4,8 km/h (1 Bft)
11.07.2016 08:53 23,1 C 23,1 C 78 % 1011,1 hPa 0,0 mm 3,2 km/h (1 Bft) S-SO 161 1 min 0,000 mm 2,6 UV-I 450 W/m 19,0 C 6,4 km/h (2 Bft)
11.07.2016 08:54 23,1 C 23,1 C 69 % 1011,1 hPa 0,0 mm 1,2 km/h (1 Bft) O-SO 104 1 min 0,000 mm 2,6 UV-I 429 W/m 17,1 C 4,8 km/h (1 Bft)
11.07.2016 08:55 23,2 C 23,2 C 71 % 1011,1 hPa 0,0 mm 1,4 km/h (1 Bft) SO 124 1 min 0,000 mm 2,6 UV-I 425 W/m 17,6 C 3,2 km/h (1 Bft)
11.07.2016 08:56 23,3 C 23,3 C 65 % 1011,2 hPa 0,0 mm 0,6 km/h (0 Bft) SO 124 1 min 0,000 mm 2,6 UV-I 415 W/m 16,3 C 3,2 km/h (1 Bft)
11.07.2016 08:57 23,6 C 23,6 C 66 % 1011,1 hPa 0,0 mm 0,2 km/h (0 Bft) SO 124 1 min 0,000 mm 2,6 UV-I 399 W/m 16,9 C 1,6 km/h (1 Bft)
11.07.2016 08:58 23,7 C 23,7 C 69 % 1011,2 hPa 0,0 mm 0,1 km/h (0 Bft) SO 124 1 min 0,000 mm 2,7 UV-I 443 W/m 17,7 C 1,6 km/h (1 Bft)
11.07.2016 08:59 23,9 C 23,9 C 66 % 1011,1 hPa 0,0 mm 0,7 km/h (0 Bft) S-SW 211 1 min 0,000 mm 2,6 UV-I 417 W/m 17,1 C 3,2 km/h (1 Bft)
11.07.2016 09:00 23,9 C 23,9 C 70 % 1011,1 hPa 0,0 mm 1,7 km/h (1 Bft) S-SW 211 1 min 0,203 mm 2,6 UV-I 422 W/m 18,1 C 3,2 km/h (1 Bft)
11.07.2016 09:01 24,1 C 24,1 C 68 % 1011,1 hPa 0,0 mm 2,6 km/h (1 Bft) W-SW 244 1 min 0,000 mm 2,7 UV-I 425 W/m 17,8 C 3,2 km/h (1 Bft)
11.07.2016 09:02 24,2 C 24,2 C 64 % 1011,1 hPa 0,0 mm 2,1 km/h (1 Bft) W-SW 244 1 min 0,000 mm 2,7 UV-I 404 W/m 16,9 C 3,2 km/h (1 Bft)
11.07.2016 09:03 24,3 C 24,3 C 63 % 1011,1 hPa 0,0 mm 2,0 km/h (1 Bft) S 172 1 min 0,000 mm 2,7 UV-I 438 W/m 16,8 C 3,2 km/h (1 Bft)
11.07.2016 09:04 24,5 C 24,5 C 68 % 1011,2 hPa 0,0 mm 5,4 km/h (1 Bft) W-SW 252 1 min 0,000 mm 2,8 UV-I 441 W/m 18,2 C 11,3 km/h (2 Bft)
11.07.2016 09:05 24,6 C 24,6 C 66 % 1011,2 hPa 0,0 mm 6,8 km/h (2 Bft) SW 221 1 min 0,000 mm 2,8 UV-I 455 W/m 17,8 C 11,3 km/h (2 Bft)
11.07.2016 09:06 24,6 C 24,6 C 62 % 1011,2 hPa 0,0 mm 3,5 km/h (1 Bft) S-SW 211 1 min 0,000 mm 2,8 UV-I 462 W/m 16,8 C 4,8 km/h (1 Bft)
11.07.2016 09:07 24,5 C 24,6 C 64 % 1011,2 hPa 0,0 mm 4,7 km/h (1 Bft) W-NW 291 1 min 0,000 mm 2,7 UV-I 418 W/m 17,2 C 6,4 km/h (2 Bft)
11.07.2016 09:08 24,6 C 24,6 C 61 % 1011,2 hPa 0,0 mm 5,3 km/h (1 Bft) W-SW 246 1 min 0,000 mm 2,8 UV-I 422 W/m 16,6 C 9,7 km/h (2 Bft)
11.07.2016 09:09 24,6 C 24,6 C 64 % 1011,2 hPa 0,0 mm 4,2 km/h (1 Bft) SW 223 1 min 0,000 mm 2,8 UV-I 425 W/m 17,3 C 8,0 km/h (2 Bft)
11.07.2016 09:10 24,7 C 24,7 C 63 % 1011,2 hPa 0,0 mm 3,2 km/h (1 Bft) W-SW 252 1 min 0,000 mm 2,9 UV-I 464 W/m 17,2 C 6,4 km/h (2 Bft)
11.07.2016 09:11 24,8 C 24,8 C 62 % 1011,2 hPa 0,0 mm 4,8 km/h (1 Bft) W 266 1 min 0,000 mm 3,0 UV-I 448 W/m 17,0 C 6,4 km/h (2 Bft)
11.07.2016 09:12 24,7 C 24,8 C 68 % 1011,2 hPa 0,0 mm 3,3 km/h (1 Bft) SW 223 1 min 0,000 mm 2,9 UV-I 441 W/m 18,4 C 6,4 km/h (2 Bft)
11.07.2016 09:13 24,6 C 24,7 C 64 % 1011,2 hPa 0,0 mm 2,4 km/h (1 Bft) W-SW 249 1 min 0,000 mm 3,0 UV-I 475 W/m 17,3 C 4,8 km/h (1 Bft)
11.07.2016 09:14 24,7 C 24,7 C 63 % 1011,2 hPa 0,0 mm 3,0 km/h (1 Bft) W-SW 238 1 min 0,000 mm 3,0 UV-I 482 W/m 17,2 C 4,8 km/h (1 Bft)
11.07.2016 09:15 24,7 C 24,7 C 64 % 1011,2 hPa 0,0 mm 2,8 km/h (1 Bft) W-SW 238 1 min 0,000 mm 3,1 UV-I 482 W/m 17,4 C 4,8 km/h (1 Bft)
11.07.2016 09:16 24,8 C 24,8 C 61 % 1011,2 hPa 0,0 mm 3,7 km/h (1 Bft) NO 42 1 min 0,000 mm 3,1 UV-I 482 W/m 16,8 C 6,4 km/h (2 Bft)
11.07.2016 09:17 24,9 C 24,9 C 65 % 1011,2 hPa 0,0 mm 2,4 km/h (1 Bft) W-SW 239 1 min 0,000 mm 3,1 UV-I 480 W/m 17,9 C 4,8 km/h (1 Bft)
11.07.2016 09:18 25,0 C 25,0 C 58 % 1011,2 hPa 0,0 mm 1,7 km/h (1 Bft) SW 216 1 min 0,000 mm 3,1 UV-I 475 W/m 16,1 C 4,8 km/h (1 Bft)
11.07.2016 09:19 25,1 C 25,1 C 58 % 1011,3 hPa 0,0 mm 0,5 km/h (0 Bft) SW 216 1 min 0,000 mm 3,1 UV-I 480 W/m 16,2 C 1,6 km/h (1 Bft)
11.07.2016 09:20 25,2 C 25,2 C 60 % 1011,3 hPa 0,0 mm 1,0 km/h (0 Bft) SW 216 1 min 0,000 mm 3,0 UV-I 438 W/m 16,9 C 1,6 km/h (1 Bft)
11.07.2016 09:21 25,2 C 25,2 C 65 % 1011,3 hPa 0,0 mm 3,1 km/h (1 Bft) S 175 1 min 0,000 mm 2,9 UV-I 425 W/m 18,1 C 4,8 km/h (1 Bft)
11.07.2016 09:22 25,2 C 25,2 C 59 % 1011,2 hPa 0,0 mm 4,5 km/h (1 Bft) NW 306 1 min 0,000 mm 3,0 UV-I 431 W/m 16,6 C 11,3 km/h (2 Bft)
11.07.2016 09:23 25,2 C 25,2 C 62 % 1011,2 hPa 0,0 mm 5,6 km/h (1 Bft) W-NW 291 1 min 0,000 mm 3,0 UV-I 432 W/m 17,4 C 8,0 km/h (2 Bft)
11.07.2016 09:24 25,2 C 25,2 C 59 % 1011,2 hPa 0,0 mm 7,2 km/h (2 Bft) W 269 1 min 0,000 mm 2,9 UV-I 392 W/m 16,6 C 9,7 km/h (2 Bft)
11.07.2016 09:25 25,1 C 25,2 C 60 % 1011,3 hPa 0,0 mm 5,4 km/h (1 Bft) W 279 1 min 0,000 mm 2,9 UV-I 420 W/m 16,8 C 9,7 km/h (2 Bft)
11.07.2016 09:26 25,0 C 25,1 C 60 % 1011,2 hPa 0,0 mm 8,1 km/h (2 Bft) SW 214 1 min 0,000 mm 3,0 UV-I 403 W/m 16,7 C 11,3 km/h (2 Bft)
11.07.2016 09:27 24,9 C 25,0 C 59 % 1011,2 hPa 0,0 mm 6,6 km/h (2 Bft) SW 219 1 min 0,000 mm 3,2 UV-I 496 W/m 16,3 C 12,9 km/h (3 Bft)
11.07.2016 09:28 24,9 C 24,9 C 58 % 1011,2 hPa 0,0 mm 4,7 km/h (1 Bft) W 277 1 min 0,000 mm 3,2 UV-I 499 W/m 16,1 C 6,4 km/h (2 Bft)
11.07.2016 09:29 25,1 C 25,1 C 63 % 1011,2 hPa 0,0 mm 4,3 km/h (1 Bft) W-NW 282 1 min 0,000 mm 3,2 UV-I 452 W/m 17,5 C 6,4 km/h (2 Bft)
11.07.2016 09:30 25,2 C 25,2 C 61 % 1011,2 hPa 0,0 mm 3,9 km/h (1 Bft) W-NW 298 1 min 0,000 mm 3,2 UV-I 483 W/m 17,1 C 6,4 km/h (2 Bft)
11.07.2016 09:31 25,2 C 25,2 C 60 % 1011,2 hPa 0,0 mm 3,6 km/h (1 Bft) NW 311 1 min 0,000 mm 3,2 UV-I 480 W/m 16,9 C 6,4 km/h (2 Bft)
11.07.2016 09:32 25,2 C 25,2 C 64 % 1011,2 hPa 0,0 mm 3,2 km/h (1 Bft) W 265 1 min 0,000 mm 3,3 UV-I 490 W/m 17,9 C 6,4 km/h (2 Bft)
11.07.2016 09:33 25,2 C 25,2 C 62 % 1011,2 hPa 0,0 mm 3,8 km/h (1 Bft) W-SW 239 1 min 0,000 mm 3,4 UV-I 513 W/m 17,4 C 6,4 km/h (2 Bft)
11.07.2016 09:34 25,3 C 25,3 C 64 % 1011,2 hPa 0,0 mm 4,7 km/h (1 Bft) NW 306 1 min 0,000 mm 3,4 UV-I 526 W/m 18,0 C 8,0 km/h (2 Bft)
11.07.2016 09:35 25,4 C 25,4 C 62 % 1011,2 hPa 0,0 mm 6,4 km/h (2 Bft) NW 304 1 min 0,000 mm 3,4 UV-I 534 W/m 17,6 C 12,9 km/h (3 Bft)
11.07.2016 09:36 25,5 C 25,5 C 57 % 1011,2 hPa 0,0 mm 8,7 km/h (2 Bft) W-NW 294 1 min 0,000 mm 3,5 UV-I 526 W/m 16,3 C 14,5 km/h (3 Bft)
11.07.2016 09:37 25,5 C 25,5 C 61 % 1011,3 hPa 0,0 mm 6,7 km/h (2 Bft) W 273 1 min 0,000 mm 3,4 UV-I 515 W/m 17,4 C 11,3 km/h (2 Bft)
11.07.2016 09:38 25,6 C 25,6 C 61 % 1011,2 hPa 0,0 mm 8,2 km/h (2 Bft) W-SW 252 1 min 0,000 mm 3,4 UV-I 503 W/m 17,5 C 11,3 km/h (2 Bft)
11.07.2016 09:39 25,6 C 25,6 C 62 % 1011,3 hPa 0,0 mm 5,3 km/h (1 Bft) W-SW 253 1 min 0,000 mm 3,5 UV-I 519 W/m 17,8 C 6,4 km/h (2 Bft)
11.07.2016 09:40 25,6 C 25,6 C 61 % 1011,2 hPa 0,0 mm 6,9 km/h (2 Bft) W 278 1 min 0,000 mm 3,4 UV-I 506 W/m 17,5 C 14,5 km/h (3 Bft)
11.07.2016 09:41 25,7 C 25,7 C 59 % 1011,2 hPa 0,0 mm 8,4 km/h (2 Bft) W-SW 244 1 min 0,000 mm 3,4 UV-I 527 W/m 17,1 C 14,5 km/h (3 Bft)
11.07.2016 09:42 25,7 C 25,7 C 64 % 1011,3 hPa 0,0 mm 5,4 km/h (1 Bft) W-NW 286 1 min 0,000 mm 3,5 UV-I 517 W/m 18,4 C 11,3 km/h (2 Bft)
11.07.2016 09:43 25,7 C 25,7 C 61 % 1011,2 hPa 0,0 mm 3,0 km/h (1 Bft) W-SW 250 1 min 0,000 mm 3,5 UV-I 522 W/m 17,6 C 4,8 km/h (1 Bft)
11.07.2016 09:44 25,7 C 25,7 C 59 % 1011,2 hPa 0,0 mm 6,3 km/h (2 Bft) W-NW 296 1 min 0,000 mm 3,5 UV-I 526 W/m 17,1 C 9,7 km/h (2 Bft)
11.07.2016 09:45 25,7 C 25,7 C 59 % 1011,2 hPa 0,0 mm 6,9 km/h (2 Bft) W 271 1 min 0,000 mm 3,5 UV-I 501 W/m 17,1 C 11,3 km/h (2 Bft)
11.07.2016 09:46 25,8 C 25,8 C 55 % 1011,2 hPa 0,0 mm 9,9 km/h (2 Bft) W-SW 249 1 min 0,000 mm 3,6 UV-I 519 W/m 16,1 C 17,7 km/h (3 Bft)
11.07.2016 09:47 25,7 C 25,8 C 61 % 1011,2 hPa 0,0 mm 7,2 km/h (2 Bft) W-NW 287 1 min 0,000 mm 3,7 UV-I 519 W/m 17,6 C 16,1 km/h (3 Bft)
11.07.2016 09:48 25,7 C 25,7 C 61 % 1011,2 hPa 0,0 mm 6,2 km/h (2 Bft) W 265 1 min 0,000 mm 3,7 UV-I 388 W/m 17,6 C 9,7 km/h (2 Bft)
11.07.2016 09:49 25,6 C 25,7 C 58 % 1011,2 hPa 0,0 mm 5,0 km/h (1 Bft) W-NW 297 1 min 0,000 mm 3,4 UV-I 388 W/m 16,7 C 9,7 km/h (2 Bft)
11.07.2016 09:50 25,6 C 25,6 C 57 % 1011,2 hPa 0,0 mm 5,6 km/h (1 Bft) W-SW 248 1 min 0,000 mm 2,8 UV-I 388 W/m 16,4 C 12,9 km/h (3 Bft)
11.07.2016 09:51 25,5 C 25,6 C 56 % 1011,3 hPa 0,0 mm 9,4 km/h (2 Bft) W-SW 244 1 min 0,000 mm 4,0 UV-I 388 W/m 16,1 C 14,5 km/h (3 Bft)
11.07.2016 09:52 25,5 C 25,6 C 60 % 1011,2 hPa 0,0 mm 7,7 km/h (2 Bft) W 273 1 min 0,000 mm 3,8 UV-I 621 W/m 17,2 C 11,3 km/h (2 Bft)
11.07.2016 09:53 25,5 C 25,5 C 61 % 1011,3 hPa 0,0 mm 8,6 km/h (2 Bft) W-NW 282 1 min 0,000 mm 4,1 UV-I 613 W/m 17,4 C 14,5 km/h (3 Bft)
11.07.2016 09:54 25,6 C 25,6 C 58 % 1011,3 hPa 0,0 mm 13,9 km/h (3 Bft) W-NW 292 1 min 0,000 mm 4,1 UV-I 605 W/m 16,7 C 16,1 km/h (3 Bft)
11.07.2016 09:55 25,6 C 25,6 C 54 % 1011,3 hPa 0,0 mm 6,0 km/h (2 Bft) W 260 1 min 0,000 mm 4,1 UV-I 608 W/m 15,6 C 12,9 km/h (3 Bft)
11.07.2016 09:56 25,8 C 25,8 C 58 % 1011,3 hPa 0,0 mm 5,6 km/h (1 Bft) W-NW 298 1 min 0,000 mm 4,1 UV-I 599 W/m 16,9 C 11,3 km/h (2 Bft)
11.07.2016 09:57 25,8 C 25,8 C 61 % 1011,3 hPa 0,0 mm 6,4 km/h (2 Bft) W 262 1 min 0,000 mm 4,1 UV-I 605 W/m 17,7 C 9,7 km/h (2 Bft)
11.07.2016 09:58 25,8 C 25,9 C 57 % 1011,3 hPa 0,0 mm 4,8 km/h (1 Bft) SW 223 1 min 0,000 mm 4,1 UV-I 617 W/m 16,6 C 9,7 km/h (2 Bft)
11.07.2016 09:59 25,8 C 25,9 C 57 % 1011,2 hPa 0,0 mm 6,4 km/h (2 Bft) W-SW 254 1 min 0,000 mm 4,2 UV-I 617 W/m 16,6 C 11,3 km/h (2 Bft)
11.07.2016 10:00 25,8 C 25,9 C 57 % 1011,3 hPa 0,0 mm 8,1 km/h (2 Bft) W-SW 246 1 min 0,330 mm 4,3 UV-I 629 W/m 16,6 C 16,1 km/h (3 Bft)
11.07.2016 10:01 25,9 C 25,9 C 55 % 1011,2 hPa 0,0 mm 7,8 km/h (2 Bft) W 259 1 min 0,000 mm 4,3 UV-I 622 W/m 16,2 C 14,5 km/h (3 Bft)
11.07.2016 10:02 25,9 C 26,0 C 61 % 1011,3 hPa 0,0 mm 8,0 km/h (2 Bft) SW 236 1 min 0,000 mm 4,3 UV-I 622 W/m 17,8 C 12,9 km/h (3 Bft)
11.07.2016 10:03 25,9 C 25,9 C 55 % 1011,2 hPa 0,0 mm 5,0 km/h (1 Bft) S-SW 213 1 min 0,000 mm 4,2 UV-I 601 W/m 16,2 C 6,4 km/h (2 Bft)
11.07.2016 10:04 25,9 C 26,0 C 54 % 1011,3 hPa 0,0 mm 11,7 km/h (2 Bft) W 271 1 min 0,000 mm 4,3 UV-I 654 W/m 15,9 C 17,7 km/h (3 Bft)
11.07.2016 10:05 26,0 C 26,0 C 55 % 1011,2 hPa 0,0 mm 9,7 km/h (2 Bft) NW 308 1 min 0,000 mm 4,5 UV-I 657 W/m 16,2 C 12,9 km/h (3 Bft)
11.07.2016 10:06 26,1 C 26,1 C 57 % 1011,2 hPa 0,0 mm 7,5 km/h (2 Bft) W 270 1 min 0,000 mm 4,5 UV-I 654 W/m 16,9 C 12,9 km/h (3 Bft)
11.07.2016 10:07 26,0 C 26,1 C 55 % 1011,1 hPa 0,0 mm 7,8 km/h (2 Bft) W-NW 302 1 min 0,000 mm 4,5 UV-I 654 W/m 16,2 C 16,1 km/h (3 Bft)
11.07.2016 10:08 26,1 C 26,1 C 58 % 1011,1 hPa 0,0 mm 10,5 km/h (2 Bft) W 270 1 min 0,000 mm 4,5 UV-I 647 W/m 17,2 C 19,3 km/h (3 Bft)
11.07.2016 10:09 26,0 C 26,1 C 53 % 1011,2 hPa 0,0 mm 15,2 km/h (3 Bft) W-SW 254 1 min 0,000 mm 4,5 UV-I 647 W/m 15,7 C 19,3 km/h (3 Bft)
11.07.2016 10:10 25,9 C 26,0 C 56 % 1011,2 hPa 0,0 mm 10,5 km/h (2 Bft) NW 311 1 min 0,000 mm 4,6 UV-I 666 W/m 16,4 C 14,5 km/h (3 Bft)
11.07.2016 10:11 26,0 C 26,0 C 57 % 1011,2 hPa 0,0 mm 7,6 km/h (2 Bft) W 271 1 min 0,000 mm 4,7 UV-I 671 W/m 16,8 C 11,3 km/h (2 Bft)
11.07.2016 10:12 26,1 C 26,1 C 57 % 1011,2 hPa 0,0 mm 8,2 km/h (2 Bft) W-NW 292 1 min 0,000 mm 4,7 UV-I 668 W/m 16,9 C 14,5 km/h (3 Bft)
11.07.2016 10:13 26,2 C 26,2 C 61 % 1011,2 hPa 0,0 mm 9,8 km/h (2 Bft) W 278 1 min 0,000 mm 4,7 UV-I 668 W/m 18,1 C 17,7 km/h (3 Bft)
11.07.2016 10:14 26,2 C 26,2 C 56 % 1011,2 hPa 0,0 mm 6,6 km/h (2 Bft) W-NW 303 1 min 0,000 mm 4,6 UV-I 663 W/m 16,7 C 12,9 km/h (3 Bft)
11.07.2016 10:15 26,2 C 26,2 C 58 % 1011,1 hPa 0,0 mm 8,7 km/h (2 Bft) W 259 1 min 0,000 mm 4,6 UV-I 663 W/m 17,3 C 17,7 km/h (3 Bft)
11.07.2016 10:16 26,2 C 26,2 C 56 % 1011,2 hPa 0,0 mm 13,8 km/h (3 Bft) W-SW 244 1 min 0,000 mm 4,6 UV-I 664 W/m 16,7 C 19,3 km/h (3 Bft)
11.07.2016 10:17 26,1 C 26,2 C 55 % 1011,1 hPa 0,0 mm 8,9 km/h (2 Bft) SW 218 1 min 0,000 mm 4,7 UV-I 668 W/m 16,3 C 12,9 km/h (3 Bft)
11.07.2016 10:18 26,2 C 26,2 C 57 % 1011,2 hPa 0,0 mm 7,4 km/h (2 Bft) W-SW 245 1 min 0,000 mm 4,7 UV-I 679 W/m 17,0 C 12,9 km/h (3 Bft)
11.07.2016 10:19 26,2 C 26,2 C 56 % 1011,2 hPa 0,0 mm 6,4 km/h (2 Bft) W-NW 283 1 min 0,000 mm 4,8 UV-I 675 W/m 16,7 C 11,3 km/h (2 Bft)
11.07.2016 10:20 26,2 C 26,2 C 56 % 1011,2 hPa 0,0 mm 5,5 km/h (1 Bft) W-NW 298 1 min 0,000 mm 4,8 UV-I 682 W/m 16,7 C 6,4 km/h (2 Bft)
11.07.2016 10:21 26,2 C 26,2 C 57 % 1011,1 hPa 0,0 mm 10,2 km/h (2 Bft) W-NW 296 1 min 0,000 mm 4,8 UV-I 689 W/m 17,0 C 20,9 km/h (4 Bft)
11.07.2016 10:22 26,2 C 26,2 C 54 % 1011,1 hPa 0,0 mm 10,5 km/h (2 Bft) W-SW 250 1 min 0,000 mm 4,8 UV-I 675 W/m 16,1 C 14,5 km/h (3 Bft)
11.07.2016 10:23 26,2 C 26,2 C 56 % 1011,1 hPa 0,0 mm 9,9 km/h (2 Bft) W-NW 291 1 min 0,000 mm 4,8 UV-I 668 W/m 16,7 C 14,5 km/h (3 Bft)
11.07.2016 10:24 26,2 C 26,2 C 59 % 1011,2 hPa 0,0 mm 10,9 km/h (2 Bft) W 271 1 min 0,000 mm 4,7 UV-I 649 W/m 17,5 C 16,1 km/h (3 Bft)
11.07.2016 10:25 26,2 C 26,2 C 60 % 1011,2 hPa 0,0 mm 13,2 km/h (3 Bft) W 265 1 min 0,000 mm 4,8 UV-I 679 W/m 17,8 C 16,1 km/h (3 Bft)
11.07.2016 10:26 26,2 C 26,2 C 58 % 1011,2 hPa 0,0 mm 6,2 km/h (2 Bft) N-NO 29 1 min 0,000 mm 4,9 UV-I 668 W/m 17,3 C 14,5 km/h (3 Bft)
11.07.2016 10:27 26,3 C 26,3 C 58 % 1011,2 hPa 0,0 mm 3,8 km/h (1 Bft) W 281 1 min 0,000 mm 4,9 UV-I 679 W/m 17,4 C 6,4 km/h (2 Bft)
11.07.2016 10:28 26,3 C 26,3 C 60 % 1011,2 hPa 0,0 mm 6,4 km/h (2 Bft) W 275 1 min 0,000 mm 4,9 UV-I 679 W/m 17,9 C 11,3 km/h (2 Bft)
11.07.2016 10:29 26,3 C 26,3 C 59 % 1011,2 hPa 0,0 mm 4,8 km/h (1 Bft) NW 321 1 min 0,000 mm 4,5 UV-I 663 W/m 17,6 C 9,7 km/h (2 Bft)
11.07.2016 10:30 26,4 C 26,4 C 58 % 1011,2 hPa 0,0 mm 5,8 km/h (2 Bft) W 267 1 min 0,000 mm 4,7 UV-I 640 W/m 17,5 C 11,3 km/h (2 Bft)
11.07.2016 10:31 26,4 C 26,4 C 58 % 1011,2 hPa 0,0 mm 7,0 km/h (2 Bft) W 269 1 min 0,000 mm 4,9 UV-I 668 W/m 17,5 C 14,5 km/h (3 Bft)
11.07.2016 10:32 26,4 C 26,4 C 58 % 1011,3 hPa 0,0 mm 10,6 km/h (2 Bft) W-NW 290 1 min 0,000 mm 4,7 UV-I 647 W/m 17,5 C 16,1 km/h (3 Bft)
11.07.2016 10:33 26,4 C 26,4 C 59 % 1011,2 hPa 0,0 mm 10,0 km/h (2 Bft) NW 309 1 min 0,000 mm 4,7 UV-I 628 W/m 17,7 C 14,5 km/h (3 Bft)
11.07.2016 10:34 26,4 C 26,4 C 57 % 1011,2 hPa 0,0 mm 5,5 km/h (1 Bft) W 276 1 min 0,000 mm 4,9 UV-I 671 W/m 17,2 C 11,3 km/h (2 Bft)
11.07.2016 10:35 26,4 C 26,4 C 57 % 1011,2 hPa 0,0 mm 8,7 km/h (2 Bft) W-NW 290 1 min 0,000 mm 5,0 UV-I 679 W/m 17,2 C 12,9 km/h (3 Bft)
11.07.2016 10:36 26,3 C 26,4 C 55 % 1011,2 hPa 0,0 mm 7,9 km/h (2 Bft) W-NW 302 1 min 0,000 mm 5,0 UV-I 686 W/m 16,5 C 12,9 km/h (3 Bft)
11.07.2016 10:37 26,3 C 26,3 C 62 % 1011,2 hPa 0,0 mm 6,4 km/h (2 Bft) NW 314 1 min 0,000 mm 5,1 UV-I 703 W/m 18,4 C 9,7 km/h (2 Bft)
11.07.2016 10:38 26,3 C 26,3 C 57 % 1011,2 hPa 0,0 mm 10,3 km/h (2 Bft) W 275 1 min 0,000 mm 5,1 UV-I 701 W/m 17,1 C 19,3 km/h (3 Bft)
11.07.2016 10:39 26,3 C 26,3 C 56 % 1011,2 hPa 0,0 mm 13,7 km/h (3 Bft) W 280 1 min 0,000 mm 5,1 UV-I 691 W/m 16,8 C 20,9 km/h (4 Bft)
11.07.2016 10:40 26,3 C 26,3 C 55 % 1011,3 hPa 0,0 mm 5,8 km/h (2 Bft) W 280 1 min 0,000 mm 5,1 UV-I 687 W/m 16,5 C 12,9 km/h (3 Bft)
11.07.2016 10:41 26,3 C 26,3 C 58 % 1011,2 hPa 0,0 mm 9,1 km/h (2 Bft) W-NW 286 1 min 0,000 mm 5,2 UV-I 701 W/m 17,4 C 14,5 km/h (3 Bft)
11.07.2016 10:42 26,3 C 26,3 C 57 % 1011,2 hPa 0,0 mm 11,4 km/h (2 Bft) W 275 1 min 0,000 mm 5,3 UV-I 731 W/m 17,1 C 16,1 km/h (3 Bft)
11.07.2016 10:43 26,3 C 26,3 C 59 % 1011,2 hPa 0,0 mm 8,6 km/h (2 Bft) W-NW 303 1 min 0,000 mm 5,3 UV-I 714 W/m 17,6 C 14,5 km/h (3 Bft)
11.07.2016 10:44 26,3 C 26,3 C 62 % 1011,2 hPa 0,0 mm 10,9 km/h (2 Bft) W 275 1 min 0,000 mm 5,3 UV-I 726 W/m 18,4 C 14,5 km/h (3 Bft)
11.07.2016 10:45 26,3 C 26,4 C 58 % 1011,2 hPa 0,0 mm 8,8 km/h (2 Bft) W 279 1 min 0,000 mm 5,4 UV-I 740 W/m 17,4 C 14,5 km/h (3 Bft)
11.07.2016 10:46 26,3 C 26,4 C 56 % 1011,2 hPa 0,0 mm 12,4 km/h (3 Bft) W-NW 290 1 min 0,000 mm 5,4 UV-I 737 W/m 16,8 C 16,1 km/h (3 Bft)
11.07.2016 10:47 26,3 C 26,3 C 57 % 1011,2 hPa 0,0 mm 8,9 km/h (2 Bft) W-NW 296 1 min 0,000 mm 5,4 UV-I 744 W/m 17,1 C 16,1 km/h (3 Bft)
11.07.2016 10:48 26,3 C 26,3 C 57 % 1011,2 hPa 0,0 mm 10,7 km/h (2 Bft) W-SW 258 1 min 0,000 mm 5,5 UV-I 745 W/m 17,1 C 16,1 km/h (3 Bft)
11.07.2016 10:49 26,4 C 26,4 C 58 % 1011,2 hPa 0,0 mm 11,3 km/h (2 Bft) W-NW 295 1 min 0,000 mm 5,4 UV-I 751 W/m 17,5 C 12,9 km/h (3 Bft)
11.07.2016 10:50 26,4 C 26,4 C 59 % 1011,2 hPa 0,0 mm 8,7 km/h (2 Bft) W-NW 300 1 min 0,000 mm 5,4 UV-I 740 W/m 17,7 C 12,9 km/h (3 Bft)
11.07.2016 10:51 26,5 C 26,5 C 59 % 1011,2 hPa 0,0 mm 10,3 km/h (2 Bft) NW 315 1 min 0,000 mm 5,3 UV-I 679 W/m 17,8 C 14,5 km/h (3 Bft)
11.07.2016 10:52 26,6 C 26,6 C 59 % 1011,2 hPa 0,0 mm 14,0 km/h (3 Bft) NW 322 1 min 0,000 mm 5,2 UV-I 666 W/m 17,9 C 17,7 km/h (3 Bft)
11.07.2016 10:53 26,6 C 26,6 C 58 % 1011,2 hPa 0,0 mm 6,0 km/h (2 Bft) W-NW 283 1 min 0,000 mm 5,3 UV-I 705 W/m 17,6 C 12,9 km/h (3 Bft)
11.07.2016 10:54 26,5 C 26,6 C 59 % 1011,2 hPa 0,0 mm 13,7 km/h (3 Bft) W-SW 257 1 min 0,000 mm 5,4 UV-I 721 W/m 17,8 C 17,7 km/h (3 Bft)
11.07.2016 10:55 26,4 C 26,5 C 57 % 1011,2 hPa 0,0 mm 12,8 km/h (3 Bft) W-NW 283 1 min 0,000 mm 5,3 UV-I 686 W/m 17,2 C 16,1 km/h (3 Bft)
11.07.2016 10:56 26,4 C 26,4 C 57 % 1011,2 hPa 0,0 mm 8,8 km/h (2 Bft) W 269 1 min 0,000 mm 5,3 UV-I 717 W/m 17,2 C 14,5 km/h (3 Bft)
11.07.2016 10:57 26,4 C 26,4 C 59 % 1011,2 hPa 0,0 mm 9,4 km/h (2 Bft) W 280 1 min 0,000 mm 5,4 UV-I 700 W/m 17,7 C 12,9 km/h (3 Bft)
11.07.2016 10:58 26,4 C 26,4 C 58 % 1011,2 hPa 0,0 mm 9,7 km/h (2 Bft) W 271 1 min 0,000 mm 5,5 UV-I 731 W/m 17,5 C 17,7 km/h (3 Bft)
11.07.2016 10:59 26,4 C 26,4 C 58 % 1011,1 hPa 0,0 mm 5,8 km/h (2 Bft) N 350 1 min 0,000 mm 5,5 UV-I 721 W/m 17,5 C 9,7 km/h (2 Bft)
11.07.2016 11:00 26,4 C 26,4 C 60 % 1011,1 hPa 0,0 mm 4,8 km/h (1 Bft) W 266 1 min 0,000 mm 5,6 UV-I 737 W/m 18,0 C 9,7 km/h (2 Bft)
11.07.2016 11:01 26,5 C 26,5 C 57 % 1011,2 hPa 0,0 mm 10,7 km/h (2 Bft) W-NW 282 1 min 0,508 mm 5,7 UV-I 752 W/m 17,3 C 12,9 km/h (3 Bft)
11.07.2016 11:02 26,4 C 26,5 C 55 % 1011,1 hPa 0,0 mm 10,1 km/h (2 Bft) W-SW 254 1 min 0,000 mm 5,6 UV-I 754 W/m 16,6 C 14,5 km/h (3 Bft)
11.07.2016 11:03 26,4 C 26,4 C 54 % 1011,0 hPa 0,0 mm 5,6 km/h (1 Bft) N-NW 333 1 min 0,000 mm 5,7 UV-I 747 W/m 16,3 C 12,9 km/h (3 Bft)
11.07.2016 11:04 26,4 C 26,4 C 57 % 1011,0 hPa 0,0 mm 1,8 km/h (1 Bft) NW 311 1 min 0,000 mm 5,8 UV-I 765 W/m 17,2 C 3,2 km/h (1 Bft)
11.07.2016 11:05 26,5 C 26,5 C 56 % 1011,0 hPa 0,0 mm 3,6 km/h (1 Bft) W-SW 254 1 min 0,000 mm 5,8 UV-I 756 W/m 17,0 C 4,8 km/h (1 Bft)
11.07.2016 11:06 26,6 C 26,6 C 58 % 1011,0 hPa 0,0 mm 5,1 km/h (1 Bft) W-NW 283 1 min 0,000 mm 5,8 UV-I 780 W/m 17,6 C 8,0 km/h (2 Bft)
11.07.2016 11:07 26,7 C 26,7 C 59 % 1011,0 hPa 0,0 mm 5,0 km/h (1 Bft) NW 324 1 min 0,000 mm 5,9 UV-I 777 W/m 18,0 C 6,4 km/h (2 Bft)
11.07.2016 11:08 26,9 C 26,9 C 60 % 1011,0 hPa 0,0 mm 9,6 km/h (2 Bft) NW 308 1 min 0,000 mm 5,9 UV-I 761 W/m 18,5 C 12,9 km/h (3 Bft)
11.07.2016 11:09 27,0 C 27,1 C 61 % 1011,1 hPa 0,0 mm 7,5 km/h (2 Bft) W-NW 290 1 min 0,000 mm 5,9 UV-I 773 W/m 18,8 C 16,1 km/h (3 Bft)
11.07.2016 11:10 27,1 C 27,1 C 57 % 1011,1 hPa 0,0 mm 11,6 km/h (2 Bft) W 269 1 min 0,000 mm 5,9 UV-I 773 W/m 17,8 C 14,5 km/h (3 Bft)
11.07.2016 11:11 27,1 C 27,1 C 55 % 1011,0 hPa 0,0 mm 8,0 km/h (2 Bft) NW 323 1 min 0,000 mm 5,7 UV-I 715 W/m 17,3 C 12,9 km/h (3 Bft)
11.07.2016 11:12 27,0 C 27,1 C 55 % 1011,0 hPa 0,0 mm 6,2 km/h (2 Bft) NW 305 1 min 0,000 mm 5,9 UV-I 770 W/m 17,2 C 8,0 km/h (2 Bft)
11.07.2016 11:13 27,1 C 27,1 C 57 % 1011,0 hPa 0,0 mm 5,7 km/h (1 Bft) NW 306 1 min 0,000 mm 5,9 UV-I 782 W/m 17,8 C 14,5 km/h (3 Bft)
11.07.2016 11:14 27,1 C 27,1 C 57 % 1011,0 hPa 0,0 mm 9,9 km/h (2 Bft) W-NW 296 1 min 0,000 mm 5,9 UV-I 768 W/m 17,8 C 14,5 km/h (3 Bft)
11.07.2016 11:15 27,2 C 27,2 C 58 % 1011,0 hPa 0,0 mm 5,4 km/h (1 Bft) W-SW 255 1 min 0,000 mm 5,9 UV-I 765 W/m 18,2 C 9,7 km/h (2 Bft)
11.07.2016 11:16 27,2 C 27,2 C 58 % 1011,1 hPa 0,0 mm 7,4 km/h (2 Bft) W-NW 284 1 min 0,000 mm 6,0 UV-I 775 W/m 18,2 C 11,3 km/h (2 Bft)
11.07.2016 11:17 27,2 C 27,2 C 56 % 1011,0 hPa 0,0 mm 4,7 km/h (1 Bft) W-SW 257 1 min 0,000 mm 6,0 UV-I 775 W/m 17,6 C 6,4 km/h (2 Bft)
11.07.2016 11:18 27,2 C 27,3 C 59 % 1011,0 hPa 0,0 mm 3,6 km/h (1 Bft) W 272 1 min 0,000 mm 6,1 UV-I 773 W/m 18,5 C 6,4 km/h (2 Bft)
11.07.2016 11:19 27,3 C 27,3 C 58 % 1011,0 hPa 0,0 mm 3,3 km/h (1 Bft) W-NW 286 1 min 0,000 mm 6,1 UV-I 784 W/m 18,3 C 6,4 km/h (2 Bft)
11.07.2016 11:20 27,3 C 27,3 C 56 % 1011,0 hPa 0,0 mm 7,2 km/h (2 Bft) W-SW 257 1 min 0,000 mm 6,1 UV-I 782 W/m 17,7 C 11,3 km/h (2 Bft)
11.07.2016 11:21 27,3 C 27,3 C 58 % 1011,0 hPa 0,0 mm 8,1 km/h (2 Bft) W-NW 284 1 min 0,000 mm 6,1 UV-I 780 W/m 18,3 C 11,3 km/h (2 Bft)
11.07.2016 11:22 27,2 C 27,3 C 56 % 1011,0 hPa 0,0 mm 8,9 km/h (2 Bft) W-SW 238 1 min 0,000 mm 6,0 UV-I 768 W/m 17,6 C 14,5 km/h (3 Bft)
11.07.2016 11:23 27,1 C 27,2 C 52 % 1011,0 hPa 0,0 mm 5,4 km/h (1 Bft) NW 326 1 min 0,000 mm 6,0 UV-I 735 W/m 16,4 C 8,0 km/h (2 Bft)
11.07.2016 11:24 27,0 C 27,1 C 55 % 1011,0 hPa 0,0 mm 5,6 km/h (1 Bft) W-NW 294 1 min 0,000 mm 6,0 UV-I 768 W/m 17,2 C 11,3 km/h (2 Bft)
11.07.2016 11:25 26,9 C 27,0 C 54 % 1011,0 hPa 0,0 mm 4,6 km/h (1 Bft) NW 306 1 min 0,000 mm 6,1 UV-I 788 W/m 16,8 C 6,4 km/h (2 Bft)
11.07.2016 11:26 27,0 C 27,0 C 54 % 1011,0 hPa 0,0 mm 5,2 km/h (1 Bft) W-NW 302 1 min 0,000 mm 6,1 UV-I 793 W/m 16,9 C 6,4 km/h (2 Bft)
11.07.2016 11:27 27,1 C 27,1 C 54 % 1011,0 hPa 0,0 mm 8,5 km/h (2 Bft) W 273 1 min 0,000 mm 6,2 UV-I 791 W/m 17,0 C 14,5 km/h (3 Bft)
11.07.2016 11:28 27,0 C 27,1 C 56 % 1011,0 hPa 0,0 mm 9,7 km/h (2 Bft) W-SW 242 1 min 0,000 mm 6,2 UV-I 786 W/m 17,5 C 14,5 km/h (3 Bft)
11.07.2016 11:29 26,9 C 27,1 C 58 % 1011,0 hPa 0,0 mm 6,5 km/h (2 Bft) W-NW 284 1 min 0,000 mm 6,2 UV-I 803 W/m 17,9 C 14,5 km/h (3 Bft)
11.07.2016 11:30 27,0 C 27,0 C 56 % 1011,0 hPa 0,0 mm 9,1 km/h (2 Bft) NW 308 1 min 0,000 mm 6,4 UV-I 821 W/m 17,5 C 16,1 km/h (3 Bft)
11.07.2016 11:31 27,1 C 27,1 C 55 % 1011,0 hPa 0,0 mm 9,7 km/h (2 Bft) W 276 1 min 0,000 mm 6,4 UV-I 823 W/m 17,3 C 14,5 km/h (3 Bft)
11.07.2016 11:32 27,2 C 27,2 C 56 % 1011,0 hPa 0,0 mm 5,8 km/h (2 Bft) W 277 1 min 0,000 mm 6,5 UV-I 821 W/m 17,6 C 11,3 km/h (2 Bft)
11.07.2016 11:33 27,1 C 27,2 C 55 % 1011,0 hPa 0,0 mm 5,4 km/h (1 Bft) W 279 1 min 0,000 mm 6,4 UV-I 805 W/m 17,3 C 12,9 km/h (3 Bft)
11.07.2016 11:34 27,1 C 27,2 C 56 % 1011,0 hPa 0,0 mm 7,6 km/h (2 Bft) W-SW 254 1 min 0,000 mm 6,2 UV-I 788 W/m 17,5 C 11,3 km/h (2 Bft)
11.07.2016 11:35 27,1 C 27,1 C 58 % 1011,0 hPa 0,0 mm 8,4 km/h (2 Bft) W-SW 237 1 min 0,000 mm 6,1 UV-I 789 W/m 18,1 C 14,5 km/h (3 Bft)
11.07.2016 11:36 27,2 C 27,2 C 58 % 1010,9 hPa 0,0 mm 13,0 km/h (3 Bft) W-NW 286 1 min 0,000 mm 6,1 UV-I 744 W/m 18,2 C 16,1 km/h (3 Bft)
11.07.2016 11:37 27,1 C 27,2 C 54 % 1010,9 hPa 0,0 mm 9,1 km/h (2 Bft) W 269 1 min 0,000 mm 6,1 UV-I 747 W/m 17,0 C 14,5 km/h (3 Bft)
11.07.2016 11:38 27,1 C 27,1 C 57 % 1011,0 hPa 0,0 mm 4,4 km/h (1 Bft) W 279 1 min 0,000 mm 6,2 UV-I 714 W/m 17,8 C 6,4 km/h (2 Bft)
11.07.2016 11:39 27,2 C 27,2 C 57 % 1010,9 hPa 0,0 mm 5,4 km/h (1 Bft) W-NW 286 1 min 0,000 mm 6,2 UV-I 768 W/m 17,9 C 8,0 km/h (2 Bft)
11.07.2016 11:40 27,2 C 27,2 C 57 % 1010,9 hPa 0,0 mm 5,2 km/h (1 Bft) W 277 1 min 0,000 mm 6,4 UV-I 805 W/m 17,9 C 6,4 km/h (2 Bft)
11.07.2016 11:41 27,1 C 27,2 C 52 % 1011,0 hPa 0,0 mm 2,6 km/h (1 Bft) W 277 1 min 0,000 mm 6,3 UV-I 803 W/m 16,4 C 4,8 km/h (1 Bft)
11.07.2016 11:42 27,1 C 27,1 C 55 % 1010,9 hPa 0,0 mm 3,0 km/h (1 Bft) W-SW 248 1 min 0,000 mm 6,4 UV-I 809 W/m 17,3 C 11,3 km/h (2 Bft)
11.07.2016 11:43 27,1 C 27,1 C 54 % 1010,9 hPa 0,0 mm 9,4 km/h (2 Bft) W-SW 258 1 min 0,000 mm 6,2 UV-I 758 W/m 17,0 C 14,5 km/h (3 Bft)
11.07.2016 11:44 27,1 C 27,1 C 56 % 1010,9 hPa 0,0 mm 5,6 km/h (1 Bft) NW 310 1 min 0,000 mm 6,2 UV-I 807 W/m 17,5 C 6,4 km/h (2 Bft)
11.07.2016 11:45 27,2 C 27,2 C 56 % 1010,9 hPa 0,0 mm 8,4 km/h (2 Bft) N-NW 345 1 min 0,000 mm 6,3 UV-I 773 W/m 17,6 C 12,9 km/h (3 Bft)
11.07.2016 11:46 27,2 C 27,2 C 53 % 1010,9 hPa 0,0 mm 10,1 km/h (2 Bft) W-NW 296 1 min 0,000 mm 6,5 UV-I 807 W/m 16,8 C 16,1 km/h (3 Bft)
11.07.2016 11:47 27,3 C 27,3 C 54 % 1010,9 hPa 0,0 mm 11,7 km/h (2 Bft) W-NW 299 1 min 0,000 mm 6,6 UV-I 809 W/m 17,2 C 16,1 km/h (3 Bft)
11.07.2016 11:48 27,4 C 27,4 C 58 % 1010,9 hPa 0,0 mm 7,2 km/h (2 Bft) W-NW 292 1 min 0,000 mm 6,4 UV-I 789 W/m 18,4 C 9,7 km/h (2 Bft)
11.07.2016 11:49 27,4 C 27,4 C 54 % 1010,9 hPa 0,0 mm 6,6 km/h (2 Bft) NW 322 1 min 0,000 mm 6,6 UV-I 795 W/m 17,3 C 9,7 km/h (2 Bft)
11.07.2016 11:50 27,5 C 27,5 C 55 % 1010,9 hPa 0,0 mm 9,9 km/h (2 Bft) N-NW 335 1 min 0,000 mm 6,6 UV-I 824 W/m 17,6 C 12,9 km/h (3 Bft)
11.07.2016 11:51 27,5 C 27,5 C 55 % 1010,9 hPa 0,0 mm 4,9 km/h (1 Bft) O-NO 57 1 min 0,000 mm 6,1 UV-I 742 W/m 17,6 C 6,4 km/h (2 Bft)
11.07.2016 11:52 27,5 C 27,5 C 54 % 1010,9 hPa 0,0 mm 5,1 km/h (1 Bft) W-SW 252 1 min 0,000 mm 6,6 UV-I 830 W/m 17,3 C 8,0 km/h (2 Bft)
11.07.2016 11:53 27,4 C 27,5 C 55 % 1010,9 hPa 0,0 mm 8,2 km/h (2 Bft) W-SW 242 1 min 0,000 mm 6,4 UV-I 798 W/m 17,5 C 11,3 km/h (2 Bft)
11.07.2016 11:54 27,3 C 27,4 C 55 % 1010,9 hPa 0,0 mm 5,5 km/h (1 Bft) W 266 1 min 0,000 mm 6,3 UV-I 742 W/m 17,4 C 9,7 km/h (2 Bft)
11.07.2016 11:55 27,3 C 27,3 C 55 % 1010,9 hPa 0,0 mm 5,4 km/h (1 Bft) W-NW 298 1 min 0,000 mm 6,4 UV-I 788 W/m 17,4 C 8,0 km/h (2 Bft)
11.07.2016 11:56 27,3 C 27,3 C 55 % 1010,9 hPa 0,0 mm 6,6 km/h (2 Bft) W-NW 298 1 min 0,000 mm 6,5 UV-I 798 W/m 17,4 C 11,3 km/h (2 Bft)
11.07.2016 11:57 27,3 C 27,3 C 54 % 1010,9 hPa 0,0 mm 7,3 km/h (2 Bft) W-NW 288 1 min 0,000 mm 6,4 UV-I 807 W/m 17,2 C 12,9 km/h (3 Bft)
11.07.2016 11:58 27,3 C 27,4 C 54 % 1010,9 hPa 0,0 mm 4,9 km/h (1 Bft) W 276 1 min 0,000 mm 6,7 UV-I 831 W/m 17,2 C 9,7 km/h (2 Bft)
11.07.2016 11:59 27,2 C 27,3 C 54 % 1010,9 hPa 0,0 mm 5,4 km/h (1 Bft) W-NW 290 1 min 0,000 mm 6,7 UV-I 826 W/m 17,1 C 6,4 km/h (2 Bft)
11.07.2016 12:00 27,3 C 27,3 C 57 % 1010,9 hPa 0,0 mm 7,2 km/h (2 Bft) W-NW 298 1 min 0,000 mm 6,6 UV-I 821 W/m 18,0 C 16,1 km/h (3 Bft)
11.07.2016 12:01 27,3 C 27,3 C 55 % 1010,9 hPa 0,0 mm 8,9 km/h (2 Bft) NW 317 1 min 0,559 mm 6,6 UV-I 800 W/m 17,4 C 16,1 km/h (3 Bft)
11.07.2016 12:02 27,2 C 27,3 C 54 % 1010,9 hPa 0,0 mm 6,2 km/h (2 Bft) N-NW 344 1 min 0,000 mm 6,6 UV-I 807 W/m 17,1 C 12,9 km/h (3 Bft)
11.07.2016 12:03 27,3 C 27,3 C 56 % 1010,8 hPa 0,0 mm 7,1 km/h (2 Bft) W 266 1 min 0,000 mm 6,7 UV-I 819 W/m 17,7 C 12,9 km/h (3 Bft)
11.07.2016 12:04 27,4 C 27,4 C 59 % 1010,9 hPa 0,0 mm 4,4 km/h (1 Bft) W-NW 287 1 min 0,000 mm 6,7 UV-I 828 W/m 18,7 C 9,7 km/h (2 Bft)
11.07.2016 12:05 27,4 C 27,4 C 54 % 1010,9 hPa 0,0 mm 5,9 km/h (2 Bft) W 275 1 min 0,000 mm 6,7 UV-I 807 W/m 17,3 C 8,0 km/h (2 Bft)
11.07.2016 12:06 27,4 C 27,4 C 55 % 1010,9 hPa 0,0 mm 6,8 km/h (2 Bft) NW 311 1 min 0,000 mm 6,9 UV-I 846 W/m 17,5 C 11,3 km/h (2 Bft)
11.07.2016 12:07 27,4 C 27,4 C 55 % 1010,9 hPa 0,0 mm 6,0 km/h (2 Bft) N-NW 336 1 min 0,000 mm 6,8 UV-I 838 W/m 17,5 C 8,0 km/h (2 Bft)
11.07.2016 12:08 27,4 C 27,4 C 55 % 1010,9 hPa 0,0 mm 4,4 km/h (1 Bft) N-NW 348 1 min 0,000 mm 6,7 UV-I 831 W/m 17,5 C 6,4 km/h (2 Bft)
11.07.2016 12:09 27,4 C 27,4 C 53 % 1010,9 hPa 0,0 mm 5,1 km/h (1 Bft) N-NW 327 1 min 0,000 mm 6,8 UV-I 842 W/m 17,0 C 8,0 km/h (2 Bft)
11.07.2016 12:10 27,5 C 27,5 C 55 % 1010,8 hPa 0,0 mm 6,9 km/h (2 Bft) N-NW 328 1 min 0,000 mm 6,7 UV-I 824 W/m 17,6 C 12,9 km/h (3 Bft)
11.07.2016 12:11 27,5 C 27,6 C 53 % 1010,9 hPa 0,0 mm 4,5 km/h (1 Bft) W-NW 302 1 min 0,000 mm 6,9 UV-I 854 W/m 17,0 C 8,0 km/h (2 Bft)
11.07.2016 12:12 27,6 C 27,6 C 55 % 1010,9 hPa 0,0 mm 4,2 km/h (1 Bft) NW 321 1 min 0,000 mm 6,9 UV-I 838 W/m 17,7 C 6,4 km/h (2 Bft)
11.07.2016 12:13 27,7 C 27,7 C 54 % 1010,8 hPa 0,0 mm 6,1 km/h (2 Bft) N-NO 21 1 min 0,000 mm 6,8 UV-I 854 W/m 17,5 C 9,7 km/h (2 Bft)
11.07.2016 12:14 27,6 C 27,7 C 50 % 1010,8 hPa 0,0 mm 4,9 km/h (1 Bft) NO 36 1 min 0,000 mm 6,8 UV-I 831 W/m 16,2 C 8,0 km/h (2 Bft)
11.07.2016 12:15 27,6 C 27,6 C 55 % 1010,8 hPa 0,0 mm 8,4 km/h (2 Bft) N-NW 338 1 min 0,000 mm 6,7 UV-I 817 W/m 17,7 C 14,5 km/h (3 Bft)
11.07.2016 12:16 27,7 C 27,7 C 49 % 1010,8 hPa 0,0 mm 4,8 km/h (1 Bft) NW 322 1 min 0,000 mm 6,6 UV-I 807 W/m 16,0 C 9,7 km/h (2 Bft)
11.07.2016 12:17 27,7 C 27,7 C 52 % 1010,8 hPa 0,0 mm 4,6 km/h (1 Bft) N 5 1 min 0,000 mm 6,6 UV-I 795 W/m 16,9 C 8,0 km/h (2 Bft)
11.07.2016 12:18 27,8 C 27,8 C 53 % 1010,8 hPa 0,0 mm 3,7 km/h (1 Bft) O-NO 74 1 min 0,000 mm 6,6 UV-I 795 W/m 17,3 C 4,8 km/h (1 Bft)
11.07.2016 12:19 27,9 C 27,9 C 55 % 1010,7 hPa 0,0 mm 4,2 km/h (1 Bft) NW 323 1 min 0,000 mm 6,9 UV-I 867 W/m 18,0 C 8,0 km/h (2 Bft)
11.07.2016 12:20 27,8 C 27,9 C 55 % 1010,7 hPa 0,0 mm 3,3 km/h (1 Bft) N-NO 17 1 min 0,000 mm 6,9 UV-I 835 W/m 17,9 C 4,8 km/h (1 Bft)
11.07.2016 12:21 27,8 C 27,9 C 56 % 1010,7 hPa 0,0 mm 2,3 km/h (1 Bft) N 360 1 min 0,000 mm 6,8 UV-I 837 W/m 18,2 C 3,2 km/h (1 Bft)
11.07.2016 12:22 27,8 C 27,8 C 51 % 1010,7 hPa 0,0 mm 4,3 km/h (1 Bft) W-NW 291 1 min 0,000 mm 6,2 UV-I 786 W/m 16,7 C 8,0 km/h (2 Bft)
11.07.2016 12:23 27,7 C 27,8 C 55 % 1010,7 hPa 0,0 mm 5,0 km/h (1 Bft) W-SW 257 1 min 0,000 mm 5,8 UV-I 786 W/m 17,8 C 6,4 km/h (2 Bft)
11.07.2016 12:24 27,6 C 27,7 C 55 % 1010,7 hPa 0,0 mm 7,2 km/h (2 Bft) W-NW 294 1 min 0,000 mm 6,1 UV-I 693 W/m 17,7 C 12,9 km/h (3 Bft)
11.07.2016 12:25 27,6 C 27,6 C 53 % 1010,7 hPa 0,0 mm 2,7 km/h (1 Bft) W-NW 293 1 min 0,000 mm 6,1 UV-I 673 W/m 17,1 C 6,4 km/h (2 Bft)
11.07.2016 12:26 27,5 C 27,6 C 53 % 1010,7 hPa 0,0 mm 4,4 km/h (1 Bft) W-SW 258 1 min 0,000 mm 5,8 UV-I 652 W/m 17,0 C 12,9 km/h (3 Bft)
11.07.2016 12:27 27,4 C 27,5 C 53 % 1010,7 hPa 0,0 mm 7,0 km/h (2 Bft) W-SW 250 1 min 0,000 mm 5,9 UV-I 647 W/m 17,0 C 12,9 km/h (3 Bft)
11.07.2016 12:28 27,3 C 27,4 C 56 % 1010,7 hPa 0,0 mm 6,9 km/h (2 Bft) W-SW 248 1 min 0,000 mm 6,2 UV-I 701 W/m 17,7 C 11,3 km/h (2 Bft)
11.07.2016 12:29 27,3 C 27,3 C 56 % 1010,7 hPa 0,0 mm 4,7 km/h (1 Bft) SW 236 1 min 0,000 mm 6,4 UV-I 749 W/m 17,7 C 6,4 km/h (2 Bft)
11.07.2016 12:30 27,3 C 27,3 C 52 % 1010,6 hPa 0,0 mm 2,3 km/h (1 Bft) S-SW 203 1 min 0,000 mm 6,4 UV-I 726 W/m 16,6 C 3,2 km/h (1 Bft)
11.07.2016 12:31 27,3 C 27,3 C 51 % 1010,6 hPa 0,0 mm 1,3 km/h (1 Bft) S-SW 203 1 min 0,000 mm 6,5 UV-I 751 W/m 16,3 C 1,6 km/h (1 Bft)
11.07.2016 12:32 27,3 C 27,3 C 52 % 1010,6 hPa 0,0 mm 1,1 km/h (1 Bft) S-SW 201 1 min 0,000 mm 6,0 UV-I 707 W/m 16,6 C 3,2 km/h (1 Bft)
11.07.2016 12:33 27,4 C 27,4 C 52 % 1010,6 hPa 0,0 mm 1,6 km/h (1 Bft) W 260 1 min 0,000 mm 5,4 UV-I 636 W/m 16,7 C 3,2 km/h (1 Bft)
11.07.2016 12:34 27,5 C 27,5 C 52 % 1010,6 hPa 0,0 mm 3,2 km/h (1 Bft) W 269 1 min 0,000 mm 5,3 UV-I 605 W/m 16,7 C 4,8 km/h (1 Bft)
11.07.2016 12:35 27,5 C 27,6 C 54 % 1010,6 hPa 0,0 mm 3,3 km/h (1 Bft) W-NW 289 1 min 0,000 mm 4,5 UV-I 605 W/m 17,3 C 4,8 km/h (1 Bft)
11.07.2016 12:36 27,5 C 27,5 C 55 % 1010,5 hPa 0,0 mm 2,2 km/h (1 Bft) W 264 0 min 0,000 mm 3,5 UV-I 243 W/m 17,6 C 3,2 km/h (1 Bft)
11.07.2016 12:37 27,4 C 27,5 C 57 % 1010,6 hPa 0,0 mm 1,1 km/h (1 Bft) S-SW 210 0 min 0,000 mm 5,8 UV-I 243 W/m 18,1 C 1,6 km/h (1 Bft)
11.07.2016 12:38 27,4 C 27,4 C 61 % 1010,6 hPa 0,0 mm 2,0 km/h (1 Bft) W-NW 292 1 min 0,000 mm 5,3 UV-I 664 W/m 19,2 C 3,2 km/h (1 Bft)
11.07.2016 12:39 27,3 C 27,4 C 55 % 1010,6 hPa 0,0 mm 1,7 km/h (1 Bft) W-NW 294 1 min 0,000 mm 3,5 UV-I 664 W/m 17,4 C 3,2 km/h (1 Bft)
11.07.2016 12:40 27,3 C 27,4 C 53 % 1010,6 hPa 0,0 mm 2,4 km/h (1 Bft) W-NW 302 0 min 0,000 mm 3,4 UV-I 227 W/m 16,9 C 3,2 km/h (1 Bft)
11.07.2016 12:41 27,3 C 27,3 C 54 % 1010,6 hPa 0,0 mm 2,0 km/h (1 Bft) NW 311 0 min 0,000 mm 3,4 UV-I 223 W/m 17,2 C 3,2 km/h (1 Bft)
11.07.2016 12:42 27,2 C 27,3 C 53 % 1010,5 hPa 0,0 mm 3,6 km/h (1 Bft) W-NW 285 0 min 0,000 mm 3,6 UV-I 236 W/m 16,8 C 4,8 km/h (1 Bft)
11.07.2016 12:43 27,2 C 27,2 C 57 % 1010,6 hPa 0,0 mm 4,8 km/h (1 Bft) W-NW 291 1 min 0,000 mm 6,7 UV-I 816 W/m 17,9 C 6,4 km/h (2 Bft)
11.07.2016 12:44 27,1 C 27,2 C 54 % 1010,6 hPa 0,0 mm 5,5 km/h (1 Bft) W 267 1 min 0,000 mm 6,9 UV-I 814 W/m 17,0 C 9,7 km/h (2 Bft)
11.07.2016 12:45 27,2 C 27,2 C 57 % 1010,6 hPa 0,0 mm 5,5 km/h (1 Bft) W-NW 295 1 min 0,000 mm 6,9 UV-I 807 W/m 17,9 C 6,4 km/h (2 Bft)
11.07.2016 12:46 27,3 C 27,3 C 53 % 1010,6 hPa 0,0 mm 4,0 km/h (1 Bft) W 272 1 min 0,000 mm 6,9 UV-I 833 W/m 16,9 C 4,8 km/h (1 Bft)
11.07.2016 12:47 27,4 C 27,4 C 54 % 1010,6 hPa 0,0 mm 4,3 km/h (1 Bft) NW 315 1 min 0,000 mm 7,1 UV-I 837 W/m 17,3 C 6,4 km/h (2 Bft)
11.07.2016 12:48 27,6 C 27,6 C 54 % 1010,5 hPa 0,0 mm 3,5 km/h (1 Bft) NW 315 1 min 0,000 mm 7,1 UV-I 867 W/m 17,4 C 4,8 km/h (1 Bft)
11.07.2016 12:49 27,6 C 27,7 C 53 % 1010,5 hPa 0,0 mm 4,4 km/h (1 Bft) W-NW 289 1 min 0,000 mm 7,3 UV-I 867 W/m 17,1 C 6,4 km/h (2 Bft)
11.07.2016 12:50 27,6 C 27,6 C 53 % 1010,5 hPa 0,0 mm 2,2 km/h (1 Bft) W-SW 249 1 min 0,000 mm 7,5 UV-I 911 W/m 17,1 C 4,8 km/h (1 Bft)
11.07.2016 12:51 27,6 C 27,6 C 53 % 1010,4 hPa 0,0 mm 4,9 km/h (1 Bft) NW 322 1 min 0,000 mm 7,3 UV-I 884 W/m 17,1 C 9,7 km/h (2 Bft)
11.07.2016 12:52 27,6 C 27,7 C 54 % 1010,4 hPa 0,0 mm 6,2 km/h (2 Bft) NW 319 1 min 0,000 mm 7,2 UV-I 861 W/m 17,4 C 8,0 km/h (2 Bft)
11.07.2016 12:53 27,8 C 27,8 C 53 % 1010,4 hPa 0,0 mm 6,1 km/h (2 Bft) NW 308 1 min 0,000 mm 7,2 UV-I 853 W/m 17,3 C 8,0 km/h (2 Bft)
11.07.2016 12:54 27,8 C 27,8 C 52 % 1010,4 hPa 0,0 mm 4,2 km/h (1 Bft) W 281 1 min 0,000 mm 7,2 UV-I 809 W/m 17,0 C 8,0 km/h (2 Bft)
11.07.2016 12:55 27,8 C 27,8 C 50 % 1010,4 hPa 0,0 mm 1,1 km/h (1 Bft) W 281 1 min 0,000 mm 7,2 UV-I 856 W/m 16,4 C 3,2 km/h (1 Bft)
11.07.2016 12:56 27,8 C 27,8 C 50 % 1010,4 hPa 0,0 mm 0,7 km/h (0 Bft) SW 219 1 min 0,000 mm 7,2 UV-I 867 W/m 16,4 C 1,6 km/h (1 Bft)
11.07.2016 12:57 27,8 C 27,8 C 55 % 1010,4 hPa 0,0 mm 1,7 km/h (1 Bft) W-SW 251 1 min 0,000 mm 7,3 UV-I 875 W/m 17,9 C 3,2 km/h (1 Bft)
11.07.2016 12:58 27,8 C 27,8 C 56 % 1010,4 hPa 0,0 mm 2,8 km/h (1 Bft) NO 34 1 min 0,000 mm 7,4 UV-I 889 W/m 18,2 C 4,8 km/h (1 Bft)
11.07.2016 12:59 27,9 C 27,9 C 52 % 1010,4 hPa 0,0 mm 2,1 km/h (1 Bft) O 98 1 min 0,000 mm 7,4 UV-I 882 W/m 17,1 C 4,8 km/h (1 Bft)
11.07.2016 13:00 28,0 C 28,0 C 54 % 1010,4 hPa 0,0 mm 1,9 km/h (1 Bft) N-NW 330 1 min 0,000 mm 7,3 UV-I 846 W/m 17,8 C 4,8 km/h (1 Bft)
11.07.2016 13:01 28,1 C 28,1 C 54 % 1010,4 hPa 0,0 mm 3,8 km/h (1 Bft) W-NW 302 1 min 0,508 mm 7,1 UV-I 846 W/m 17,9 C 6,4 km/h (2 Bft)
11.07.2016 13:02 28,2 C 28,2 C 59 % 1010,4 hPa 0,0 mm 3,7 km/h (1 Bft) SW 235 1 min 0,000 mm 6,9 UV-I 761 W/m 19,4 C 6,4 km/h (2 Bft)
11.07.2016 13:03 28,2 C 28,2 C 53 % 1010,4 hPa 0,0 mm 1,5 km/h (1 Bft) W-NW 284 1 min 0,000 mm 7,1 UV-I 849 W/m 17,7 C 3,2 km/h (1 Bft)
11.07.2016 13:04 28,2 C 28,2 C 50 % 1010,4 hPa 0,0 mm 1,7 km/h (1 Bft) W-NW 293 1 min 0,000 mm 7,3 UV-I 895 W/m 16,8 C 3,2 km/h (1 Bft)
11.07.2016 13:05 28,1 C 28,2 C 52 % 1010,4 hPa 0,0 mm 0,8 km/h (0 Bft) W-NW 286 1 min 0,000 mm 7,3 UV-I 896 W/m 17,3 C 1,6 km/h (1 Bft)
11.07.2016 13:06 28,1 C 28,1 C 52 % 1010,4 hPa 0,0 mm 3,0 km/h (1 Bft) O-SO 108 1 min 0,000 mm 7,3 UV-I 918 W/m 17,3 C 4,8 km/h (1 Bft)
11.07.2016 13:07 28,1 C 28,1 C 52 % 1010,4 hPa 0,0 mm 3,0 km/h (1 Bft) N 355 1 min 0,000 mm 7,4 UV-I 942 W/m 17,3 C 6,4 km/h (2 Bft)
11.07.2016 13:08 28,2 C 28,2 C 51 % 1010,4 hPa 0,0 mm 4,2 km/h (1 Bft) N-NW 336 1 min 0,000 mm 7,2 UV-I 942 W/m 17,1 C 6,4 km/h (2 Bft)
11.07.2016 13:09 28,3 C 28,3 C 49 % 1010,4 hPa 0,0 mm 3,3 km/h (1 Bft) NO 37 1 min 0,000 mm 6,7 UV-I 888 W/m 16,5 C 6,4 km/h (2 Bft)
11.07.2016 13:10 28,3 C 28,3 C 53 % 1010,4 hPa 0,0 mm 4,2 km/h (1 Bft) N 355 1 min 0,000 mm 4,1 UV-I 888 W/m 17,8 C 6,4 km/h (2 Bft)
11.07.2016 13:11 28,2 C 28,3 C 53 % 1010,4 hPa 0,0 mm 5,4 km/h (1 Bft) W-NW 298 0 min 0,000 mm 4,0 UV-I 323 W/m 17,7 C 8,0 km/h (2 Bft)
11.07.2016 13:12 28,2 C 28,2 C 50 % 1010,5 hPa 0,0 mm 5,8 km/h (2 Bft) NW 320 0 min 0,000 mm 3,5 UV-I 323 W/m 16,8 C 8,0 km/h (2 Bft)
11.07.2016 13:13 28,1 C 28,2 C 53 % 1010,5 hPa 0,0 mm 5,3 km/h (1 Bft) N-NW 327 0 min 0,000 mm 3,2 UV-I 241 W/m 17,6 C 8,0 km/h (2 Bft)
11.07.2016 13:14 27,9 C 28,1 C 51 % 1010,4 hPa 0,0 mm 5,5 km/h (1 Bft) NW 317 0 min 0,000 mm 3,0 UV-I 223 W/m 16,8 C 11,3 km/h (2 Bft)
11.07.2016 13:15 27,7 C 27,9 C 50 % 1010,4 hPa 0,0 mm 2,9 km/h (1 Bft) N 360 0 min 0,000 mm 2,9 UV-I 216 W/m 16,3 C 4,8 km/h (1 Bft)
11.07.2016 13:16 27,6 C 27,7 C 52 % 1010,4 hPa 0,0 mm 2,5 km/h (1 Bft) W-NW 296 0 min 0,000 mm 2,8 UV-I 207 W/m 16,8 C 4,8 km/h (1 Bft)
11.07.2016 13:17 27,4 C 27,6 C 53 % 1010,4 hPa 0,0 mm 1,7 km/h (1 Bft) N-NW 330 0 min 0,000 mm 2,8 UV-I 207 W/m 17,0 C 3,2 km/h (1 Bft)
11.07.2016 13:18 27,3 C 27,4 C 49 % 1010,4 hPa 0,0 mm 2,7 km/h (1 Bft) W-NW 293 0 min 0,000 mm 2,8 UV-I 213 W/m 15,6 C 3,2 km/h (1 Bft)
11.07.2016 13:19 27,2 C 27,3 C 50 % 1010,4 hPa 0,0 mm 1,5 km/h (1 Bft) W-NW 293 0 min 0,000 mm 2,8 UV-I 216 W/m 15,9 C 1,6 km/h (1 Bft)
11.07.2016 13:20 27,2 C 27,2 C 50 % 1010,4 hPa 0,0 mm 3,8 km/h (1 Bft) N-NW 328 0 min 0,000 mm 2,7 UV-I 209 W/m 15,9 C 4,8 km/h (1 Bft)
11.07.2016 13:21 27,2 C 27,2 C 54 % 1010,4 hPa 0,0 mm 4,7 km/h (1 Bft) NW 320 0 min 0,000 mm 2,6 UV-I 209 W/m 17,1 C 6,4 km/h (2 Bft)
11.07.2016 13:22 27,2 C 27,2 C 51 % 1010,4 hPa 0,0 mm 3,0 km/h (1 Bft) NW 319 0 min 0,000 mm 2,6 UV-I 206 W/m 16,2 C 4,8 km/h (1 Bft)
11.07.2016 13:23 27,2 C 27,2 C 51 % 1010,4 hPa 0,0 mm 0,3 km/h (0 Bft) NW 319 0 min 0,000 mm 2,6 UV-I 230 W/m 16,2 C 1,6 km/h (1 Bft)
11.07.2016 13:24 27,2 C 27,2 C 50 % 1010,5 hPa 0,0 mm 1,8 km/h (1 Bft) NW 319 0 min 0,000 mm 2,7 UV-I 230 W/m 15,9 C 3,2 km/h (1 Bft)
11.07.2016 13:25 27,1 C 27,2 C 53 % 1010,5 hPa 0,0 mm 2,6 km/h (1 Bft) N-NW 340 0 min 0,000 mm 2,8 UV-I 239 W/m 16,7 C 4,8 km/h (1 Bft)
11.07.2016 13:26 27,1 C 27,1 C 55 % 1010,5 hPa 0,0 mm 1,4 km/h (1 Bft) N-NW 340 0 min 0,000 mm 2,8 UV-I 250 W/m 17,3 C 3,2 km/h (1 Bft)
11.07.2016 13:27 27,1 C 27,1 C 55 % 1010,5 hPa 0,0 mm 1,2 km/h (1 Bft) N-NW 334 0 min 0,000 mm 2,9 UV-I 257 W/m 17,3 C 3,2 km/h (1 Bft)
11.07.2016 13:28 27,0 C 27,1 C 53 % 1010,5 hPa 0,0 mm 1,2 km/h (1 Bft) NW 312 0 min 0,000 mm 3,0 UV-I 264 W/m 16,6 C 3,2 km/h (1 Bft)
11.07.2016 13:29 27,0 C 27,1 C 56 % 1010,6 hPa 0,0 mm 0,9 km/h (0 Bft) NW 312 0 min 0,000 mm 3,1 UV-I 276 W/m 17,5 C 1,6 km/h (1 Bft)
11.07.2016 13:30 27,1 C 27,1 C 54 % 1010,6 hPa 0,0 mm 1,6 km/h (1 Bft) NW 306 0 min 0,000 mm 3,2 UV-I 281 W/m 17,0 C 3,2 km/h (1 Bft)
11.07.2016 13:31 27,0 C 27,1 C 58 % 1010,5 hPa 0,0 mm 0,6 km/h (0 Bft) NW 306 0 min 0,000 mm 3,3 UV-I 292 W/m 18,0 C 1,6 km/h (1 Bft)
11.07.2016 13:32 26,9 C 27,0 C 56 % 1010,5 hPa 0,0 mm 0,0 km/h (0 Bft) NW 306 0 min 0,000 mm 3,4 UV-I 295 W/m 17,4 C 0,0 km/h (0 Bft)
11.07.2016 13:33 26,9 C 26,9 C 58 % 1010,5 hPa 0,0 mm 0,2 km/h (0 Bft) NW 306 0 min 0,000 mm 3,4 UV-I 295 W/m 17,9 C 1,6 km/h (1 Bft)
11.07.2016 13:34 26,8 C 26,9 C 66 % 1010,5 hPa 0,0 mm 0,2 km/h (0 Bft) NW 306 0 min 0,000 mm 3,4 UV-I 295 W/m 19,9 C 1,6 km/h (1 Bft)
11.07.2016 13:35 26,8 C 26,8 C 58 % 1010,5 hPa 0,0 mm 1,7 km/h (1 Bft) W-NW 294 0 min 0,000 mm 3,4 UV-I 309 W/m 17,8 C 3,2 km/h (1 Bft)
11.07.2016 13:36 26,8 C 26,8 C 56 % 1010,5 hPa 0,0 mm 3,1 km/h (1 Bft) W 269 0 min 0,000 mm 3,7 UV-I 325 W/m 17,3 C 4,8 km/h (1 Bft)
11.07.2016 13:37 26,9 C 26,9 C 59 % 1010,5 hPa 0,0 mm 2,2 km/h (1 Bft) W 269 0 min 0,000 mm 3,8 UV-I 325 W/m 18,2 C 3,2 km/h (1 Bft)
11.07.2016 13:38 26,9 C 26,9 C 56 % 1010,4 hPa 0,0 mm 1,1 km/h (1 Bft) W 269 0 min 0,000 mm 4,1 UV-I 387 W/m 17,4 C 3,2 km/h (1 Bft)
11.07.2016 13:39 27,0 C 27,0 C 62 % 1010,4 hPa 0,0 mm 2,3 km/h (1 Bft) W 269 0 min 0,000 mm 5,5 UV-I 397 W/m 19,1 C 3,2 km/h (1 Bft)
11.07.2016 13:40 27,1 C 27,1 C 56 % 1010,4 hPa 0,0 mm 2,1 km/h (1 Bft) W-NW 289 0 min 0,000 mm 5,9 UV-I 397 W/m 17,5 C 3,2 km/h (1 Bft)
11.07.2016 13:41 27,2 C 27,2 C 61 % 1010,4 hPa 0,0 mm 4,7 km/h (1 Bft) W-SW 245 1 min 0,000 mm 6,4 UV-I 744 W/m 19,0 C 9,7 km/h (2 Bft)
11.07.2016 13:42 27,4 C 27,4 C 61 % 1010,4 hPa 0,0 mm 4,4 km/h (1 Bft) W 261 1 min 0,000 mm 5,5 UV-I 671 W/m 19,2 C 6,4 km/h (2 Bft)
11.07.2016 13:43 27,6 C 27,6 C 56 % 1010,4 hPa 0,0 mm 4,9 km/h (1 Bft) W-SW 244 1 min 0,000 mm 6,3 UV-I 671 W/m 18,0 C 6,4 km/h (2 Bft)
11.07.2016 13:44 27,7 C 27,7 C 55 % 1010,4 hPa 0,0 mm 3,4 km/h (1 Bft) W-SW 243 1 min 0,000 mm 6,4 UV-I 817 W/m 17,8 C 6,4 km/h (2 Bft)
11.07.2016 13:45 27,8 C 27,8 C 63 % 1010,4 hPa 0,0 mm 4,0 km/h (1 Bft) W-SW 243 1 min 0,000 mm 6,2 UV-I 795 W/m 20,1 C 6,4 km/h (2 Bft)
11.07.2016 13:46 28,0 C 28,0 C 56 % 1010,4 hPa 0,0 mm 4,1 km/h (1 Bft) W-SW 244 1 min 0,000 mm 6,1 UV-I 798 W/m 18,4 C 8,0 km/h (2 Bft)
11.07.2016 13:47 28,1 C 28,1 C 52 % 1010,5 hPa 0,0 mm 3,0 km/h (1 Bft) W-SW 238 1 min 0,000 mm 5,7 UV-I 657 W/m 17,3 C 4,8 km/h (1 Bft)
11.07.2016 13:48 28,1 C 28,1 C 52 % 1010,4 hPa 0,0 mm 2,1 km/h (1 Bft) S 190 1 min 0,000 mm 5,5 UV-I 647 W/m 17,3 C 6,4 km/h (2 Bft)
11.07.2016 13:49 27,9 C 28,1 C 49 % 1010,4 hPa 0,0 mm 4,6 km/h (1 Bft) S-SO 165 1 min 0,000 mm 5,8 UV-I 705 W/m 16,2 C 6,4 km/h (2 Bft)
11.07.2016 13:50 27,9 C 27,9 C 51 % 1010,4 hPa 0,0 mm 2,3 km/h (1 Bft) S-SO 165 1 min 0,000 mm 4,2 UV-I 705 W/m 16,8 C 6,4 km/h (2 Bft)
11.07.2016 13:51 27,8 C 27,9 C 50 % 1010,4 hPa 0,0 mm 0,9 km/h (0 Bft) S-SO 165 1 min 0,000 mm 5,6 UV-I 705 W/m 16,4 C 1,6 km/h (1 Bft)
11.07.2016 13:52 27,8 C 27,9 C 55 % 1010,4 hPa 0,0 mm 0,9 km/h (0 Bft) S-SO 165 1 min 0,000 mm 5,2 UV-I 666 W/m 17,9 C 1,6 km/h (1 Bft)
11.07.2016 13:53 27,8 C 27,8 C 52 % 1010,4 hPa 0,0 mm 1,3 km/h (1 Bft) S-SW 213 1 min 0,000 mm 5,4 UV-I 666 W/m 17,0 C 1,6 km/h (1 Bft)
11.07.2016 13:54 27,9 C 27,9 C 53 % 1010,4 hPa 0,0 mm 0,1 km/h (0 Bft) S-SW 213 1 min 0,000 mm 5,3 UV-I 666 W/m 17,4 C 1,6 km/h (1 Bft)
11.07.2016 13:55 28,0 C 28,0 C 56 % 1010,4 hPa 0,0 mm 3,4 km/h (1 Bft) NW 304 1 min 0,000 mm 5,3 UV-I 700 W/m 18,4 C 11,3 km/h (2 Bft)
11.07.2016 13:56 28,1 C 28,1 C 54 % 1010,3 hPa 0,0 mm 5,6 km/h (1 Bft) W-NW 294 1 min 0,000 mm 5,9 UV-I 754 W/m 17,9 C 11,3 km/h (2 Bft)
11.07.2016 13:57 28,1 C 28,1 C 51 % 1010,3 hPa 0,0 mm 5,6 km/h (1 Bft) W-NW 298 1 min 0,000 mm 5,1 UV-I 768 W/m 17,0 C 11,3 km/h (2 Bft)
11.07.2016 13:58 28,2 C 28,2 C 55 % 1010,3 hPa 0,0 mm 5,8 km/h (2 Bft) NW 316 1 min 0,000 mm 5,8 UV-I 761 W/m 18,3 C 8,0 km/h (2 Bft)
11.07.2016 13:59 28,3 C 28,3 C 52 % 1010,4 hPa 0,0 mm 4,0 km/h (1 Bft) W-NW 297 1 min 0,000 mm 5,5 UV-I 705 W/m 17,5 C 6,4 km/h (2 Bft)
11.07.2016 14:00 28,2 C 28,3 C 55 % 1010,3 hPa 0,0 mm 0,9 km/h (0 Bft) W-NW 297 1 min 0,356 mm 5,4 UV-I 691 W/m 18,3 C 3,2 km/h (1 Bft)
11.07.2016 14:01 28,2 C 28,3 C 49 % 1010,4 hPa 0,0 mm 1,6 km/h (1 Bft) W-NW 296 1 min 0,000 mm 5,4 UV-I 682 W/m 16,5 C 3,2 km/h (1 Bft)
11.07.2016 14:02 28,1 C 28,2 C 51 % 1010,3 hPa 0,0 mm 1,3 km/h (1 Bft) NW 304 1 min 0,000 mm 5,5 UV-I 661 W/m 17,0 C 3,2 km/h (1 Bft)
11.07.2016 14:03 28,1 C 28,1 C 55 % 1010,3 hPa 0,0 mm 5,4 km/h (1 Bft) W-NW 296 1 min 0,000 mm 4,4 UV-I 670 W/m 18,2 C 12,9 km/h (3 Bft)
11.07.2016 14:04 28,1 C 28,1 C 52 % 1010,3 hPa 0,0 mm 7,5 km/h (2 Bft) N-NO 28 1 min 0,000 mm 5,4 UV-I 652 W/m 17,3 C 14,5 km/h (3 Bft)
11.07.2016 14:05 28,1 C 28,1 C 52 % 1010,3 hPa 0,0 mm 10,3 km/h (2 Bft) W-NW 302 0 min 0,000 mm 3,5 UV-I 308 W/m 17,3 C 14,5 km/h (3 Bft)
11.07.2016 14:06 28,0 C 28,1 C 55 % 1010,3 hPa 0,0 mm 6,7 km/h (2 Bft) W 269 0 min 0,000 mm 3,4 UV-I 297 W/m 18,1 C 9,7 km/h (2 Bft)
11.07.2016 14:07 27,9 C 28,0 C 51 % 1010,3 hPa 0,0 mm 5,4 km/h (1 Bft) NW 315 0 min 0,000 mm 3,4 UV-I 302 W/m 16,8 C 8,0 km/h (2 Bft)
11.07.2016 14:08 27,8 C 27,9 C 53 % 1010,3 hPa 0,0 mm 5,0 km/h (1 Bft) N-NW 330 0 min 0,000 mm 2,9 UV-I 316 W/m 17,3 C 8,0 km/h (2 Bft)
11.07.2016 14:09 27,7 C 27,8 C 56 % 1010,2 hPa 0,0 mm 3,9 km/h (1 Bft) NW 305 0 min 0,000 mm 4,2 UV-I 385 W/m 18,1 C 6,4 km/h (2 Bft)
11.07.2016 14:10 27,7 C 27,7 C 53 % 1010,2 hPa 0,0 mm 4,2 km/h (1 Bft) NW 319 0 min 0,000 mm 3,6 UV-I 364 W/m 17,2 C 6,4 km/h (2 Bft)
11.07.2016 14:11 27,6 C 27,7 C 53 % 1010,2 hPa 0,0 mm 3,9 km/h (1 Bft) N-NW 327 0 min 0,000 mm 3,4 UV-I 313 W/m 17,1 C 4,8 km/h (1 Bft)
11.07.2016 14:12 27,6 C 27,6 C 52 % 1010,2 hPa 0,0 mm 4,7 km/h (1 Bft) NW 323 0 min 0,000 mm 3,4 UV-I 323 W/m 16,8 C 8,0 km/h (2 Bft)
11.07.2016 14:13 27,6 C 27,6 C 53 % 1010,2 hPa 0,0 mm 4,8 km/h (1 Bft) W-NW 300 0 min 0,000 mm 4,5 UV-I 388 W/m 17,1 C 8,0 km/h (2 Bft)
11.07.2016 14:14 27,6 C 27,6 C 53 % 1010,2 hPa 0,0 mm 9,4 km/h (2 Bft) NW 311 0 min 0,000 mm 4,4 UV-I 388 W/m 17,1 C 14,5 km/h (3 Bft)
11.07.2016 14:15 27,6 C 27,6 C 52 % 1010,1 hPa 0,0 mm 4,3 km/h (1 Bft) NW 324 1 min 0,000 mm 4,2 UV-I 515 W/m 16,8 C 6,4 km/h (2 Bft)
11.07.2016 14:16 27,6 C 27,6 C 53 % 1010,2 hPa 0,0 mm 4,8 km/h (1 Bft) W-NW 288 0 min 0,000 mm 3,9 UV-I 332 W/m 17,1 C 8,0 km/h (2 Bft)
11.07.2016 14:17 27,6 C 27,6 C 54 % 1010,1 hPa 0,0 mm 5,0 km/h (1 Bft) W-NW 291 0 min 0,000 mm 4,2 UV-I 332 W/m 17,4 C 6,4 km/h (2 Bft)
11.07.2016 14:18 27,6 C 27,6 C 52 % 1010,1 hPa 0,0 mm 3,3 km/h (1 Bft) NW 313 0 min 0,000 mm 3,5 UV-I 332 W/m 16,8 C 4,8 km/h (1 Bft)
11.07.2016 14:19 27,7 C 27,7 C 56 % 1010,1 hPa 0,0 mm 4,5 km/h (1 Bft) N 5 0 min 0,000 mm 3,4 UV-I 311 W/m 18,1 C 8,0 km/h (2 Bft)
11.07.2016 14:20 27,7 C 27,7 C 56 % 1010,1 hPa 0,0 mm 4,6 km/h (1 Bft) N-NO 32 0 min 0,000 mm 3,4 UV-I 301 W/m 18,1 C 6,4 km/h (2 Bft)
11.07.2016 14:21 27,7 C 27,7 C 53 % 1010,1 hPa 0,0 mm 3,6 km/h (1 Bft) N 360 0 min 0,000 mm 3,4 UV-I 302 W/m 17,2 C 4,8 km/h (1 Bft)
11.07.2016 14:22 27,7 C 27,7 C 54 % 1010,1 hPa 0,0 mm 3,8 km/h (1 Bft) N-NW 337 1 min 0,000 mm 4,1 UV-I 480 W/m 17,5 C 6,4 km/h (2 Bft)
11.07.2016 14:23 27,7 C 27,7 C 53 % 1010,1 hPa 0,0 mm 3,6 km/h (1 Bft) W-NW 297 0 min 0,000 mm 3,9 UV-I 471 W/m 17,2 C 4,8 km/h (1 Bft)
11.07.2016 14:24 27,7 C 27,7 C 51 % 1010,1 hPa 0,0 mm 0,8 km/h (0 Bft) N-NO 24 0 min 0,000 mm 3,2 UV-I 471 W/m 16,6 C 1,6 km/h (1 Bft)
11.07.2016 14:25 27,7 C 27,7 C 56 % 1010,1 hPa 0,0 mm 3,9 km/h (1 Bft) O 87 0 min 0,000 mm 3,1 UV-I 264 W/m 18,1 C 6,4 km/h (2 Bft)
11.07.2016 14:26 27,6 C 27,7 C 55 % 1010,0 hPa 0,0 mm 2,1 km/h (1 Bft) N-NW 342 0 min 0,000 mm 3,1 UV-I 255 W/m 17,7 C 3,2 km/h (1 Bft)
11.07.2016 14:27 27,6 C 27,6 C 55 % 1010,1 hPa 0,0 mm 3,4 km/h (1 Bft) N 351 0 min 0,000 mm 3,0 UV-I 239 W/m 17,7 C 6,4 km/h (2 Bft)
11.07.2016 14:28 27,6 C 27,6 C 54 % 1010,1 hPa 0,0 mm 3,7 km/h (1 Bft) N-NW 332 0 min 0,000 mm 3,0 UV-I 225 W/m 17,4 C 4,8 km/h (1 Bft)
11.07.2016 14:29 27,6 C 27,7 C 52 % 1010,1 hPa 0,0 mm 1,8 km/h (1 Bft) N-NW 332 0 min 0,000 mm 2,8 UV-I 220 W/m 16,8 C 3,2 km/h (1 Bft)
11.07.2016 14:30 27,5 C 27,6 C 54 % 1010,1 hPa 0,0 mm 1,7 km/h (1 Bft) N-NW 333 0 min 0,000 mm 2,7 UV-I 220 W/m 17,3 C 3,2 km/h (1 Bft)
11.07.2016 14:31 27,3 C 27,5 C 55 % 1010,1 hPa 0,0 mm 0,9 km/h (0 Bft) N-NW 333 0 min 0,000 mm 2,6 UV-I 211 W/m 17,4 C 1,6 km/h (1 Bft)
11.07.2016 14:32 27,2 C 27,3 C 54 % 1010,2 hPa 0,0 mm 0,1 km/h (0 Bft) N-NW 333 0 min 0,000 mm 2,6 UV-I 209 W/m 17,1 C 1,6 km/h (1 Bft)
11.07.2016 14:33 27,1 C 27,2 C 67 % 1010,2 hPa 0,0 mm 0,1 km/h (0 Bft) N-NW 333 0 min 0,000 mm 2,6 UV-I 207 W/m 20,4 C 1,6 km/h (1 Bft)
11.07.2016 14:34 26,9 C 27,1 C 59 % 1010,2 hPa 0,0 mm 0,1 km/h (0 Bft) N-NW 333 0 min 0,000 mm 2,5 UV-I 207 W/m 18,2 C 1,6 km/h (1 Bft)
11.07.2016 14:35 26,8 C 26,9 C 59 % 1010,1 hPa 0,0 mm 0,1 km/h (0 Bft) N-NW 333 0 min 0,000 mm 2,5 UV-I 211 W/m 18,1 C 1,6 km/h (1 Bft)
11.07.2016 14:36 26,7 C 26,8 C 61 % 1010,2 hPa 0,0 mm 0,3 km/h (0 Bft) N-NW 333 0 min 0,000 mm 2,5 UV-I 218 W/m 18,5 C 1,6 km/h (1 Bft)
11.07.2016 14:37 26,7 C 26,7 C 60 % 1010,2 hPa 0,0 mm 0,3 km/h (0 Bft) N-NW 333 0 min 0,000 mm 2,5 UV-I 223 W/m 18,3 C 1,6 km/h (1 Bft)
11.07.2016 14:38 26,6 C 26,7 C 62 % 1010,2 hPa 0,0 mm 1,0 km/h (0 Bft) W-NW 292 0 min 0,000 mm 2,4 UV-I 227 W/m 18,7 C 3,2 km/h (1 Bft)
11.07.2016 14:39 26,6 C 26,6 C 58 % 1010,2 hPa 0,0 mm 2,7 km/h (1 Bft) W-SW 257 0 min 0,000 mm 2,4 UV-I 227 W/m 17,6 C 4,8 km/h (1 Bft)
11.07.2016 14:40 26,7 C 26,7 C 55 % 1010,2 hPa 0,0 mm 1,1 km/h (1 Bft) W-SW 257 0 min 0,000 mm 2,4 UV-I 229 W/m 16,9 C 1,6 km/h (1 Bft)
11.07.2016 14:41 26,8 C 26,8 C 55 % 1010,2 hPa 0,0 mm 1,2 km/h (1 Bft) W-SW 257 0 min 0,000 mm 2,4 UV-I 229 W/m 17,0 C 1,6 km/h (1 Bft)
11.07.2016 14:42 26,8 C 26,8 C 58 % 1010,2 hPa 0,0 mm 0,1 km/h (0 Bft) W-SW 257 0 min 0,000 mm 2,5 UV-I 234 W/m 17,8 C 1,6 km/h (1 Bft)
11.07.2016 14:43 26,8 C 26,8 C 62 % 1010,2 hPa 0,0 mm 0,3 km/h (0 Bft) W-SW 257 0 min 0,000 mm 2,6 UV-I 246 W/m 18,9 C 1,6 km/h (1 Bft)
11.07.2016 14:44 26,7 C 26,8 C 63 % 1010,2 hPa 0,0 mm 0,3 km/h (0 Bft) W-SW 257 0 min 0,000 mm 2,6 UV-I 244 W/m 19,1 C 1,6 km/h (1 Bft)
11.07.2016 14:45 26,5 C 26,7 C 67 % 1010,1 hPa 0,0 mm 1,2 km/h (1 Bft) W 271 0 min 0,000 mm 2,6 UV-I 241 W/m 19,9 C 1,6 km/h (1 Bft)
11.07.2016 14:46 26,4 C 26,5 C 62 % 1010,1 hPa 0,0 mm 1,7 km/h (1 Bft) N-NW 346 0 min 0,000 mm 2,6 UV-I 248 W/m 18,5 C 3,2 km/h (1 Bft)
11.07.2016 14:47 26,3 C 26,4 C 71 % 1010,2 hPa 0,0 mm 2,8 km/h (1 Bft) N 5 0 min 0,000 mm 2,6 UV-I 253 W/m 20,6 C 4,8 km/h (1 Bft)
11.07.2016 14:48 26,4 C 26,4 C 62 % 1010,1 hPa 0,0 mm 2,5 km/h (1 Bft) N-NO 29 0 min 0,000 mm 2,6 UV-I 255 W/m 18,5 C 4,8 km/h (1 Bft)
11.07.2016 14:49 26,5 C 26,5 C 62 % 1010,2 hPa 0,0 mm 2,5 km/h (1 Bft) N-NW 338 0 min 0,000 mm 2,6 UV-I 251 W/m 18,6 C 3,2 km/h (1 Bft)
11.07.2016 14:50 26,8 C 26,8 C 57 % 1010,1 hPa 0,0 mm 2,0 km/h (1 Bft) N-NW 338 0 min 0,000 mm 2,6 UV-I 251 W/m 17,6 C 3,2 km/h (1 Bft)
11.07.2016 14:51 26,9 C 26,9 C 56 % 1010,1 hPa 0,0 mm 0,7 km/h (0 Bft) N-NW 338 0 min 0,000 mm 2,6 UV-I 279 W/m 17,4 C 1,6 km/h (1 Bft)
11.07.2016 14:52 27,0 C 27,0 C 60 % 1010,2 hPa 0,0 mm 1,6 km/h (1 Bft) NO 44 0 min 0,000 mm 2,9 UV-I 299 W/m 18,6 C 3,2 km/h (1 Bft)
11.07.2016 14:53 26,9 C 27,0 C 63 % 1010,1 hPa 0,0 mm 4,2 km/h (1 Bft) O-SO 122 0 min 0,000 mm 3,0 UV-I 329 W/m 19,2 C 4,8 km/h (1 Bft)
11.07.2016 14:54 26,8 C 26,9 C 59 % 1010,1 hPa 0,0 mm 5,0 km/h (1 Bft) S-SO 151 0 min 0,000 mm 3,1 UV-I 323 W/m 18,1 C 8,0 km/h (2 Bft)
11.07.2016 14:55 26,8 C 26,8 C 56 % 1010,1 hPa 0,0 mm 2,1 km/h (1 Bft) S-SO 159 0 min 0,000 mm 3,2 UV-I 367 W/m 17,3 C 4,8 km/h (1 Bft)
11.07.2016 14:56 26,8 C 26,8 C 64 % 1010,1 hPa 0,0 mm 1,7 km/h (1 Bft) O 83 0 min 0,000 mm 3,3 UV-I 353 W/m 19,4 C 3,2 km/h (1 Bft)
11.07.2016 14:57 26,7 C 26,8 C 64 % 1010,1 hPa 0,0 mm 5,0 km/h (1 Bft) O 86 0 min 0,000 mm 3,8 UV-I 425 W/m 19,3 C 6,4 km/h (2 Bft)
11.07.2016 14:58 26,6 C 26,7 C 63 % 1010,1 hPa 0,0 mm 4,0 km/h (1 Bft) O 101 0 min 0,000 mm 3,7 UV-I 406 W/m 19,0 C 4,8 km/h (1 Bft)
11.07.2016 14:59 26,5 C 26,6 C 64 % 1010,1 hPa 0,0 mm 5,1 km/h (1 Bft) NO 50 0 min 0,000 mm 3,6 UV-I 394 W/m 19,1 C 8,0 km/h (2 Bft)
11.07.2016 15:00 26,4 C 26,5 C 63 % 1010,0 hPa 0,0 mm 8,9 km/h (2 Bft) N-NO 19 0 min 0,000 mm 3,5 UV-I 376 W/m 18,8 C 17,7 km/h (3 Bft)
11.07.2016 15:01 26,4 C 26,4 C 63 % 1010,0 hPa 0,0 mm 3,6 km/h (1 Bft) W 265 0 min 0,228 mm 3,4 UV-I 371 W/m 18,8 C 6,4 km/h (2 Bft)
11.07.2016 15:02 26,3 C 26,4 C 64 % 1010,0 hPa 0,0 mm 2,5 km/h (1 Bft) NW 309 0 min 0,000 mm 3,4 UV-I 383 W/m 18,9 C 6,4 km/h (2 Bft)
11.07.2016 15:03 26,2 C 26,3 C 63 % 1009,9 hPa 0,0 mm 4,8 km/h (1 Bft) N 5 0 min 0,000 mm 3,4 UV-I 383 W/m 18,6 C 9,7 km/h (2 Bft)
11.07.2016 15:04 26,2 C 26,2 C 64 % 1010,0 hPa 0,0 mm 3,7 km/h (1 Bft) N 360 1 min 0,000 mm 4,1 UV-I 582 W/m 18,8 C 6,4 km/h (2 Bft)
11.07.2016 15:05 26,2 C 26,2 C 64 % 1010,0 hPa 0,0 mm 2,4 km/h (1 Bft) N 350 1 min 0,000 mm 3,4 UV-I 582 W/m 18,8 C 4,8 km/h (1 Bft)
11.07.2016 15:06 26,2 C 26,2 C 61 % 1010,0 hPa 0,0 mm 4,0 km/h (1 Bft) N-NO 20 0 min 0,000 mm 3,1 UV-I 374 W/m 18,1 C 6,4 km/h (2 Bft)
11.07.2016 15:07 26,1 C 26,2 C 65 % 1010,0 hPa 0,0 mm 4,2 km/h (1 Bft) O-NO 72 0 min 0,000 mm 3,0 UV-I 346 W/m 19,0 C 11,3 km/h (2 Bft)
11.07.2016 15:08 25,8 C 26,1 C 62 % 1010,0 hPa 0,0 mm 5,0 km/h (1 Bft) NO 44 0 min 0,000 mm 2,8 UV-I 306 W/m 18,0 C 11,3 km/h (2 Bft)
11.07.2016 15:09 25,6 C 25,8 C 65 % 1010,0 hPa 0,0 mm 3,4 km/h (1 Bft) SO 146 1 min 0,000 mm 3,2 UV-I 512 W/m 18,5 C 6,4 km/h (2 Bft)
11.07.2016 15:10 25,5 C 25,6 C 63 % 1009,9 hPa 0,0 mm 3,9 km/h (1 Bft) SO 130 1 min 0,000 mm 4,1 UV-I 512 W/m 17,9 C 9,7 km/h (2 Bft)
11.07.2016 15:11 25,4 C 25,5 C 64 % 1009,9 hPa 0,0 mm 1,0 km/h (0 Bft) SO 130 1 min 0,000 mm 4,6 UV-I 691 W/m 18,1 C 3,2 km/h (1 Bft)
11.07.2016 15:12 25,5 C 25,5 C 67 % 1009,9 hPa 0,0 mm 1,7 km/h (1 Bft) O-NO 74 1 min 0,000 mm 3,5 UV-I 691 W/m 18,9 C 4,8 km/h (1 Bft)
11.07.2016 15:13 25,5 C 25,6 C 69 % 1009,9 hPa 0,0 mm 2,7 km/h (1 Bft) O-SO 102 1 min 0,000 mm 4,3 UV-I 691 W/m 19,4 C 4,8 km/h (1 Bft)
11.07.2016 15:14 25,5 C 25,6 C 65 % 1009,9 hPa 0,0 mm 2,7 km/h (1 Bft) O-SO 102 0 min 0,000 mm 3,3 UV-I 350 W/m 18,4 C 4,8 km/h (1 Bft)
11.07.2016 15:15 25,5 C 25,5 C 63 % 1009,8 hPa 0,0 mm 0,9 km/h (0 Bft) O-SO 102 0 min 0,000 mm 3,5 UV-I 350 W/m 17,9 C 1,6 km/h (1 Bft)
11.07.2016 15:16 25,4 C 25,5 C 68 % 1009,9 hPa 0,0 mm 2,5 km/h (1 Bft) O 84 0 min 0,000 mm 4,9 UV-I 350 W/m 19,1 C 4,8 km/h (1 Bft)
11.07.2016 15:17 25,6 C 25,6 C 68 % 1009,9 hPa 0,0 mm 2,7 km/h (1 Bft) S-SW 200 0 min 0,000 mm 6,2 UV-I 350 W/m 19,2 C 4,8 km/h (1 Bft)
11.07.2016 15:18 25,7 C 25,7 C 65 % 1009,9 hPa 0,0 mm 5,0 km/h (1 Bft) N-NO 31 1 min 0,000 mm 6,2 UV-I 914 W/m 18,6 C 8,0 km/h (2 Bft)
11.07.2016 15:19 25,8 C 25,8 C 64 % 1009,8 hPa 0,0 mm 9,4 km/h (2 Bft) SO 144 1 min 0,000 mm 6,2 UV-I 916 W/m 18,5 C 17,7 km/h (3 Bft)
11.07.2016 15:20 25,8 C 25,8 C 62 % 1009,8 hPa 0,0 mm 12,7 km/h (3 Bft) SO 126 1 min 0,000 mm 5,4 UV-I 905 W/m 18,0 C 17,7 km/h (3 Bft)
11.07.2016 15:21 25,9 C 25,9 C 63 % 1009,8 hPa 0,0 mm 9,7 km/h (2 Bft) O-NO 61 1 min 0,000 mm 6,2 UV-I 886 W/m 18,3 C 14,5 km/h (3 Bft)
11.07.2016 15:22 25,9 C 25,9 C 64 % 1009,7 hPa 0,0 mm 4,6 km/h (1 Bft) N-NW 336 1 min 0,000 mm 6,2 UV-I 870 W/m 18,6 C 8,0 km/h (2 Bft)
11.07.2016 15:23 26,1 C 26,1 C 65 % 1009,7 hPa 0,0 mm 1,6 km/h (1 Bft) S 186 1 min 0,000 mm 6,2 UV-I 860 W/m 19,0 C 4,8 km/h (1 Bft)
11.07.2016 15:24 26,2 C 26,2 C 61 % 1009,6 hPa 0,0 mm 3,8 km/h (1 Bft) S 180 1 min 0,000 mm 6,2 UV-I 842 W/m 18,1 C 6,4 km/h (2 Bft)
11.07.2016 15:25 26,3 C 26,3 C 67 % 1009,6 hPa 0,0 mm 6,2 km/h (2 Bft) SO 138 1 min 0,000 mm 6,1 UV-I 842 W/m 19,7 C 9,7 km/h (2 Bft)
11.07.2016 15:26 26,3 C 26,3 C 67 % 1009,6 hPa 0,0 mm 4,5 km/h (1 Bft) O-SO 105 1 min 0,000 mm 6,0 UV-I 798 W/m 19,7 C 6,4 km/h (2 Bft)
11.07.2016 15:27 26,4 C 26,4 C 61 % 1009,5 hPa 0,0 mm 4,1 km/h (1 Bft) W-NW 286 1 min 0,000 mm 6,0 UV-I 796 W/m 18,3 C 6,4 km/h (2 Bft)
11.07.2016 15:28 26,4 C 26,4 C 64 % 1009,5 hPa 0,0 mm 3,2 km/h (1 Bft) W-SW 243 1 min 0,000 mm 5,9 UV-I 788 W/m 19,0 C 4,8 km/h (1 Bft)
11.07.2016 15:29 26,5 C 26,5 C 67 % 1009,5 hPa 0,0 mm 1,7 km/h (1 Bft) S-SW 209 1 min 0,000 mm 5,9 UV-I 788 W/m 19,9 C 3,2 km/h (1 Bft)
11.07.2016 15:30 26,6 C 26,6 C 60 % 1009,4 hPa 0,0 mm 4,9 km/h (1 Bft) S-SO 157 1 min 0,000 mm 5,9 UV-I 779 W/m 18,2 C 8,0 km/h (2 Bft)
11.07.2016 15:31 26,6 C 26,6 C 63 % 1009,4 hPa 0,0 mm 1,0 km/h (0 Bft) O 98 1 min 0,000 mm 5,9 UV-I 780 W/m 19,0 C 3,2 km/h (1 Bft)
11.07.2016 15:32 26,7 C 26,7 C 64 % 1009,4 hPa 0,0 mm 1,5 km/h (1 Bft) N-NO 28 1 min 0,000 mm 5,8 UV-I 766 W/m 19,3 C 3,2 km/h (1 Bft)
11.07.2016 15:33 26,9 C 26,9 C 65 % 1009,4 hPa 0,0 mm 3,2 km/h (1 Bft) W 263 1 min 0,000 mm 5,8 UV-I 766 W/m 19,7 C 4,8 km/h (1 Bft)
11.07.2016 15:34 26,8 C 26,9 C 61 % 1009,4 hPa 0,0 mm 6,4 km/h (2 Bft) W-SW 254 1 min 0,000 mm 5,7 UV-I 759 W/m 18,6 C 12,9 km/h (3 Bft)
11.07.2016 15:35 26,7 C 26,8 C 61 % 1009,4 hPa 0,0 mm 6,8 km/h (2 Bft) SW 229 1 min 0,000 mm 5,7 UV-I 758 W/m 18,5 C 9,7 km/h (2 Bft)
11.07.2016 15:36 26,7 C 26,8 C 62 % 1009,3 hPa 0,0 mm 3,9 km/h (1 Bft) S 177 1 min 0,000 mm 5,8 UV-I 765 W/m 18,8 C 8,0 km/h (2 Bft)
11.07.2016 15:37 26,6 C 26,7 C 63 % 1009,4 hPa 0,0 mm 3,9 km/h (1 Bft) S 188 1 min 0,000 mm 5,7 UV-I 765 W/m 19,0 C 8,0 km/h (2 Bft)
11.07.2016 15:38 26,5 C 26,6 C 61 % 1009,3 hPa 0,0 mm 3,7 km/h (1 Bft) NO 51 1 min 0,000 mm 5,4 UV-I 766 W/m 18,4 C 6,4 km/h (2 Bft)
11.07.2016 15:39 26,4 C 26,5 C 63 % 1009,3 hPa 0,0 mm 3,7 km/h (1 Bft) O-NO 62 1 min 0,000 mm 5,5 UV-I 747 W/m 18,8 C 4,8 km/h (1 Bft)
11.07.2016 15:40 26,6 C 26,6 C 62 % 1009,3 hPa 0,0 mm 2,2 km/h (1 Bft) O-NO 59 1 min 0,000 mm 5,5 UV-I 740 W/m 18,7 C 4,8 km/h (1 Bft)
11.07.2016 15:41 26,6 C 26,6 C 67 % 1009,4 hPa 0,0 mm 1,7 km/h (1 Bft) N-NW 332 1 min 0,000 mm 5,4 UV-I 740 W/m 20,0 C 3,2 km/h (1 Bft)
11.07.2016 15:42 26,6 C 26,6 C 65 % 1009,3 hPa 0,0 mm 3,6 km/h (1 Bft) O-NO 69 1 min 0,000 mm 5,4 UV-I 737 W/m 19,5 C 4,8 km/h (1 Bft)
11.07.2016 15:43 26,6 C 26,7 C 61 % 1009,4 hPa 0,0 mm 3,8 km/h (1 Bft) N-NW 336 1 min 0,000 mm 5,4 UV-I 742 W/m 18,4 C 6,4 km/h (2 Bft)
11.07.2016 15:44 26,5 C 26,6 C 62 % 1009,4 hPa 0,0 mm 3,3 km/h (1 Bft) O 79 1 min 0,000 mm 5,3 UV-I 717 W/m 18,6 C 6,4 km/h (2 Bft)
11.07.2016 15:45 26,4 C 26,5 C 63 % 1009,4 hPa 0,0 mm 6,4 km/h (2 Bft) O 92 1 min 0,000 mm 4,8 UV-I 621 W/m 18,8 C 11,3 km/h (2 Bft)
11.07.2016 15:46 26,2 C 26,4 C 60 % 1009,4 hPa 0,0 mm 2,9 km/h (1 Bft) W 269 1 min 0,000 mm 4,5 UV-I 561 W/m 17,8 C 6,4 km/h (2 Bft)
11.07.2016 15:47 25,9 C 26,2 C 61 % 1009,4 hPa 0,0 mm 2,6 km/h (1 Bft) N 355 1 min 0,000 mm 4,9 UV-I 656 W/m 17,8 C 4,8 km/h (1 Bft)
11.07.2016 15:48 25,8 C 25,9 C 63 % 1009,4 hPa 0,0 mm 2,3 km/h (1 Bft) N-NO 15 1 min 0,000 mm 4,9 UV-I 668 W/m 18,2 C 3,2 km/h (1 Bft)
11.07.2016 15:49 25,8 C 25,8 C 64 % 1009,3 hPa 0,0 mm 2,9 km/h (1 Bft) NO 49 1 min 0,000 mm 4,9 UV-I 677 W/m 18,5 C 3,2 km/h (1 Bft)
11.07.2016 15:50 25,8 C 25,8 C 66 % 1009,3 hPa 0,0 mm 2,7 km/h (1 Bft) O 92 1 min 0,000 mm 5,0 UV-I 715 W/m 19,0 C 4,8 km/h (1 Bft)
11.07.2016 15:51 25,8 C 25,8 C 64 % 1009,3 hPa 0,0 mm 5,3 km/h (1 Bft) O 89 1 min 0,000 mm 5,2 UV-I 724 W/m 18,5 C 8,0 km/h (2 Bft)
11.07.2016 15:52 25,9 C 25,9 C 64 % 1009,4 hPa 0,0 mm 3,8 km/h (1 Bft) S-SO 151 1 min 0,000 mm 5,1 UV-I 728 W/m 18,6 C 6,4 km/h (2 Bft)
11.07.2016 15:53 25,9 C 25,9 C 65 % 1009,4 hPa 0,0 mm 3,0 km/h (1 Bft) S-SW 205 1 min 0,000 mm 5,1 UV-I 728 W/m 18,8 C 4,8 km/h (1 Bft)
11.07.2016 15:54 25,9 C 26,0 C 61 % 1009,3 hPa 0,0 mm 3,6 km/h (1 Bft) SO 146 1 min 0,000 mm 4,3 UV-I 738 W/m 17,8 C 8,0 km/h (2 Bft)
11.07.2016 15:55 26,0 C 26,0 C 66 % 1009,4 hPa 0,0 mm 2,1 km/h (1 Bft) O-SO 123 1 min 0,000 mm 5,0 UV-I 738 W/m 19,1 C 4,8 km/h (1 Bft)
11.07.2016 15:56 26,1 C 26,1 C 66 % 1009,4 hPa 0,0 mm 3,6 km/h (1 Bft) SO 132 1 min 0,000 mm 5,1 UV-I 731 W/m 19,2 C 8,0 km/h (2 Bft)
11.07.2016 15:57 26,1 C 26,1 C 62 % 1009,4 hPa 0,0 mm 4,8 km/h (1 Bft) NO 44 1 min 0,000 mm 5,0 UV-I 724 W/m 18,2 C 8,0 km/h (2 Bft)
11.07.2016 15:58 26,1 C 26,1 C 64 % 1009,4 hPa 0,0 mm 3,2 km/h (1 Bft) O 96 1 min 0,000 mm 3,1 UV-I 724 W/m 18,7 C 6,4 km/h (2 Bft)
11.07.2016 15:59 26,1 C 26,1 C 62 % 1009,4 hPa 0,0 mm 0,8 km/h (0 Bft) O 94 0 min 0,000 mm 3,1 UV-I 179 W/m 18,2 C 3,2 km/h (1 Bft)
11.07.2016 16:00 25,9 C 26,1 C 66 % 1009,4 hPa 0,0 mm 2,1 km/h (1 Bft) O-SO 114 0 min 0,000 mm 3,1 UV-I 185 W/m 19,0 C 3,2 km/h (1 Bft)
11.07.2016 16:01 25,8 C 25,9 C 63 % 1009,4 hPa 0,0 mm 4,6 km/h (1 Bft) S-SO 149 0 min 0,432 mm 3,3 UV-I 221 W/m 18,2 C 8,0 km/h (2 Bft)
11.07.2016 16:02 25,7 C 25,8 C 63 % 1009,4 hPa 0,0 mm 1,4 km/h (1 Bft) NO 42 0 min 0,000 mm 4,3 UV-I 221 W/m 18,1 C 3,2 km/h (1 Bft)
11.07.2016 16:03 25,4 C 25,7 C 66 % 1009,4 hPa 0,0 mm 0,7 km/h (0 Bft) NO 44 0 min 0,000 mm 3,7 UV-I 221 W/m 18,6 C 1,6 km/h (1 Bft)
11.07.2016 16:04 25,3 C 25,4 C 69 % 1009,5 hPa 0,0 mm 2,0 km/h (1 Bft) O 89 0 min 0,000 mm 4,7 UV-I 221 W/m 19,2 C 4,8 km/h (1 Bft)
11.07.2016 16:05 25,3 C 25,3 C 68 % 1009,5 hPa 0,0 mm 1,6 km/h (1 Bft) O 101 1 min 0,000 mm 4,8 UV-I 708 W/m 19,0 C 4,8 km/h (1 Bft)
11.07.2016 16:06 25,3 C 25,3 C 66 % 1009,5 hPa 0,0 mm 1,5 km/h (1 Bft) SO 130 1 min 0,000 mm 4,7 UV-I 707 W/m 18,5 C 3,2 km/h (1 Bft)
11.07.2016 16:07 25,5 C 25,5 C 66 % 1009,6 hPa 0,0 mm 1,0 km/h (0 Bft) SO 128 1 min 0,000 mm 4,7 UV-I 703 W/m 18,7 C 1,6 km/h (1 Bft)
11.07.2016 16:08 25,6 C 25,6 C 66 % 1009,6 hPa 0,0 mm 2,1 km/h (1 Bft) O 89 1 min 0,000 mm 4,5 UV-I 696 W/m 18,8 C 4,8 km/h (1 Bft)
11.07.2016 16:09 25,8 C 25,8 C 66 % 1009,6 hPa 0,0 mm 2,1 km/h (1 Bft) O-SO 105 1 min 0,000 mm 4,6 UV-I 707 W/m 19,0 C 4,8 km/h (1 Bft)
11.07.2016 16:10 25,9 C 25,9 C 67 % 1009,6 hPa 0,0 mm 3,4 km/h (1 Bft) O-NO 76 1 min 0,000 mm 4,5 UV-I 701 W/m 19,3 C 4,8 km/h (1 Bft)
11.07.2016 16:11 26,1 C 26,1 C 64 % 1009,6 hPa 0,0 mm 1,7 km/h (1 Bft) O 86 1 min 0,000 mm 4,4 UV-I 701 W/m 18,7 C 3,2 km/h (1 Bft)
11.07.2016 16:12 26,3 C 26,3 C 63 % 1009,6 hPa 0,0 mm 3,2 km/h (1 Bft) O-NO 67 1 min 0,000 mm 4,4 UV-I 689 W/m 18,7 C 4,8 km/h (1 Bft)
11.07.2016 16:13 26,4 C 26,4 C 68 % 1009,6 hPa 0,0 mm 1,5 km/h (1 Bft) O 80 1 min 0,000 mm 4,3 UV-I 707 W/m 20,0 C 3,2 km/h (1 Bft)
11.07.2016 16:14 26,4 C 26,5 C 64 % 1009,7 hPa 0,0 mm 0,6 km/h (0 Bft) O 80 1 min 0,000 mm 3,3 UV-I 707 W/m 19,0 C 1,6 km/h (1 Bft)
11.07.2016 16:15 26,5 C 26,5 C 64 % 1009,6 hPa 0,0 mm 3,1 km/h (1 Bft) NO 50 0 min 0,000 mm 3,3 UV-I 376 W/m 19,1 C 6,4 km/h (2 Bft)
11.07.2016 16:16 26,5 C 26,5 C 63 % 1009,6 hPa 0,0 mm 2,4 km/h (1 Bft) O 85 0 min 0,000 mm 3,4 UV-I 339 W/m 18,9 C 4,8 km/h (1 Bft)
11.07.2016 16:17 26,5 C 26,5 C 62 % 1009,6 hPa 0,0 mm 2,8 km/h (1 Bft) O 84 0 min 0,000 mm 2,7 UV-I 339 W/m 18,6 C 4,8 km/h (1 Bft)
11.07.2016 16:18 26,4 C 26,6 C 61 % 1009,7 hPa 0,0 mm 1,5 km/h (1 Bft) O-NO 60 0 min 0,000 mm 2,4 UV-I 193 W/m 18,3 C 3,2 km/h (1 Bft)
11.07.2016 16:19 26,4 C 26,4 C 63 % 1009,6 hPa 0,0 mm 2,1 km/h (1 Bft) SO 136 0 min 0,000 mm 2,2 UV-I 149 W/m 18,8 C 4,8 km/h (1 Bft)
11.07.2016 16:20 26,2 C 26,4 C 68 % 1009,6 hPa 0,0 mm 3,2 km/h (1 Bft) SO 140 0 min 0,000 mm 1,8 UV-I 135 W/m 19,8 C 4,8 km/h (1 Bft)
11.07.2016 16:21 25,9 C 26,2 C 66 % 1009,6 hPa 0,0 mm 2,2 km/h (1 Bft) SO 136 0 min 0,000 mm 1,6 UV-I 128 W/m 19,0 C 3,2 km/h (1 Bft)
11.07.2016 16:22 25,8 C 25,9 C 65 % 1009,6 hPa 0,0 mm 1,7 km/h (1 Bft) O-SO 114 0 min 0,000 mm 1,6 UV-I 134 W/m 18,7 C 3,2 km/h (1 Bft)
11.07.2016 16:23 25,7 C 25,8 C 66 % 1009,6 hPa 0,0 mm 1,0 km/h (0 Bft) S 176 0 min 0,000 mm 1,7 UV-I 160 W/m 18,9 C 1,6 km/h (1 Bft)
11.07.2016 16:24 25,6 C 25,7 C 69 % 1009,6 hPa 0,0 mm 0,8 km/h (0 Bft) S 176 0 min 0,000 mm 1,8 UV-I 197 W/m 19,5 C 1,6 km/h (1 Bft)
11.07.2016 16:25 25,6 C 25,6 C 65 % 1009,6 hPa 0,0 mm 0,3 km/h (0 Bft) S 176 0 min 0,000 mm 1,9 UV-I 197 W/m 18,5 C 1,6 km/h (1 Bft)
11.07.2016 16:26 25,4 C 25,6 C 70 % 1009,6 hPa 0,0 mm 0,3 km/h (0 Bft) S 176 0 min 0,000 mm 1,9 UV-I 200 W/m 19,5 C 1,6 km/h (1 Bft)
11.07.2016 16:27 25,3 C 25,4 C 69 % 1009,5 hPa 0,0 mm 0,5 km/h (0 Bft) S 176 0 min 0,000 mm 1,9 UV-I 199 W/m 19,2 C 1,6 km/h (1 Bft)
11.07.2016 16:28 25,2 C 25,3 C 72 % 1009,5 hPa 0,0 mm 0,6 km/h (0 Bft) S 173 0 min 0,000 mm 1,9 UV-I 190 W/m 19,8 C 1,6 km/h (1 Bft)
11.07.2016 16:29 25,2 C 25,3 C 72 % 1009,6 hPa 0,0 mm 1,6 km/h (1 Bft) W 271 0 min 0,000 mm 1,8 UV-I 190 W/m 19,8 C 3,2 km/h (1 Bft)
11.07.2016 16:30 25,2 C 25,2 C 71 % 1009,5 hPa 0,0 mm 1,4 km/h (1 Bft) W 271 0 min 0,000 mm 1,7 UV-I 163 W/m 19,6 C 3,2 km/h (1 Bft)
11.07.2016 16:31 25,2 C 25,2 C 69 % 1009,6 hPa 0,0 mm 0,8 km/h (0 Bft) W 271 0 min 0,000 mm 1,7 UV-I 156 W/m 19,1 C 1,6 km/h (1 Bft)
11.07.2016 16:32 25,2 C 25,2 C 72 % 1009,6 hPa 0,0 mm 2,5 km/h (1 Bft) SW 227 0 min 0,000 mm 1,6 UV-I 155 W/m 19,8 C 3,2 km/h (1 Bft)
11.07.2016 16:33 25,2 C 25,2 C 69 % 1009,5 hPa 0,0 mm 3,7 km/h (1 Bft) W-SW 240 0 min 0,000 mm 1,6 UV-I 149 W/m 19,1 C 4,8 km/h (1 Bft)
11.07.2016 16:34 25,1 C 25,2 C 65 % 1009,6 hPa 0,0 mm 3,7 km/h (1 Bft) W-SW 246 0 min 0,000 mm 1,6 UV-I 153 W/m 18,0 C 4,8 km/h (1 Bft)
11.07.2016 16:35 25,1 C 25,1 C 65 % 1009,5 hPa 0,0 mm 3,0 km/h (1 Bft) W-SW 244 0 min 0,000 mm 1,7 UV-I 158 W/m 18,0 C 4,8 km/h (1 Bft)
11.07.2016 16:36 24,9 C 25,1 C 66 % 1009,5 hPa 0,0 mm 2,9 km/h (1 Bft) W-SW 242 0 min 0,000 mm 1,8 UV-I 197 W/m 18,1 C 4,8 km/h (1 Bft)
11.07.2016 16:37 24,8 C 24,9 C 68 % 1009,4 hPa 0,0 mm 1,5 km/h (1 Bft) W-NW 290 0 min 0,000 mm 2,2 UV-I 216 W/m 18,5 C 3,2 km/h (1 Bft)
11.07.2016 16:38 24,8 C 24,8 C 65 % 1009,4 hPa 0,0 mm 1,6 km/h (1 Bft) W-NW 294 0 min 0,000 mm 2,2 UV-I 218 W/m 17,8 C 3,2 km/h (1 Bft)
11.07.2016 16:39 24,8 C 24,8 C 67 % 1009,4 hPa 0,0 mm 1,5 km/h (1 Bft) W-SW 252 0 min 0,000 mm 2,2 UV-I 218 W/m 18,2 C 3,2 km/h (1 Bft)
11.07.2016 16:40 24,8 C 24,8 C 70 % 1009,3 hPa 0,0 mm 2,5 km/h (1 Bft) SW 234 0 min 0,000 mm 2,2 UV-I 218 W/m 18,9 C 4,8 km/h (1 Bft)
11.07.2016 16:41 24,9 C 24,9 C 69 % 1009,4 hPa 0,0 mm 1,9 km/h (1 Bft) SW 234 0 min 0,000 mm 2,2 UV-I 216 W/m 18,8 C 3,2 km/h (1 Bft)
11.07.2016 16:42 25,0 C 25,0 C 70 % 1009,4 hPa 0,0 mm 1,1 km/h (1 Bft) SW 234 0 min 0,000 mm 2,2 UV-I 216 W/m 19,1 C 1,6 km/h (1 Bft)
11.07.2016 16:43 25,1 C 25,1 C 69 % 1009,4 hPa 0,0 mm 1,7 km/h (1 Bft) SW 224 0 min 0,000 mm 2,3 UV-I 225 W/m 19,0 C 3,2 km/h (1 Bft)
11.07.2016 16:44 25,1 C 25,1 C 68 % 1009,5 hPa 0,0 mm 1,1 km/h (1 Bft) W 260 0 min 0,000 mm 2,3 UV-I 227 W/m 18,8 C 1,6 km/h (1 Bft)
11.07.2016 16:45 25,1 C 25,1 C 71 % 1009,4 hPa 0,0 mm 1,7 km/h (1 Bft) W 267 0 min 0,000 mm 2,2 UV-I 221 W/m 19,5 C 3,2 km/h (1 Bft)
11.07.2016 16:46 25,1 C 25,1 C 71 % 1009,4 hPa 0,0 mm 0,3 km/h (0 Bft) W 267 0 min 0,000 mm 2,2 UV-I 216 W/m 19,5 C 1,6 km/h (1 Bft)
11.07.2016 16:47 25,1 C 25,1 C 69 % 1009,4 hPa 0,0 mm 0,3 km/h (0 Bft) W 267 0 min 0,000 mm 2,2 UV-I 213 W/m 19,0 C 1,6 km/h (1 Bft)
11.07.2016 16:48 25,1 C 25,1 C 68 % 1009,4 hPa 0,0 mm 0,1 km/h (0 Bft) W 267 0 min 0,000 mm 2,1 UV-I 209 W/m 18,8 C 1,6 km/h (1 Bft)
11.07.2016 16:49 25,1 C 25,1 C 67 % 1009,4 hPa 0,0 mm 0,1 km/h (0 Bft) W 267 0 min 0,000 mm 2,1 UV-I 211 W/m 18,5 C 1,6 km/h (1 Bft)
11.07.2016 16:50 25,2 C 25,2 C 67 % 1009,5 hPa 0,0 mm 0,0 km/h (0 Bft) W 267 0 min 0,000 mm 2,1 UV-I 206 W/m 18,6 C 0,0 km/h (0 Bft)
11.07.2016 16:51 25,2 C 25,2 C 70 % 1009,4 hPa 0,0 mm 0,2 km/h (0 Bft) W 267 0 min 0,000 mm 2,1 UV-I 204 W/m 19,3 C 1,6 km/h (1 Bft)
11.07.2016 16:52 25,2 C 25,2 C 69 % 1009,5 hPa 0,0 mm 0,9 km/h (0 Bft) W 267 0 min 0,000 mm 2,0 UV-I 204 W/m 19,1 C 1,6 km/h (1 Bft)
11.07.2016 16:53 25,2 C 25,2 C 71 % 1009,5 hPa 0,0 mm 0,7 km/h (0 Bft) W 267 0 min 0,000 mm 2,0 UV-I 204 W/m 19,6 C 1,6 km/h (1 Bft)
11.07.2016 16:54 25,1 C 25,2 C 69 % 1009,5 hPa 0,0 mm 0,1 km/h (0 Bft) W 267 0 min 0,000 mm 2,1 UV-I 204 W/m 19,0 C 1,6 km/h (1 Bft)
11.07.2016 16:55 25,1 C 25,1 C 72 % 1009,5 hPa 0,0 mm 1,1 km/h (1 Bft) W-NW 289 0 min 0,000 mm 2,0 UV-I 202 W/m 19,7 C 3,2 km/h (1 Bft)
11.07.2016 16:56 25,1 C 25,1 C 71 % 1009,4 hPa 0,0 mm 0,7 km/h (0 Bft) W-NW 296 0 min 0,000 mm 2,0 UV-I 199 W/m 19,5 C 1,6 km/h (1 Bft)
11.07.2016 16:57 25,1 C 25,1 C 71 % 1009,4 hPa 0,0 mm 0,1 km/h (0 Bft) W-NW 296 0 min 0,000 mm 1,9 UV-I 195 W/m 19,5 C 1,6 km/h (1 Bft)
11.07.2016 16:58 25,1 C 25,1 C 73 % 1009,4 hPa 0,0 mm 0,1 km/h (0 Bft) W-NW 296 0 min 0,000 mm 1,9 UV-I 190 W/m 19,9 C 1,6 km/h (1 Bft)
11.07.2016 16:59 25,1 C 25,1 C 73 % 1009,4 hPa 0,0 mm 0,3 km/h (0 Bft) W-NW 296 0 min 0,000 mm 1,8 UV-I 188 W/m 19,9 C 1,6 km/h (1 Bft)
11.07.2016 17:00 24,9 C 25,1 C 71 % 1009,4 hPa 0,0 mm 0,7 km/h (0 Bft) W-NW 296 0 min 0,000 mm 1,8 UV-I 181 W/m 19,3 C 1,6 km/h (1 Bft)
11.07.2016 17:01 24,9 C 24,9 C 70 % 1009,4 hPa 0,0 mm 0,4 km/h (0 Bft) W-NW 296 0 min 0,203 mm 1,7 UV-I 176 W/m 19,0 C 1,6 km/h (1 Bft)
11.07.2016 17:02 24,9 C 24,9 C 70 % 1009,4 hPa 0,0 mm 1,1 km/h (1 Bft) W-NW 296 0 min 0,000 mm 1,6 UV-I 171 W/m 19,0 C 1,6 km/h (1 Bft)
11.07.2016 17:03 24,8 C 24,9 C 70 % 1009,4 hPa 0,0 mm 0,0 km/h (0 Bft) W-NW 296 0 min 0,000 mm 1,5 UV-I 163 W/m 18,9 C 0,0 km/h (0 Bft)
11.07.2016 17:04 24,8 C 24,8 C 74 % 1009,4 hPa 0,0 mm 0,1 km/h (0 Bft) W-NW 296 0 min 0,000 mm 1,5 UV-I 155 W/m 19,8 C 1,6 km/h (1 Bft)
11.07.2016 17:05 24,7 C 24,8 C 74 % 1009,3 hPa 0,0 mm 0,2 km/h (0 Bft) W-NW 296 0 min 0,000 mm 1,4 UV-I 146 W/m 19,7 C 1,6 km/h (1 Bft)
11.07.2016 17:06 24,6 C 24,7 C 72 % 1009,4 hPa 0,0 mm 1,1 km/h (1 Bft) W-NW 296 0 min 0,000 mm 1,3 UV-I 135 W/m 19,2 C 1,6 km/h (1 Bft)
11.07.2016 17:07 24,4 C 24,6 C 72 % 1009,3 hPa 0,0 mm 1,7 km/h (1 Bft) W-NW 296 0 min 0,000 mm 1,3 UV-I 132 W/m 19,0 C 3,2 km/h (1 Bft)
11.07.2016 17:08 24,4 C 24,5 C 71 % 1009,3 hPa 0,0 mm 1,0 km/h (0 Bft) W-NW 296 0 min 0,000 mm 1,2 UV-I 128 W/m 18,8 C 1,6 km/h (1 Bft)
11.07.2016 17:09 24,4 C 24,4 C 75 % 1009,3 hPa 0,0 mm 1,0 km/h (0 Bft) W-NW 296 0 min 0,000 mm 1,2 UV-I 125 W/m 19,7 C 3,2 km/h (1 Bft)
11.07.2016 17:10 24,3 C 24,4 C 72 % 1009,3 hPa 0,0 mm 1,2 km/h (1 Bft) W-NW 296 0 min 0,000 mm 1,1 UV-I 121 W/m 18,9 C 3,2 km/h (1 Bft)
11.07.2016 17:11 24,4 C 24,4 C 73 % 1009,3 hPa 0,0 mm 0,7 km/h (0 Bft) W-NW 296 0 min 0,000 mm 1,1 UV-I 114 W/m 19,2 C 1,6 km/h (1 Bft)
11.07.2016 17:12 24,4 C 24,4 C 74 % 1009,3 hPa 0,0 mm 0,1 km/h (0 Bft) W-NW 296 0 min 0,000 mm 1,1 UV-I 111 W/m 19,5 C 1,6 km/h (1 Bft)
11.07.2016 17:13 24,3 C 24,4 C 74 % 1009,2 hPa 0,0 mm 0,4 km/h (0 Bft) W-NW 296 0 min 0,000 mm 1,0 UV-I 105 W/m 19,4 C 1,6 km/h (1 Bft)
11.07.2016 17:14 24,3 C 24,4 C 71 % 1009,2 hPa 0,0 mm 0,2 km/h (0 Bft) W-NW 296 0 min 0,000 mm 1,0 UV-I 102 W/m 18,7 C 1,6 km/h (1 Bft)
11.07.2016 17:15 24,3 C 24,3 C 73 % 1009,2 hPa 0,0 mm 0,1 km/h (0 Bft) W-NW 296 0 min 0,000 mm 0,9 UV-I 97 W/m 19,1 C 1,6 km/h (1 Bft)
11.07.2016 17:16 24,3 C 24,3 C 72 % 1009,2 hPa 0,0 mm 0,0 km/h (0 Bft) W-NW 296 0 min 0,000 mm 0,8 UV-I 91 W/m 18,9 C 0,0 km/h (0 Bft)
11.07.2016 17:17 24,3 C 24,3 C 72 % 1009,1 hPa 0,0 mm 0,2 km/h (0 Bft) W-NW 296 0 min 0,000 mm 0,7 UV-I 81 W/m 18,9 C 1,6 km/h (1 Bft)
11.07.2016 17:18 24,2 C 24,3 C 72 % 1009,1 hPa 0,0 mm 0,5 km/h (0 Bft) W-NW 296 0 min 0,000 mm 0,6 UV-I 76 W/m 18,8 C 1,6 km/h (1 Bft)
11.07.2016 17:19 24,2 C 24,3 C 74 % 1009,1 hPa 0,0 mm 0,7 km/h (0 Bft) W-NW 296 0 min 0,000 mm 0,6 UV-I 69 W/m 19,3 C 1,6 km/h (1 Bft)
11.07.2016 17:20 24,3 C 24,3 C 73 % 1009,1 hPa 0,0 mm 0,0 km/h (0 Bft) W-NW 292 0 min 0,000 mm 0,5 UV-I 63 W/m 19,1 C 1,6 km/h (1 Bft)
11.07.2016 17:22 24,2 C 24,3 C 72 % 1009,2 hPa 0,0 mm 1,6 km/h (1 Bft) W-NW 296 0 min 0,000 mm 0,0 UV-I 51 W/m 18,8 C 1,6 km/h (1 Bft)
11.07.2016 17:23 24,2 C 24,2 C 72 % 1009,2 hPa 0,0 mm 2,5 km/h (1 Bft) S-SW 209 0 min 0,000 mm 0,0 UV-I 30 W/m 18,8 C 4,8 km/h (1 Bft)
11.07.2016 17:24 24,2 C 24,2 C 72 % 1009,3 hPa 0,0 mm 2,9 km/h (1 Bft) S-SW 199 0 min 0,000 mm 0,0 UV-I 25 W/m 18,8 C 4,8 km/h (1 Bft)
11.07.2016 17:25 24,2 C 24,2 C 73 % 1009,3 hPa 0,0 mm 2,1 km/h (1 Bft) SW 225 0 min 0,000 mm 0,0 UV-I 21 W/m 19,0 C 3,2 km/h (1 Bft)
11.07.2016 17:26 24,2 C 24,3 C 72 % 1009,4 hPa 0,0 mm 4,1 km/h (1 Bft) W-SW 245 0 min 0,000 mm 0,0 UV-I 19 W/m 18,8 C 6,4 km/h (2 Bft)
11.07.2016 17:27 24,2 C 24,2 C 72 % 1009,4 hPa 0,0 mm 4,8 km/h (1 Bft) W-SW 257 0 min 0,000 mm 0,0 UV-I 18 W/m 18,8 C 9,7 km/h (2 Bft)
11.07.2016 17:28 24,2 C 24,2 C 72 % 1009,4 hPa 0,0 mm 5,2 km/h (1 Bft) W-SW 251 0 min 0,000 mm 0,0 UV-I 19 W/m 18,8 C 8,0 km/h (2 Bft)
11.07.2016 17:29 24,1 C 24,2 C 75 % 1009,4 hPa 0,0 mm 6,5 km/h (2 Bft) SW 229 0 min 0,000 mm 0,0 UV-I 21 W/m 19,4 C 8,0 km/h (2 Bft)
11.07.2016 17:30 23,9 C 24,1 C 72 % 1009,5 hPa 0,0 mm 5,6 km/h (1 Bft) W-SW 246 0 min 0,000 mm 0,0 UV-I 23 W/m 18,5 C 9,7 km/h (2 Bft)
11.07.2016 17:31 23,7 C 23,9 C 75 % 1009,5 hPa 0,6 mm 5,3 km/h (1 Bft) W 262 0 min 0,000 mm 0,0 UV-I 23 W/m 19,0 C 8,0 km/h (2 Bft)
11.07.2016 17:32 23,4 C 23,7 C 77 % 1009,5 hPa 0,6 mm 3,1 km/h (1 Bft) W-SW 237 0 min 0,000 mm 0,0 UV-I 25 W/m 19,1 C 6,4 km/h (2 Bft)
11.07.2016 17:33 23,2 C 23,4 C 79 % 1009,6 hPa 0,0 mm 1,5 km/h (1 Bft) SW 229 0 min 0,000 mm 0,0 UV-I 23 W/m 19,3 C 3,2 km/h (1 Bft)
11.07.2016 17:34 22,7 C 23,2 C 81 % 1009,7 hPa 0,2 mm 1,3 km/h (1 Bft) SW 229 0 min 0,000 mm 0,0 UV-I 19 W/m 19,3 C 3,2 km/h (1 Bft)
11.07.2016 17:35 22,3 C 22,7 C 83 % 1009,8 hPa 0,2 mm 2,2 km/h (1 Bft) S-SO 161 0 min 0,000 mm 0,0 UV-I 14 W/m 19,3 C 6,4 km/h (2 Bft)
11.07.2016 17:36 22,0 C 22,3 C 85 % 1009,9 hPa 0,0 mm 3,3 km/h (1 Bft) S-SO 161 0 min 0,000 mm 0,0 UV-I 12 W/m 19,4 C 8,0 km/h (2 Bft)
11.07.2016 17:37 21,7 C 22,0 C 85 % 1010,0 hPa 0,2 mm 5,2 km/h (1 Bft) S-SW 209 0 min 0,000 mm 0,0 UV-I 11 W/m 19,1 C 8,0 km/h (2 Bft)
11.07.2016 17:38 21,6 C 21,7 C 85 % 1010,0 hPa 0,0 mm 11,0 km/h (2 Bft) SO 127 0 min 0,000 mm 0,0 UV-I 11 W/m 19,0 C 17,7 km/h (3 Bft)
11.07.2016 17:39 21,5 C 21,6 C 85 % 1010,1 hPa 0,0 mm 3,6 km/h (1 Bft) S-SW 206 0 min 0,000 mm 0,0 UV-I 11 W/m 18,9 C 8,0 km/h (2 Bft)
11.07.2016 17:40 21,4 C 21,5 C 83 % 1010,1 hPa 0,0 mm 9,3 km/h (2 Bft) W 263 0 min 0,000 mm 0,0 UV-I 9 W/m 18,4 C 14,5 km/h (3 Bft)
11.07.2016 17:41 21,4 C 21,5 C 83 % 1010,2 hPa 0,2 mm 6,8 km/h (2 Bft) W-SW 251 0 min 0,000 mm 0,0 UV-I 9 W/m 18,4 C 11,3 km/h (2 Bft)
11.07.2016 17:42 21,4 C 21,4 C 84 % 1010,3 hPa 0,2 mm 4,4 km/h (1 Bft) W-SW 246 0 min 0,000 mm 0,0 UV-I 7 W/m 18,6 C 8,0 km/h (2 Bft)
11.07.2016 17:43 21,3 C 21,4 C 84 % 1010,4 hPa 0,2 mm 9,0 km/h (2 Bft) SW 220 0 min 0,000 mm 0,0 UV-I 7 W/m 18,5 C 19,3 km/h (3 Bft)
11.07.2016 17:44 21,3 C 21,4 C 83 % 1010,5 hPa 0,8 mm 11,3 km/h (2 Bft) NW 320 0 min 0,000 mm 0,0 UV-I 7 W/m 18,3 C 19,3 km/h (3 Bft)
11.07.2016 17:45 21,1 C 21,3 C 84 % 1010,8 hPa 1,4 mm 13,1 km/h (3 Bft) S 186 0 min 0,000 mm 0,0 UV-I 7 W/m 18,3 C 20,9 km/h (4 Bft)
11.07.2016 17:46 21,0 C 21,1 C 84 % 1010,6 hPa 1,0 mm 8,6 km/h (2 Bft) SO 146 0 min 0,000 mm 0,0 UV-I 9 W/m 18,2 C 12,9 km/h (3 Bft)
11.07.2016 17:47 20,8 C 21,0 C 85 % 1010,5 hPa 0,6 mm 8,9 km/h (2 Bft) W-SW 240 0 min 0,000 mm 0,0 UV-I 11 W/m 18,2 C 17,7 km/h (3 Bft)
11.07.2016 17:48 20,5 C 20,8 C 85 % 1010,8 hPa 1,6 mm 9,7 km/h (2 Bft) W-SW 255 0 min 0,000 mm 0,0 UV-I 11 W/m 17,9 C 19,3 km/h (3 Bft)
11.07.2016 17:49 20,3 C 20,5 C 84 % 1010,9 hPa 1,2 mm 10,5 km/h (2 Bft) W-SW 249 0 min 0,000 mm 0,0 UV-I 12 W/m 17,5 C 16,1 km/h (3 Bft)
11.07.2016 17:50 20,1 C 20,3 C 86 % 1010,9 hPa 1,0 mm 12,3 km/h (3 Bft) W-SW 242 0 min 0,000 mm 0,0 UV-I 12 W/m 17,7 C 25,7 km/h (4 Bft)
11.07.2016 17:51 19,8 C 20,1 C 86 % 1010,9 hPa 1,2 mm 16,0 km/h (3 Bft) SW 219 0 min 0,000 mm 0,0 UV-I 12 W/m 17,4 C 24,1 km/h (4 Bft)
11.07.2016 17:52 19,6 C 19,8 C 86 % 1011,0 hPa 1,4 mm 23,1 km/h (4 Bft) W-SW 250 0 min 0,000 mm 0,0 UV-I 18 W/m 17,2 C 35,4 km/h (5 Bft)
11.07.2016 17:53 19,5 C 19,6 C 87 % 1011,1 hPa 1,2 mm 11,9 km/h (2 Bft) SW 234 0 min 0,000 mm 0,0 UV-I 21 W/m 17,3 C 19,3 km/h (3 Bft)
11.07.2016 17:54 19,3 C 19,5 C 87 % 1011,0 hPa 0,8 mm 9,8 km/h (2 Bft) S 185 0 min 0,000 mm 0,0 UV-I 25 W/m 17,1 C 17,7 km/h (3 Bft)
11.07.2016 17:55 19,1 C 19,3 C 86 % 1010,9 hPa 1,4 mm 8,9 km/h (2 Bft) S 175 0 min 0,000 mm 0,0 UV-I 28 W/m 16,7 C 12,9 km/h (3 Bft)
11.07.2016 17:56 18,9 C 19,1 C 86 % 1010,8 hPa 0,2 mm 5,2 km/h (1 Bft) SW 236 0 min 0,000 mm 0,0 UV-I 35 W/m 16,5 C 8,0 km/h (2 Bft)
11.07.2016 17:57 18,8 C 18,9 C 87 % 1010,7 hPa 0,2 mm 4,0 km/h (1 Bft) S 170 0 min 0,000 mm 0,0 UV-I 39 W/m 16,6 C 6,4 km/h (2 Bft)
11.07.2016 17:58 18,7 C 18,8 C 88 % 1010,7 hPa 0,6 mm 5,8 km/h (2 Bft) SO 138 0 min 0,000 mm 0,0 UV-I 42 W/m 16,7 C 8,0 km/h (2 Bft)
11.07.2016 17:59 18,4 C 18,7 C 88 % 1010,7 hPa 0,4 mm 6,0 km/h (2 Bft) S-SO 151 0 min 0,000 mm 0,0 UV-I 44 W/m 16,4 C 8,0 km/h (2 Bft)
11.07.2016 18:00 18,3 C 18,4 C 89 % 1010,6 hPa 0,0 mm 7,2 km/h (2 Bft) SO 146 0 min 0,051 mm 0,0 UV-I 44 W/m 16,5 C 9,7 km/h (2 Bft)
11.07.2016 18:01 18,3 C 18,3 C 90 % 1010,7 hPa 0,0 mm 6,4 km/h (2 Bft) SO 132 0 min 0,000 mm 0,0 UV-I 42 W/m 16,6 C 11,3 km/h (2 Bft)
11.07.2016 18:02 18,2 C 18,3 C 91 % 1010,6 hPa 0,0 mm 7,0 km/h (2 Bft) O-SO 112 0 min 0,000 mm 0,0 UV-I 39 W/m 16,7 C 9,7 km/h (2 Bft)
11.07.2016 18:03 18,1 C 18,2 C 92 % 1010,6 hPa 0,0 mm 6,8 km/h (2 Bft) SO 126 0 min 0,000 mm 0,0 UV-I 33 W/m 16,8 C 9,7 km/h (2 Bft)
11.07.2016 18:04 18,0 C 18,1 C 92 % 1010,5 hPa 0,0 mm 5,7 km/h (1 Bft) SO 127 0 min 0,000 mm 0,0 UV-I 23 W/m 16,7 C 8,0 km/h (2 Bft)
11.07.2016 18:05 18,0 C 18,1 C 93 % 1010,6 hPa 0,0 mm 5,4 km/h (1 Bft) SO 132 0 min 0,000 mm 0,0 UV-I 19 W/m 16,8 C 6,4 km/h (2 Bft)
11.07.2016 18:06 18,0 C 18,0 C 93 % 1010,6 hPa 0,0 mm 5,1 km/h (1 Bft) SO 125 0 min 0,000 mm 0,0 UV-I 18 W/m 16,8 C 6,4 km/h (2 Bft)
11.07.2016 18:07 17,9 C 18,0 C 93 % 1010,5 hPa 0,0 mm 3,4 km/h (1 Bft) SO 133 0 min 0,000 mm 0,0 UV-I 18 W/m 16,8 C 6,4 km/h (2 Bft)
11.07.2016 18:08 17,9 C 18,0 C 93 % 1010,5 hPa 0,0 mm 0,8 km/h (0 Bft) SO 133 0 min 0,000 mm 0,0 UV-I 18 W/m 16,8 C 1,6 km/h (1 Bft)
11.07.2016 18:09 17,9 C 17,9 C 93 % 1010,5 hPa 0,0 mm 0,4 km/h (0 Bft) SO 133 0 min 0,000 mm 0,0 UV-I 18 W/m 16,8 C 1,6 km/h (1 Bft)
11.07.2016 18:10 17,9 C 17,9 C 93 % 1010,5 hPa 0,0 mm 1,2 km/h (1 Bft) SO 131 0 min 0,000 mm 0,0 UV-I 21 W/m 16,8 C 1,6 km/h (1 Bft)
11.07.2016 18:11 17,9 C 17,9 C 94 % 1010,5 hPa 0,0 mm 1,7 km/h (1 Bft) O-NO 59 0 min 0,000 mm 0,0 UV-I 21 W/m 16,9 C 3,2 km/h (1 Bft)
11.07.2016 18:12 17,9 C 17,9 C 94 % 1010,5 hPa 0,0 mm 2,5 km/h (1 Bft) O-NO 60 0 min 0,000 mm 0,0 UV-I 23 W/m 16,9 C 4,8 km/h (1 Bft)
11.07.2016 18:13 17,9 C 17,9 C 94 % 1010,4 hPa 0,0 mm 2,3 km/h (1 Bft) O-NO 60 0 min 0,000 mm 0,0 UV-I 23 W/m 16,9 C 4,8 km/h (1 Bft)
11.07.2016 18:14 18,0 C 18,0 C 94 % 1010,5 hPa 0,0 mm 1,2 km/h (1 Bft) O-NO 60 0 min 0,000 mm 0,0 UV-I 23 W/m 17,0 C 1,6 km/h (1 Bft)
11.07.2016 18:15 18,0 C 18,0 C 94 % 1010,5 hPa 0,0 mm 0,5 km/h (0 Bft) O-NO 60 0 min 0,000 mm 0,0 UV-I 21 W/m 17,0 C 1,6 km/h (1 Bft)
11.07.2016 18:16 18,1 C 18,1 C 94 % 1010,6 hPa 0,0 mm 0,3 km/h (0 Bft) O-NO 60 0 min 0,000 mm 0,0 UV-I 19 W/m 17,1 C 1,6 km/h (1 Bft)
11.07.2016 18:17 18,1 C 18,1 C 94 % 1010,7 hPa 0,0 mm 2,3 km/h (1 Bft) O-NO 69 0 min 0,000 mm 0,0 UV-I 19 W/m 17,1 C 3,2 km/h (1 Bft)
11.07.2016 18:18 18,2 C 18,2 C 94 % 1010,8 hPa 0,0 mm 2,7 km/h (1 Bft) SW 230 0 min 0,000 mm 0,0 UV-I 19 W/m 17,2 C 3,2 km/h (1 Bft)
11.07.2016 18:19 18,2 C 18,2 C 94 % 1010,7 hPa 0,0 mm 1,4 km/h (1 Bft) SW 230 0 min 0,000 mm 0,0 UV-I 19 W/m 17,2 C 1,6 km/h (1 Bft)
11.07.2016 18:20 18,2 C 18,2 C 94 % 1010,8 hPa 0,0 mm 0,3 km/h (0 Bft) SW 230 0 min 0,000 mm 0,0 UV-I 19 W/m 17,2 C 1,6 km/h (1 Bft)
11.07.2016 18:21 18,1 C 18,2 C 93 % 1010,8 hPa 0,0 mm 0,1 km/h (0 Bft) SW 230 0 min 0,000 mm 0,0 UV-I 19 W/m 16,9 C 1,6 km/h (1 Bft)
11.07.2016 18:22 18,1 C 18,2 C 93 % 1010,8 hPa 0,0 mm 0,6 km/h (0 Bft) SW 230 0 min 0,000 mm 0,0 UV-I 18 W/m 16,9 C 1,6 km/h (1 Bft)
11.07.2016 18:23 18,1 C 18,2 C 94 % 1010,8 hPa 0,0 mm 0,7 km/h (0 Bft) SW 230 0 min 0,000 mm 0,0 UV-I 16 W/m 17,1 C 1,6 km/h (1 Bft)
11.07.2016 18:24 18,1 C 18,2 C 94 % 1010,9 hPa 0,0 mm 2,7 km/h (1 Bft) W-SW 246 0 min 0,000 mm 0,0 UV-I 16 W/m 17,1 C 4,8 km/h (1 Bft)
11.07.2016 18:25 18,2 C 18,2 C 94 % 1010,9 hPa 0,0 mm 2,8 km/h (1 Bft) W 281 0 min 0,000 mm 0,0 UV-I 14 W/m 17,2 C 4,8 km/h (1 Bft)
11.07.2016 18:26 18,2 C 18,2 C 94 % 1010,9 hPa 0,0 mm 1,9 km/h (1 Bft) NW 323 0 min 0,000 mm 0,0 UV-I 12 W/m 17,2 C 3,2 km/h (1 Bft)
11.07.2016 18:27 18,2 C 18,2 C 94 % 1010,9 hPa 0,0 mm 1,2 km/h (1 Bft) NW 323 0 min 0,000 mm 0,0 UV-I 12 W/m 17,2 C 3,2 km/h (1 Bft)
11.07.2016 18:28 18,2 C 18,2 C 94 % 1010,9 hPa 0,0 mm 2,7 km/h (1 Bft) O 79 0 min 0,000 mm 0,0 UV-I 12 W/m 17,2 C 4,8 km/h (1 Bft)
11.07.2016 18:29 18,1 C 18,2 C 94 % 1010,9 hPa 0,0 mm 1,5 km/h (1 Bft) SO 140 0 min 0,000 mm 0,0 UV-I 14 W/m 17,1 C 3,2 km/h (1 Bft)
11.07.2016 18:30 18,1 C 18,1 C 94 % 1010,9 hPa 0,0 mm 0,8 km/h (0 Bft) SO 140 0 min 0,000 mm 0,0 UV-I 16 W/m 17,1 C 1,6 km/h (1 Bft)
11.07.2016 18:31 18,1 C 18,1 C 94 % 1011,0 hPa 0,0 mm 0,0 km/h (0 Bft) SO 140 0 min 0,000 mm 0,0 UV-I 18 W/m 17,1 C 0,0 km/h (0 Bft)
11.07.2016 18:32 18,1 C 18,1 C 94 % 1011,0 hPa 0,0 mm 1,2 km/h (1 Bft) SO 140 0 min 0,000 mm 0,0 UV-I 16 W/m 17,1 C 3,2 km/h (1 Bft)
11.07.2016 18:33 18,1 C 18,1 C 94 % 1011,1 hPa 0,0 mm 2,0 km/h (1 Bft) SO 130 0 min 0,000 mm 0,0 UV-I 16 W/m 17,1 C 4,8 km/h (1 Bft)
11.07.2016 18:34 18,1 C 18,1 C 94 % 1011,0 hPa 0,2 mm 4,8 km/h (1 Bft) O-NO 73 0 min 0,000 mm 0,0 UV-I 16 W/m 17,1 C 8,0 km/h (2 Bft)
11.07.2016 18:35 18,1 C 18,1 C 94 % 1011,0 hPa 0,0 mm 5,8 km/h (2 Bft) S-SO 150 0 min 0,000 mm 0,0 UV-I 14 W/m 17,1 C 11,3 km/h (2 Bft)
11.07.2016 18:36 18,0 C 18,1 C 94 % 1011,0 hPa 0,0 mm 3,4 km/h (1 Bft) O 88 0 min 0,000 mm 0,0 UV-I 14 W/m 17,0 C 4,8 km/h (1 Bft)
11.07.2016 18:37 18,0 C 18,1 C 94 % 1011,0 hPa 0,0 mm 2,4 km/h (1 Bft) O 84 0 min 0,000 mm 0,0 UV-I 12 W/m 17,0 C 4,8 km/h (1 Bft)
11.07.2016 18:38 18,0 C 18,0 C 94 % 1011,0 hPa 0,2 mm 3,0 km/h (1 Bft) S-SO 149 0 min 0,000 mm 0,0 UV-I 12 W/m 17,0 C 4,8 km/h (1 Bft)
11.07.2016 18:39 17,9 C 18,0 C 94 % 1011,0 hPa 0,0 mm 3,0 km/h (1 Bft) O-NO 57 0 min 0,000 mm 0,0 UV-I 12 W/m 16,9 C 4,8 km/h (1 Bft)
11.07.2016 18:40 17,9 C 18,0 C 94 % 1010,9 hPa 0,0 mm 2,9 km/h (1 Bft) SO 130 0 min 0,000 mm 0,0 UV-I 12 W/m 16,9 C 4,8 km/h (1 Bft)
11.07.2016 18:41 18,0 C 18,0 C 95 % 1010,9 hPa 0,0 mm 3,4 km/h (1 Bft) SO 128 0 min 0,000 mm 0,0 UV-I 12 W/m 17,2 C 4,8 km/h (1 Bft)
11.07.2016 18:42 18,0 C 18,0 C 95 % 1010,9 hPa 0,0 mm 1,0 km/h (0 Bft) SO 128 0 min 0,000 mm 0,0 UV-I 14 W/m 17,2 C 1,6 km/h (1 Bft)
11.07.2016 18:43 17,9 C 18,0 C 95 % 1010,9 hPa 0,0 mm 1,2 km/h (1 Bft) SO 128 0 min 0,000 mm 0,0 UV-I 14 W/m 17,1 C 1,6 km/h (1 Bft)
11.07.2016 18:44 18,0 C 18,0 C 95 % 1010,9 hPa 0,0 mm 3,3 km/h (1 Bft) W 266 0 min 0,000 mm 0,0 UV-I 14 W/m 17,2 C 4,8 km/h (1 Bft)
11.07.2016 18:45 18,1 C 18,1 C 95 % 1011,0 hPa 0,0 mm 3,2 km/h (1 Bft) SW 235 0 min 0,000 mm 0,0 UV-I 16 W/m 17,3 C 4,8 km/h (1 Bft)
11.07.2016 18:46 18,1 C 18,1 C 95 % 1011,0 hPa 0,0 mm 2,6 km/h (1 Bft) W-SW 255 0 min 0,000 mm 0,0 UV-I 16 W/m 17,3 C 4,8 km/h (1 Bft)
11.07.2016 18:47 18,2 C 18,2 C 95 % 1011,0 hPa 0,0 mm 1,7 km/h (1 Bft) W-SW 255 0 min 0,000 mm 0,0 UV-I 14 W/m 17,4 C 4,8 km/h (1 Bft)
11.07.2016 18:48 18,3 C 18,3 C 94 % 1010,9 hPa 0,0 mm 0,3 km/h (0 Bft) W 262 0 min 0,000 mm 0,0 UV-I 14 W/m 17,3 C 1,6 km/h (1 Bft)
11.07.2016 18:49 18,3 C 18,3 C 94 % 1011,0 hPa 0,0 mm 0,7 km/h (0 Bft) W 262 0 min 0,000 mm 0,0 UV-I 14 W/m 17,3 C 1,6 km/h (1 Bft)
11.07.2016 18:50 18,3 C 18,3 C 94 % 1011,0 hPa 0,0 mm 2,5 km/h (1 Bft) W-SW 252 0 min 0,000 mm 0,0 UV-I 12 W/m 17,3 C 3,2 km/h (1 Bft)
11.07.2016 18:51 18,3 C 18,3 C 94 % 1011,0 hPa 0,0 mm 3,0 km/h (1 Bft) W-SW 248 0 min 0,000 mm 0,0 UV-I 12 W/m 17,3 C 4,8 km/h (1 Bft)
11.07.2016 18:52 18,3 C 18,3 C 94 % 1011,0 hPa 0,2 mm 3,3 km/h (1 Bft) SW 236 0 min 0,000 mm 0,0 UV-I 12 W/m 17,3 C 4,8 km/h (1 Bft)
11.07.2016 18:53 18,3 C 18,3 C 95 % 1011,1 hPa 0,0 mm 2,2 km/h (1 Bft) SW 222 0 min 0,000 mm 0,0 UV-I 12 W/m 17,5 C 3,2 km/h (1 Bft)
11.07.2016 18:54 18,3 C 18,3 C 94 % 1011,0 hPa 0,0 mm 3,3 km/h (1 Bft) S 190 0 min 0,000 mm 0,0 UV-I 12 W/m 17,3 C 4,8 km/h (1 Bft)
11.07.2016 18:55 18,3 C 18,3 C 94 % 1011,0 hPa 0,0 mm 2,1 km/h (1 Bft) S 190 0 min 0,000 mm 0,0 UV-I 12 W/m 17,3 C 3,2 km/h (1 Bft)
11.07.2016 18:56 18,3 C 18,4 C 94 % 1011,0 hPa 0,0 mm 0,5 km/h (0 Bft) S 190 0 min 0,000 mm 0,0 UV-I 12 W/m 17,3 C 1,6 km/h (1 Bft)
11.07.2016 18:57 18,4 C 18,4 C 93 % 1011,0 hPa 0,0 mm 1,0 km/h (0 Bft) S 190 0 min 0,000 mm 0,0 UV-I 12 W/m 17,2 C 1,6 km/h (1 Bft)
11.07.2016 18:58 18,4 C 18,4 C 94 % 1011,1 hPa 0,0 mm 1,5 km/h (1 Bft) S 190 0 min 0,000 mm 0,0 UV-I 12 W/m 17,4 C 1,6 km/h (1 Bft)
11.07.2016 18:59 18,4 C 18,4 C 94 % 1011,1 hPa 0,0 mm 2,1 km/h (1 Bft) SW 233 0 min 0,000 mm 0,0 UV-I 12 W/m 17,4 C 3,2 km/h (1 Bft)
11.07.2016 19:00 18,4 C 18,4 C 94 % 1011,2 hPa 0,0 mm 2,5 km/h (1 Bft) W-SW 237 0 min 0,000 mm 0,0 UV-I 12 W/m 17,4 C 3,2 km/h (1 Bft)
11.07.2016 19:01 18,4 C 18,4 C 94 % 1011,1 hPa 0,0 mm 0,7 km/h (0 Bft) W-SW 237 0 min 0,000 mm 0,0 UV-I 12 W/m 17,4 C 3,2 km/h (1 Bft)
11.07.2016 19:02 18,4 C 18,4 C 94 % 1011,1 hPa 0,0 mm 1,3 km/h (1 Bft) W-SW 237 0 min 0,000 mm 0,0 UV-I 12 W/m 17,4 C 3,2 km/h (1 Bft)
11.07.2016 19:03 18,4 C 18,4 C 94 % 1011,1 hPa 0,0 mm 0,6 km/h (0 Bft) SW 229 0 min 0,000 mm 0,0 UV-I 12 W/m 17,4 C 1,6 km/h (1 Bft)
11.07.2016 19:04 18,4 C 18,4 C 95 % 1011,1 hPa 0,0 mm 2,1 km/h (1 Bft) W-SW 258 0 min 0,000 mm 0,0 UV-I 14 W/m 17,6 C 3,2 km/h (1 Bft)
11.07.2016 19:05 18,4 C 18,4 C 95 % 1011,1 hPa 0,0 mm 1,9 km/h (1 Bft) N-NW 331 0 min 0,000 mm 0,0 UV-I 14 W/m 17,6 C 3,2 km/h (1 Bft)
11.07.2016 19:06 18,4 C 18,4 C 95 % 1011,0 hPa 0,0 mm 3,8 km/h (1 Bft) O-NO 58 0 min 0,000 mm 0,0 UV-I 16 W/m 17,6 C 4,8 km/h (1 Bft)
11.07.2016 19:07 18,4 C 18,4 C 95 % 1011,0 hPa 0,2 mm 2,0 km/h (1 Bft) O-NO 61 0 min 0,000 mm 0,0 UV-I 16 W/m 17,6 C 4,8 km/h (1 Bft)
11.07.2016 19:08 18,4 C 18,4 C 95 % 1011,0 hPa 0,0 mm 0,5 km/h (0 Bft) O-NO 61 0 min 0,000 mm 0,0 UV-I 19 W/m 17,6 C 1,6 km/h (1 Bft)
11.07.2016 19:09 18,4 C 18,4 C 95 % 1011,0 hPa 0,0 mm 0,3 km/h (0 Bft) O-NO 61 0 min 0,000 mm 0,0 UV-I 21 W/m 17,6 C 1,6 km/h (1 Bft)
11.07.2016 19:10 18,4 C 18,4 C 95 % 1010,9 hPa 0,0 mm 1,4 km/h (1 Bft) O-NO 74 0 min 0,000 mm 0,0 UV-I 23 W/m 17,6 C 3,2 km/h (1 Bft)
11.07.2016 19:11 18,4 C 18,4 C 95 % 1010,9 hPa 0,0 mm 0,5 km/h (0 Bft) O-NO 74 0 min 0,000 mm 0,0 UV-I 25 W/m 17,6 C 1,6 km/h (1 Bft)
11.07.2016 19:12 18,4 C 18,4 C 95 % 1010,9 hPa 0,2 mm 0,1 km/h (0 Bft) O-NO 74 0 min 0,000 mm 0,0 UV-I 26 W/m 17,6 C 1,6 km/h (1 Bft)
11.07.2016 19:13 18,5 C 18,5 C 95 % 1011,0 hPa 0,0 mm 0,1 km/h (0 Bft) O-NO 74 0 min 0,000 mm 0,0 UV-I 28 W/m 17,7 C 1,6 km/h (1 Bft)
11.07.2016 19:14 18,6 C 18,6 C 95 % 1010,9 hPa 0,0 mm 1,1 km/h (1 Bft) O-NO 74 0 min 0,000 mm 0,0 UV-I 33 W/m 17,8 C 1,6 km/h (1 Bft)
11.07.2016 19:15 18,6 C 18,6 C 95 % 1011,0 hPa 0,0 mm 0,8 km/h (0 Bft) O-NO 74 0 min 0,000 mm 0,0 UV-I 33 W/m 17,8 C 1,6 km/h (1 Bft)
11.07.2016 19:16 18,6 C 18,6 C 95 % 1011,0 hPa 0,0 mm 0,3 km/h (0 Bft) O-NO 74 0 min 0,000 mm 0,0 UV-I 35 W/m 17,8 C 1,6 km/h (1 Bft)
11.07.2016 19:17 18,7 C 18,7 C 95 % 1011,1 hPa 0,0 mm 0,5 km/h (0 Bft) O-NO 74 0 min 0,000 mm 0,0 UV-I 37 W/m 17,9 C 1,6 km/h (1 Bft)
11.07.2016 19:18 18,7 C 18,7 C 95 % 1011,0 hPa 0,0 mm 1,1 km/h (1 Bft) O-NO 74 0 min 0,000 mm 0,0 UV-I 37 W/m 17,9 C 1,6 km/h (1 Bft)
11.07.2016 19:19 18,7 C 18,7 C 94 % 1011,1 hPa 0,0 mm 1,2 km/h (1 Bft) O-NO 74 0 min 0,000 mm 0,0 UV-I 39 W/m 17,7 C 1,6 km/h (1 Bft)
11.07.2016 19:20 18,7 C 18,8 C 94 % 1011,1 hPa 0,0 mm 1,8 km/h (1 Bft) W 260 0 min 0,000 mm 0,0 UV-I 40 W/m 17,7 C 3,2 km/h (1 Bft)
11.07.2016 19:21 18,7 C 18,8 C 95 % 1011,3 hPa 0,0 mm 3,7 km/h (1 Bft) W 279 0 min 0,000 mm 0,0 UV-I 39 W/m 17,9 C 4,8 km/h (1 Bft)
11.07.2016 19:22 18,8 C 18,8 C 95 % 1011,2 hPa 0,0 mm 3,6 km/h (1 Bft) W-NW 290 0 min 0,000 mm 0,0 UV-I 37 W/m 18,0 C 4,8 km/h (1 Bft)
11.07.2016 19:23 18,8 C 18,8 C 94 % 1011,2 hPa 0,0 mm 2,6 km/h (1 Bft) W-NW 290 0 min 0,000 mm 0,0 UV-I 35 W/m 17,8 C 3,2 km/h (1 Bft)
11.07.2016 19:24 18,8 C 18,8 C 94 % 1011,3 hPa 0,0 mm 2,1 km/h (1 Bft) W-NW 289 0 min 0,000 mm 0,0 UV-I 35 W/m 17,8 C 3,2 km/h (1 Bft)
11.07.2016 19:25 18,8 C 18,8 C 94 % 1011,3 hPa 0,0 mm 1,7 km/h (1 Bft) W-NW 289 0 min 0,000 mm 0,0 UV-I 35 W/m 17,8 C 3,2 km/h (1 Bft)
11.07.2016 19:26 18,8 C 18,8 C 94 % 1011,2 hPa 0,0 mm 1,1 km/h (1 Bft) W-NW 289 0 min 0,000 mm 0,0 UV-I 39 W/m 17,8 C 1,6 km/h (1 Bft)
11.07.2016 19:27 18,8 C 18,8 C 94 % 1011,2 hPa 0,0 mm 1,5 km/h (1 Bft) W-NW 289 0 min 0,000 mm 0,0 UV-I 40 W/m 17,8 C 1,6 km/h (1 Bft)
11.07.2016 19:28 18,8 C 18,8 C 94 % 1011,2 hPa 0,0 mm 0,3 km/h (0 Bft) W-NW 289 0 min 0,000 mm 0,0 UV-I 42 W/m 17,8 C 1,6 km/h (1 Bft)
11.07.2016 19:29 18,9 C 18,9 C 94 % 1011,2 hPa 0,0 mm 0,6 km/h (0 Bft) N 360 0 min 0,000 mm 0,0 UV-I 44 W/m 17,9 C 3,2 km/h (1 Bft)
11.07.2016 19:30 18,8 C 18,9 C 94 % 1011,1 hPa 0,0 mm 2,1 km/h (1 Bft) N 360 0 min 0,000 mm 0,0 UV-I 44 W/m 17,8 C 3,2 km/h (1 Bft)
11.07.2016 19:31 18,8 C 18,8 C 94 % 1011,2 hPa 0,0 mm 1,2 km/h (1 Bft) N 360 0 min 0,000 mm 0,0 UV-I 46 W/m 17,8 C 3,2 km/h (1 Bft)
11.07.2016 19:32 18,8 C 18,8 C 95 % 1011,1 hPa 0,0 mm 0,1 km/h (0 Bft) N 360 0 min 0,000 mm 0,0 UV-I 46 W/m 18,0 C 1,6 km/h (1 Bft)
11.07.2016 19:33 18,7 C 18,8 C 95 % 1011,1 hPa 0,0 mm 0,0 km/h (0 Bft) N 360 0 min 0,000 mm 0,0 UV-I 44 W/m 17,9 C 0,0 km/h (0 Bft)
11.07.2016 19:34 18,7 C 18,7 C 95 % 1011,1 hPa 0,0 mm 0,3 km/h (0 Bft) N 360 0 min 0,000 mm 0,0 UV-I 44 W/m 17,9 C 1,6 km/h (1 Bft)
11.07.2016 19:35 18,7 C 18,7 C 95 % 1011,1 hPa 0,0 mm 0,9 km/h (0 Bft) N 360 0 min 0,000 mm 0,0 UV-I 42 W/m 17,9 C 1,6 km/h (1 Bft)
11.07.2016 19:36 18,7 C 18,8 C 95 % 1011,1 hPa 0,0 mm 1,9 km/h (1 Bft) W-NW 300 0 min 0,000 mm 0,0 UV-I 40 W/m 17,9 C 3,2 km/h (1 Bft)
11.07.2016 19:37 18,8 C 18,8 C 95 % 1011,1 hPa 0,0 mm 1,3 km/h (1 Bft) W-NW 300 0 min 0,000 mm 0,0 UV-I 39 W/m 18,0 C 1,6 km/h (1 Bft)
11.07.2016 19:38 18,8 C 18,8 C 95 % 1011,1 hPa 0,0 mm 0,9 km/h (0 Bft) S-SW 211 0 min 0,000 mm 0,0 UV-I 35 W/m 18,0 C 3,2 km/h (1 Bft)
11.07.2016 19:39 18,8 C 18,8 C 95 % 1011,2 hPa 0,0 mm 2,7 km/h (1 Bft) S-SW 210 0 min 0,000 mm 0,0 UV-I 33 W/m 18,0 C 4,8 km/h (1 Bft)
11.07.2016 19:40 18,8 C 18,8 C 95 % 1011,2 hPa 0,0 mm 1,2 km/h (1 Bft) S-SW 210 0 min 0,000 mm 0,0 UV-I 32 W/m 18,0 C 1,6 km/h (1 Bft)
11.07.2016 19:41 18,8 C 18,8 C 95 % 1011,3 hPa 0,0 mm 1,9 km/h (1 Bft) S-SW 211 0 min 0,000 mm 0,0 UV-I 30 W/m 18,0 C 3,2 km/h (1 Bft)
11.07.2016 19:42 18,8 C 18,8 C 95 % 1011,3 hPa 0,0 mm 1,8 km/h (1 Bft) S-SW 211 0 min 0,000 mm 0,0 UV-I 28 W/m 18,0 C 3,2 km/h (1 Bft)
11.07.2016 19:43 18,8 C 18,8 C 95 % 1011,3 hPa 0,0 mm 1,0 km/h (0 Bft) S-SW 211 0 min 0,000 mm 0,0 UV-I 28 W/m 18,0 C 1,6 km/h (1 Bft)
11.07.2016 19:44 18,8 C 18,8 C 95 % 1011,3 hPa 0,0 mm 1,3 km/h (1 Bft) S-SW 211 0 min 0,000 mm 0,0 UV-I 26 W/m 18,0 C 1,6 km/h (1 Bft)
11.07.2016 19:45 18,8 C 18,8 C 95 % 1011,3 hPa 0,0 mm 1,2 km/h (1 Bft) S-SW 211 0 min 0,000 mm 0,0 UV-I 28 W/m 18,0 C 1,6 km/h (1 Bft)
11.07.2016 19:46 18,8 C 18,8 C 95 % 1011,3 hPa 0,0 mm 1,5 km/h (1 Bft) S-SW 211 0 min 0,000 mm 0,0 UV-I 30 W/m 18,0 C 1,6 km/h (1 Bft)
11.07.2016 19:47 18,8 C 18,8 C 95 % 1011,4 hPa 0,0 mm 2,1 km/h (1 Bft) S-SW 196 0 min 0,000 mm 0,0 UV-I 32 W/m 18,0 C 4,8 km/h (1 Bft)
11.07.2016 19:48 18,8 C 18,8 C 94 % 1011,3 hPa 0,0 mm 2,4 km/h (1 Bft) S 190 0 min 0,000 mm 0,0 UV-I 33 W/m 17,8 C 4,8 km/h (1 Bft)
11.07.2016 19:49 18,8 C 18,8 C 95 % 1011,3 hPa 0,0 mm 1,2 km/h (1 Bft) S 190 0 min 0,000 mm 0,0 UV-I 37 W/m 18,0 C 1,6 km/h (1 Bft)
11.07.2016 19:50 18,7 C 18,8 C 95 % 1011,3 hPa 0,0 mm 2,0 km/h (1 Bft) O-SO 113 0 min 0,000 mm 0,0 UV-I 40 W/m 17,9 C 3,2 km/h (1 Bft)
11.07.2016 19:51 18,7 C 18,8 C 95 % 1011,2 hPa 0,0 mm 0,5 km/h (0 Bft) O-SO 113 0 min 0,000 mm 0,0 UV-I 44 W/m 17,9 C 1,6 km/h (1 Bft)
11.07.2016 19:52 18,7 C 18,7 C 95 % 1011,3 hPa 0,0 mm 0,1 km/h (0 Bft) O-SO 113 0 min 0,000 mm 0,0 UV-I 44 W/m 17,9 C 1,6 km/h (1 Bft)
11.07.2016 19:53 18,7 C 18,7 C 95 % 1011,3 hPa 0,0 mm 0,7 km/h (0 Bft) O-SO 113 0 min 0,000 mm 0,0 UV-I 42 W/m 17,9 C 1,6 km/h (1 Bft)
11.07.2016 19:54 18,7 C 18,7 C 95 % 1011,4 hPa 0,0 mm 0,5 km/h (0 Bft) O-SO 113 0 min 0,000 mm 0,0 UV-I 44 W/m 17,9 C 1,6 km/h (1 Bft)
11.07.2016 19:55 18,7 C 18,7 C 95 % 1011,3 hPa 0,0 mm 2,6 km/h (1 Bft) SW 217 0 min 0,000 mm 0,0 UV-I 42 W/m 17,9 C 4,8 km/h (1 Bft)
11.07.2016 19:56 18,7 C 18,7 C 95 % 1011,3 hPa 0,0 mm 1,0 km/h (0 Bft) W-SW 240 0 min 0,000 mm 0,0 UV-I 42 W/m 17,9 C 1,6 km/h (1 Bft)
11.07.2016 19:57 18,8 C 18,8 C 95 % 1011,3 hPa 0,0 mm 1,0 km/h (0 Bft) W-SW 242 0 min 0,000 mm 0,0 UV-I 40 W/m 18,0 C 1,6 km/h (1 Bft)
11.07.2016 19:58 18,8 C 18,8 C 95 % 1011,3 hPa 0,2 mm 1,4 km/h (1 Bft) W-SW 246 0 min 0,000 mm 0,0 UV-I 39 W/m 18,0 C 3,2 km/h (1 Bft)
11.07.2016 19:59 18,8 C 18,8 C 95 % 1011,3 hPa 0,0 mm 1,2 km/h (1 Bft) W-SW 246 0 min 0,000 mm 0,0 UV-I 37 W/m 18,0 C 3,2 km/h (1 Bft)
11.07.2016 20:00 18,8 C 18,8 C 95 % 1011,3 hPa 0,0 mm 0,6 km/h (0 Bft) W-SW 246 0 min 0,000 mm 0,0 UV-I 35 W/m 18,0 C 1,6 km/h (1 Bft)
11.07.2016 20:01 18,8 C 18,8 C 95 % 1011,3 hPa 0,0 mm 0,3 km/h (0 Bft) W-SW 246 0 min 0,025 mm 0,0 UV-I 32 W/m 18,0 C 1,6 km/h (1 Bft)
11.07.2016 20:02 18,8 C 18,8 C 95 % 1011,3 hPa 0,0 mm 0,3 km/h (0 Bft) W-SW 246 0 min 0,001 mm 0,0 UV-I 30 W/m 18,0 C 1,6 km/h (1 Bft)
11.07.2016 20:03 18,8 C 18,8 C 95 % 1011,4 hPa 0,0 mm 0,5 km/h (0 Bft) W-SW 246 0 min 0,000 mm 0,0 UV-I 28 W/m 18,0 C 1,6 km/h (1 Bft)
11.07.2016 20:04 18,8 C 18,8 C 95 % 1011,3 hPa 0,0 mm 1,2 km/h (1 Bft) W-SW 246 0 min 0,000 mm 0,0 UV-I 26 W/m 18,0 C 3,2 km/h (1 Bft)
11.07.2016 20:05 18,8 C 18,8 C 95 % 1011,3 hPa 0,0 mm 0,9 km/h (0 Bft) W-SW 258 0 min 0,000 mm 0,0 UV-I 25 W/m 18,0 C 3,2 km/h (1 Bft)
11.07.2016 20:06 18,8 C 18,8 C 95 % 1011,4 hPa 0,0 mm 3,0 km/h (1 Bft) S-SW 203 0 min 0,000 mm 0,0 UV-I 23 W/m 18,0 C 4,8 km/h (1 Bft)
11.07.2016 20:07 18,8 C 18,8 C 95 % 1011,4 hPa 0,0 mm 2,3 km/h (1 Bft) W 260 0 min 0,000 mm 0,0 UV-I 19 W/m 18,0 C 3,2 km/h (1 Bft)
11.07.2016 20:08 18,8 C 18,8 C 95 % 1011,3 hPa 0,0 mm 2,9 km/h (1 Bft) SW 236 0 min 0,000 mm 0,0 UV-I 18 W/m 18,0 C 4,8 km/h (1 Bft)
11.07.2016 20:09 18,8 C 18,8 C 95 % 1011,3 hPa 0,0 mm 1,5 km/h (1 Bft) SW 236 0 min 0,000 mm 0,0 UV-I 18 W/m 18,0 C 4,8 km/h (1 Bft)
11.07.2016 20:10 18,8 C 18,8 C 94 % 1011,4 hPa 0,0 mm 0,1 km/h (0 Bft) SW 236 0 min 0,000 mm 0,0 UV-I 16 W/m 17,8 C 1,6 km/h (1 Bft)
11.07.2016 20:11 18,7 C 18,8 C 95 % 1011,4 hPa 0,0 mm 0,9 km/h (0 Bft) SW 236 0 min 0,000 mm 0,0 UV-I 16 W/m 17,9 C 1,6 km/h (1 Bft)
11.07.2016 20:12 18,7 C 18,8 C 95 % 1011,4 hPa 0,0 mm 0,3 km/h (0 Bft) SW 236 0 min 0,000 mm 0,0 UV-I 16 W/m 17,9 C 1,6 km/h (1 Bft)
11.07.2016 20:13 18,7 C 18,7 C 95 % 1011,4 hPa 0,0 mm 0,1 km/h (0 Bft) SW 236 0 min 0,000 mm 0,0 UV-I 16 W/m 17,9 C 1,6 km/h (1 Bft)
11.07.2016 20:14 18,6 C 18,7 C 95 % 1011,5 hPa 0,0 mm 0,0 km/h (0 Bft) SW 236 0 min 0,000 mm 0,0 UV-I 18 W/m 17,8 C 0,0 km/h (0 Bft)
11.07.2016 20:15 18,6 C 18,7 C 95 % 1011,4 hPa 0,0 mm 0,9 km/h (0 Bft) SW 236 0 min 0,000 mm 0,0 UV-I 18 W/m 17,8 C 1,6 km/h (1 Bft)
11.07.2016 20:16 18,6 C 18,6 C 95 % 1011,5 hPa 0,0 mm 3,1 km/h (1 Bft) W-SW 249 0 min 0,000 mm 0,0 UV-I 18 W/m 17,8 C 4,8 km/h (1 Bft)
11.07.2016 20:17 18,6 C 18,6 C 95 % 1011,5 hPa 0,0 mm 2,7 km/h (1 Bft) W-SW 257 0 min 0,000 mm 0,0 UV-I 19 W/m 17,8 C 3,2 km/h (1 Bft)
11.07.2016 20:18 18,6 C 18,7 C 95 % 1011,5 hPa 0,0 mm 2,2 km/h (1 Bft) S-SW 207 0 min 0,000 mm 0,0 UV-I 19 W/m 17,8 C 4,8 km/h (1 Bft)
11.07.2016 20:19 18,6 C 18,7 C 95 % 1011,5 hPa 0,0 mm 1,5 km/h (1 Bft) S-SO 158 0 min 0,000 mm 0,0 UV-I 18 W/m 17,8 C 3,2 km/h (1 Bft)
11.07.2016 20:20 18,6 C 18,6 C 95 % 1011,6 hPa 0,0 mm 1,8 km/h (1 Bft) W 271 0 min 0,000 mm 0,0 UV-I 18 W/m 17,8 C 3,2 km/h (1 Bft)
11.07.2016 20:21 18,6 C 18,6 C 95 % 1011,6 hPa 0,0 mm 4,2 km/h (1 Bft) W 273 0 min 0,000 mm 0,0 UV-I 18 W/m 17,8 C 4,8 km/h (1 Bft)
11.07.2016 20:22 18,6 C 18,6 C 95 % 1011,6 hPa 0,0 mm 3,3 km/h (1 Bft) N-NW 336 0 min 0,000 mm 0,0 UV-I 19 W/m 17,8 C 9,7 km/h (2 Bft)
11.07.2016 20:23 18,7 C 18,7 C 95 % 1011,6 hPa 0,0 mm 2,7 km/h (1 Bft) W 264 0 min 0,000 mm 0,0 UV-I 19 W/m 17,9 C 4,8 km/h (1 Bft)
11.07.2016 20:24 18,6 C 18,7 C 95 % 1011,6 hPa 0,0 mm 4,8 km/h (1 Bft) W 277 0 min 0,000 mm 0,0 UV-I 21 W/m 17,8 C 6,4 km/h (2 Bft)
11.07.2016 20:25 18,7 C 18,7 C 95 % 1011,6 hPa 0,0 mm 3,7 km/h (1 Bft) W-SW 245 0 min 0,000 mm 0,0 UV-I 23 W/m 17,9 C 6,4 km/h (2 Bft)
11.07.2016 20:26 18,7 C 18,7 C 95 % 1011,6 hPa 0,0 mm 3,4 km/h (1 Bft) O 86 0 min 0,000 mm 0,0 UV-I 25 W/m 17,9 C 6,4 km/h (2 Bft)
11.07.2016 20:27 18,7 C 18,7 C 95 % 1011,6 hPa 0,0 mm 3,2 km/h (1 Bft) O-SO 111 0 min 0,000 mm 0,0 UV-I 26 W/m 17,9 C 6,4 km/h (2 Bft)
11.07.2016 20:28 18,6 C 18,7 C 95 % 1011,6 hPa 0,0 mm 2,4 km/h (1 Bft) SO 140 0 min 0,000 mm 0,0 UV-I 28 W/m 17,8 C 4,8 km/h (1 Bft)
11.07.2016 20:29 18,6 C 18,6 C 95 % 1011,6 hPa 0,0 mm 1,3 km/h (1 Bft) SO 140 0 min 0,000 mm 0,0 UV-I 28 W/m 17,8 C 3,2 km/h (1 Bft)
11.07.2016 20:30 18,6 C 18,6 C 95 % 1011,6 hPa 0,0 mm 4,7 km/h (1 Bft) W 279 0 min 0,000 mm 0,0 UV-I 30 W/m 17,8 C 9,7 km/h (2 Bft)
11.07.2016 20:31 18,7 C 18,7 C 95 % 1011,8 hPa 0,0 mm 6,5 km/h (2 Bft) W 260 0 min 0,000 mm 0,0 UV-I 28 W/m 17,9 C 9,7 km/h (2 Bft)
11.07.2016 20:32 18,7 C 18,7 C 95 % 1011,7 hPa 0,0 mm 3,5 km/h (1 Bft) W 261 0 min 0,000 mm 0,0 UV-I 28 W/m 17,9 C 6,4 km/h (2 Bft)
11.07.2016 20:33 18,7 C 18,7 C 94 % 1011,8 hPa 0,0 mm 4,2 km/h (1 Bft) SO 131 0 min 0,000 mm 0,0 UV-I 26 W/m 17,7 C 6,4 km/h (2 Bft)
11.07.2016 20:34 18,7 C 18,7 C 95 % 1011,8 hPa 0,0 mm 1,2 km/h (1 Bft) SO 131 0 min 0,000 mm 0,0 UV-I 26 W/m 17,9 C 3,2 km/h (1 Bft)
11.07.2016 20:35 18,7 C 18,7 C 95 % 1011,9 hPa 0,0 mm 6,5 km/h (2 Bft) SW 228 0 min 0,000 mm 0,0 UV-I 25 W/m 17,9 C 11,3 km/h (2 Bft)
11.07.2016 20:36 18,7 C 18,7 C 94 % 1011,9 hPa 0,0 mm 4,7 km/h (1 Bft) S-SO 163 0 min 0,000 mm 0,0 UV-I 21 W/m 17,7 C 8,0 km/h (2 Bft)
11.07.2016 20:37 18,7 C 18,7 C 94 % 1011,9 hPa 0,0 mm 4,8 km/h (1 Bft) S-SO 147 0 min 0,000 mm 0,0 UV-I 19 W/m 17,7 C 6,4 km/h (2 Bft)
11.07.2016 20:38 18,7 C 18,7 C 94 % 1011,9 hPa 0,0 mm 1,9 km/h (1 Bft) SO 145 0 min 0,000 mm 0,0 UV-I 19 W/m 17,7 C 3,2 km/h (1 Bft)
11.07.2016 20:39 18,6 C 18,7 C 94 % 1011,9 hPa 0,0 mm 3,0 km/h (1 Bft) SO 128 0 min 0,000 mm 0,0 UV-I 18 W/m 17,6 C 6,4 km/h (2 Bft)
11.07.2016 20:40 18,6 C 18,6 C 95 % 1011,9 hPa 0,0 mm 2,1 km/h (1 Bft) SO 126 0 min 0,000 mm 0,0 UV-I 16 W/m 17,8 C 3,2 km/h (1 Bft)
11.07.2016 20:41 18,5 C 18,6 C 95 % 1011,9 hPa 0,0 mm 0,1 km/h (0 Bft) SO 126 0 min 0,000 mm 0,0 UV-I 16 W/m 17,7 C 1,6 km/h (1 Bft)
11.07.2016 20:42 18,5 C 18,5 C 95 % 1011,9 hPa 0,0 mm 2,0 km/h (1 Bft) S-SW 194 0 min 0,000 mm 0,0 UV-I 12 W/m 17,7 C 3,2 km/h (1 Bft)
11.07.2016 20:43 18,5 C 18,5 C 94 % 1011,9 hPa 0,0 mm 3,4 km/h (1 Bft) SO 135 0 min 0,000 mm 0,0 UV-I 12 W/m 17,5 C 6,4 km/h (2 Bft)
11.07.2016 20:44 18,5 C 18,6 C 95 % 1011,8 hPa 0,0 mm 2,9 km/h (1 Bft) SO 126 0 min 0,000 mm 0,0 UV-I 11 W/m 17,7 C 4,8 km/h (1 Bft)
11.07.2016 20:45 18,4 C 18,5 C 95 % 1011,8 hPa 0,0 mm 4,1 km/h (1 Bft) SO 126 0 min 0,000 mm 0,0 UV-I 11 W/m 17,6 C 4,8 km/h (1 Bft)
11.07.2016 20:46 18,4 C 18,5 C 95 % 1011,8 hPa 0,0 mm 2,6 km/h (1 Bft) SO 126 0 min 0,000 mm 0,0 UV-I 11 W/m 17,6 C 3,2 km/h (1 Bft)
11.07.2016 20:47 18,4 C 18,4 C 95 % 1011,8 hPa 0,0 mm 2,6 km/h (1 Bft) SO 126 0 min 0,000 mm 0,0 UV-I 9 W/m 17,6 C 3,2 km/h (1 Bft)
11.07.2016 20:48 18,4 C 18,4 C 95 % 1011,8 hPa 0,0 mm 2,0 km/h (1 Bft) SO 126 0 min 0,000 mm 0,0 UV-I 9 W/m 17,6 C 3,2 km/h (1 Bft)
11.07.2016 20:49 18,4 C 18,4 C 95 % 1011,8 hPa 0,0 mm 4,2 km/h (1 Bft) SO 136 0 min 0,000 mm 0,0 UV-I 7 W/m 17,6 C 4,8 km/h (1 Bft)
11.07.2016 20:50 18,3 C 18,4 C 95 % 1011,8 hPa 0,0 mm 3,8 km/h (1 Bft) SO 128 0 min 0,000 mm 0,0 UV-I 7 W/m 17,5 C 4,8 km/h (1 Bft)
11.07.2016 20:51 18,3 C 18,3 C 95 % 1011,8 hPa 0,0 mm 4,7 km/h (1 Bft) S-SO 151 0 min 0,000 mm 0,0 UV-I 7 W/m 17,5 C 6,4 km/h (2 Bft)
11.07.2016 20:52 18,3 C 18,3 C 96 % 1011,9 hPa 0,0 mm 4,2 km/h (1 Bft) S-SO 155 0 min 0,000 mm 0,0 UV-I 5 W/m 17,6 C 6,4 km/h (2 Bft)
11.07.2016 20:53 18,3 C 18,3 C 96 % 1011,8 hPa 0,0 mm 2,3 km/h (1 Bft) S-SO 155 0 min 0,000 mm 0,0 UV-I 5 W/m 17,6 C 3,2 km/h (1 Bft)
11.07.2016 20:54 18,2 C 18,3 C 96 % 1011,8 hPa 0,0 mm 2,1 km/h (1 Bft) SO 131 0 min 0,000 mm 0,0 UV-I 5 W/m 17,6 C 3,2 km/h (1 Bft)
11.07.2016 20:55 18,3 C 18,3 C 96 % 1011,8 hPa 0,0 mm 1,5 km/h (1 Bft) SO 131 0 min 0,000 mm 0,0 UV-I 5 W/m 17,6 C 3,2 km/h (1 Bft)
11.07.2016 20:56 18,3 C 18,3 C 96 % 1011,9 hPa 0,0 mm 1,8 km/h (1 Bft) SO 131 0 min 0,000 mm 0,0 UV-I 0 W/m 17,6 C 3,2 km/h (1 Bft)
11.07.2016 20:57 18,2 C 18,3 C 96 % 1011,9 hPa 0,0 mm 2,2 km/h (1 Bft) SO 131 0 min 0,000 mm 0,0 UV-I 0 W/m 17,6 C 3,2 km/h (1 Bft)
11.07.2016 20:58 18,2 C 18,2 C 96 % 1011,9 hPa 0,0 mm 1,9 km/h (1 Bft) S-SO 164 0 min 0,000 mm 0,0 UV-I 0 W/m 17,6 C 3,2 km/h (1 Bft)
11.07.2016 20:59 18,2 C 18,2 C 96 % 1011,9 hPa 0,0 mm 2,3 km/h (1 Bft) SO 131 0 min 0,000 mm 0,0 UV-I 0 W/m 17,6 C 3,2 km/h (1 Bft)
11.07.2016 21:00 18,2 C 18,2 C 96 % 1011,9 hPa 0,0 mm 1,5 km/h (1 Bft) SO 131 0 min 0,000 mm 0,0 UV-I 0 W/m 17,6 C 1,6 km/h (1 Bft)
11.07.2016 21:01 18,2 C 18,2 C 96 % 1011,9 hPa 0,0 mm 0,3 km/h (0 Bft) SO 131 0 min 0,000 mm 0,0 UV-I 0 W/m 17,6 C 1,6 km/h (1 Bft)
11.07.2016 21:02 18,2 C 18,2 C 96 % 1012,0 hPa 0,0 mm 0,6 km/h (0 Bft) SO 131 0 min 0,000 mm 0,0 UV-I 0 W/m 17,6 C 1,6 km/h (1 Bft)
11.07.2016 21:03 18,2 C 18,2 C 96 % 1011,9 hPa 0,0 mm 0,3 km/h (0 Bft) SO 131 0 min 0,000 mm 0,0 UV-I 0 W/m 17,6 C 1,6 km/h (1 Bft)
11.07.2016 21:04 18,2 C 18,2 C 96 % 1011,9 hPa 0,0 mm 1,4 km/h (1 Bft) SO 131 0 min 0,000 mm 0,0 UV-I 0 W/m 17,6 C 3,2 km/h (1 Bft)
11.07.2016 21:05 18,2 C 18,2 C 96 % 1011,9 hPa 0,0 mm 0,0 km/h (0 Bft) SO 131 0 min 0,000 mm 0,0 UV-I 0 W/m 17,6 C 0,0 km/h (0 Bft)
11.07.2016 21:06 18,1 C 18,2 C 96 % 1012,0 hPa 0,0 mm 0,0 km/h (0 Bft) SO 131 0 min 0,000 mm 0,0 UV-I 0 W/m 17,5 C 0,0 km/h (0 Bft)
11.07.2016 21:07 18,1 C 18,1 C 96 % 1012,0 hPa 0,0 mm 0,7 km/h (0 Bft) SO 131 0 min 0,000 mm 0,0 UV-I 0 W/m 17,5 C 1,6 km/h (1 Bft)
11.07.2016 21:08 18,1 C 18,1 C 96 % 1012,0 hPa 0,0 mm 1,5 km/h (1 Bft) SO 131 0 min 0,000 mm 0,0 UV-I 0 W/m 17,5 C 3,2 km/h (1 Bft)
11.07.2016 21:09 18,1 C 18,1 C 96 % 1012,0 hPa 0,0 mm 1,7 km/h (1 Bft) SO 131 0 min 0,000 mm 0,0 UV-I 0 W/m 17,5 C 3,2 km/h (1 Bft)
11.07.2016 21:10 18,1 C 18,1 C 96 % 1012,1 hPa 0,0 mm 0,8 km/h (0 Bft) SO 131 0 min 0,000 mm 0,0 UV-I 0 W/m 17,5 C 1,6 km/h (1 Bft)
11.07.2016 21:11 18,1 C 18,1 C 96 % 1012,1 hPa 0,0 mm 0,7 km/h (0 Bft) SO 131 0 min 0,000 mm 0,0 UV-I 0 W/m 17,5 C 1,6 km/h (1 Bft)
11.07.2016 21:12 18,1 C 18,1 C 96 % 1012,1 hPa 0,0 mm 0,1 km/h (0 Bft) SO 131 0 min 0,000 mm 0,0 UV-I 0 W/m 17,5 C 1,6 km/h (1 Bft)
11.07.2016 21:13 18,1 C 18,1 C 96 % 1012,1 hPa 0,0 mm 2,7 km/h (1 Bft) W 270 0 min 0,000 mm 0,0 UV-I 0 W/m 17,5 C 4,8 km/h (1 Bft)
11.07.2016 21:14 18,1 C 18,1 C 96 % 1012,2 hPa 0,0 mm 3,4 km/h (1 Bft) W-NW 288 0 min 0,000 mm 0,0 UV-I 0 W/m 17,5 C 4,8 km/h (1 Bft)
11.07.2016 21:15 18,2 C 18,2 C 96 % 1012,1 hPa 0,0 mm 3,9 km/h (1 Bft) W 275 0 min 0,000 mm 0,0 UV-I 0 W/m 17,6 C 6,4 km/h (2 Bft)
11.07.2016 21:16 18,2 C 18,2 C 96 % 1012,2 hPa 0,0 mm 5,3 km/h (1 Bft) W 279 0 min 0,000 mm 0,0 UV-I 0 W/m 17,6 C 6,4 km/h (2 Bft)
11.07.2016 21:17 18,2 C 18,2 C 96 % 1012,2 hPa 0,0 mm 2,2 km/h (1 Bft) S-SO 160 0 min 0,000 mm 0,0 UV-I 0 W/m 17,6 C 4,8 km/h (1 Bft)
11.07.2016 21:18 18,2 C 18,3 C 96 % 1012,2 hPa 0,0 mm 0,1 km/h (0 Bft) S-SO 160 0 min 0,000 mm 0,0 UV-I 0 W/m 17,6 C 1,6 km/h (1 Bft)
11.07.2016 21:19 18,3 C 18,3 C 95 % 1012,2 hPa 0,0 mm 0,5 km/h (0 Bft) S-SO 160 0 min 0,000 mm 0,0 UV-I 0 W/m 17,5 C 1,6 km/h (1 Bft)
11.07.2016 21:20 18,2 C 18,3 C 95 % 1012,2 hPa 0,0 mm 0,5 km/h (0 Bft) S-SO 160 0 min 0,000 mm 0,0 UV-I 0 W/m 17,4 C 1,6 km/h (1 Bft)
11.07.2016 21:21 18,2 C 18,2 C 95 % 1012,2 hPa 0,0 mm 0,7 km/h (0 Bft) S-SO 160 0 min 0,000 mm 0,0 UV-I 0 W/m 17,4 C 1,6 km/h (1 Bft)
11.07.2016 21:22 18,2 C 18,2 C 96 % 1012,2 hPa 0,0 mm 0,0 km/h (0 Bft) S-SO 160 0 min 0,000 mm 0,0 UV-I 0 W/m 17,6 C 0,0 km/h (0 Bft)
11.07.2016 21:23 18,2 C 18,2 C 96 % 1012,3 hPa 0,0 mm 0,0 km/h (0 Bft) S-SO 160 0 min 0,000 mm 0,0 UV-I 0 W/m 17,6 C 0,0 km/h (0 Bft)
11.07.2016 21:24 18,2 C 18,2 C 96 % 1012,3 hPa 0,0 mm 0,0 km/h (0 Bft) S-SO 160 0 min 0,000 mm 0,0 UV-I 0 W/m 17,6 C 0,0 km/h (0 Bft)
11.07.2016 21:25 18,2 C 18,2 C 96 % 1012,3 hPa 0,0 mm 0,1 km/h (0 Bft) S-SO 160 0 min 0,000 mm 0,0 UV-I 0 W/m 17,6 C 1,6 km/h (1 Bft)
11.07.2016 21:26 18,1 C 18,2 C 96 % 1012,3 hPa 0,0 mm 0,3 km/h (0 Bft) S-SO 160 0 min 0,000 mm 0,0 UV-I 0 W/m 17,5 C 1,6 km/h (1 Bft)
11.07.2016 21:27 18,1 C 18,1 C 96 % 1012,3 hPa 0,0 mm 0,5 km/h (0 Bft) S-SO 160 0 min 0,000 mm 0,0 UV-I 0 W/m 17,5 C 1,6 km/h (1 Bft)
11.07.2016 21:28 18,1 C 18,1 C 96 % 1012,4 hPa 0,0 mm 0,3 km/h (0 Bft) S-SO 160 0 min 0,000 mm 0,0 UV-I 0 W/m 17,5 C 1,6 km/h (1 Bft)
11.07.2016 21:29 18,1 C 18,1 C 96 % 1012,3 hPa 0,0 mm 1,2 km/h (1 Bft) S-SO 160 0 min 0,000 mm 0,0 UV-I 0 W/m 17,5 C 1,6 km/h (1 Bft)
11.07.2016 21:30 18,1 C 18,1 C 96 % 1012,3 hPa 0,0 mm 1,2 km/h (1 Bft) W-SW 246 0 min 0,000 mm 0,0 UV-I 0 W/m 17,5 C 3,2 km/h (1 Bft)
11.07.2016 21:31 18,1 C 18,1 C 96 % 1012,4 hPa 0,0 mm 1,6 km/h (1 Bft) S 183 0 min 0,000 mm 0,0 UV-I 0 W/m 17,5 C 3,2 km/h (1 Bft)
11.07.2016 21:32 18,1 C 18,1 C 96 % 1012,4 hPa 0,0 mm 0,9 km/h (0 Bft) S 191 0 min 0,000 mm 0,0 UV-I 0 W/m 17,5 C 1,6 km/h (1 Bft)
11.07.2016 21:33 18,1 C 18,1 C 96 % 1012,4 hPa 0,0 mm 0,4 km/h (0 Bft) S 191 0 min 0,000 mm 0,0 UV-I 0 W/m 17,5 C 1,6 km/h (1 Bft)
11.07.2016 21:34 18,1 C 18,1 C 96 % 1012,5 hPa 0,0 mm 0,1 km/h (0 Bft) S 191 0 min 0,000 mm 0,0 UV-I 0 W/m 17,5 C 1,6 km/h (1 Bft)
11.07.2016 21:35 18,1 C 18,1 C 96 % 1012,5 hPa 0,0 mm 0,1 km/h (0 Bft) S 191 0 min 0,000 mm 0,0 UV-I 0 W/m 17,5 C 1,6 km/h (1 Bft)
11.07.2016 21:36 18,1 C 18,1 C 96 % 1012,5 hPa 0,0 mm 0,9 km/h (0 Bft) S-SW 196 0 min 0,000 mm 0,0 UV-I 0 W/m 17,5 C 1,6 km/h (1 Bft)
11.07.2016 21:37 18,1 C 18,1 C 96 % 1012,5 hPa 0,0 mm 0,1 km/h (0 Bft) S-SW 196 0 min 0,000 mm 0,0 UV-I 0 W/m 17,5 C 1,6 km/h (1 Bft)
11.07.2016 21:38 18,1 C 18,1 C 96 % 1012,5 hPa 0,2 mm 0,0 km/h (0 Bft) S-SW 196 0 min 0,000 mm 0,0 UV-I 0 W/m 17,5 C 0,0 km/h (0 Bft)
11.07.2016 21:39 18,1 C 18,1 C 96 % 1012,5 hPa 0,0 mm 0,0 km/h (0 Bft) S-SW 196 0 min 0,000 mm 0,0 UV-I 0 W/m 17,5 C 0,0 km/h (0 Bft)
11.07.2016 21:40 18,1 C 18,1 C 96 % 1012,5 hPa 0,0 mm 0,1 km/h (0 Bft) S-SW 196 0 min 0,000 mm 0,0 UV-I 0 W/m 17,5 C 1,6 km/h (1 Bft)
11.07.2016 21:41 18,1 C 18,1 C 96 % 1012,5 hPa 0,0 mm 0,6 km/h (0 Bft) S-SW 196 0 min 0,000 mm 0,0 UV-I 0 W/m 17,5 C 1,6 km/h (1 Bft)
11.07.2016 21:42 18,1 C 18,1 C 96 % 1012,4 hPa 0,0 mm 0,0 km/h (0 Bft) S-SW 196 0 min 0,000 mm 0,0 UV-I 0 W/m 17,5 C 0,0 km/h (0 Bft)
11.07.2016 21:43 18,1 C 18,1 C 96 % 1012,4 hPa 0,0 mm 0,1 km/h (0 Bft) S-SW 196 0 min 0,000 mm 0,0 UV-I 0 W/m 17,5 C 1,6 km/h (1 Bft)
11.07.2016 21:44 18,1 C 18,1 C 96 % 1012,4 hPa 0,0 mm 0,0 km/h (0 Bft) S-SW 196 0 min 0,000 mm 0,0 UV-I 0 W/m 17,5 C 0,0 km/h (0 Bft)
11.07.2016 21:45 18,0 C 18,1 C 96 % 1012,4 hPa 0,0 mm 0,0 km/h (0 Bft) S-SW 196 0 min 0,000 mm 0,0 UV-I 0 W/m 17,4 C 0,0 km/h (0 Bft)
11.07.2016 21:46 18,0 C 18,1 C 96 % 1012,4 hPa 0,0 mm 0,1 km/h (0 Bft) S-SW 196 0 min 0,000 mm 0,0 UV-I 0 W/m 17,4 C 1,6 km/h (1 Bft)
11.07.2016 21:47 18,0 C 18,1 C 96 % 1012,5 hPa 0,0 mm 0,6 km/h (0 Bft) S-SW 196 0 min 0,000 mm 0,0 UV-I 0 W/m 17,4 C 1,6 km/h (1 Bft)
11.07.2016 21:48 18,0 C 18,0 C 96 % 1012,4 hPa 0,0 mm 0,0 km/h (0 Bft) S-SW 196 0 min 0,000 mm 0,0 UV-I 0 W/m 17,4 C 0,0 km/h (0 Bft)
11.07.2016 21:49 18,0 C 18,0 C 96 % 1012,4 hPa 0,2 mm 0,0 km/h (0 Bft) S-SW 196 0 min 0,000 mm 0,0 UV-I 0 W/m 17,4 C 0,0 km/h (0 Bft)
11.07.2016 21:50 17,9 C 18,0 C 96 % 1012,4 hPa 0,0 mm 0,2 km/h (0 Bft) S-SW 196 0 min 0,000 mm 0,0 UV-I 0 W/m 17,3 C 1,6 km/h (1 Bft)
11.07.2016 21:51 17,9 C 18,0 C 96 % 1012,4 hPa 0,0 mm 0,0 km/h (0 Bft) S-SW 196 0 min 0,000 mm 0,0 UV-I 0 W/m 17,3 C 0,0 km/h (0 Bft)
11.07.2016 21:52 17,9 C 18,0 C 96 % 1012,4 hPa 0,0 mm 0,9 km/h (0 Bft) S-SW 196 0 min 0,000 mm 0,0 UV-I 0 W/m 17,3 C 1,6 km/h (1 Bft)
11.07.2016 21:53 17,9 C 17,9 C 96 % 1012,4 hPa 0,0 mm 0,8 km/h (0 Bft) S-SW 196 0 min 0,000 mm 0,0 UV-I 0 W/m 17,3 C 1,6 km/h (1 Bft)
11.07.2016 21:54 17,9 C 17,9 C 96 % 1012,3 hPa 0,0 mm 0,3 km/h (0 Bft) S-SW 196 0 min 0,000 mm 0,0 UV-I 0 W/m 17,3 C 1,6 km/h (1 Bft)
11.07.2016 21:55 17,9 C 17,9 C 96 % 1012,4 hPa 0,0 mm 0,2 km/h (0 Bft) S-SW 196 0 min 0,000 mm 0,0 UV-I 0 W/m 17,3 C 1,6 km/h (1 Bft)
11.07.2016 21:56 17,9 C 17,9 C 96 % 1012,3 hPa 0,0 mm 1,2 km/h (1 Bft) S-SW 196 0 min 0,000 mm 0,0 UV-I 0 W/m 17,3 C 1,6 km/h (1 Bft)
11.07.2016 21:57 17,9 C 17,9 C 96 % 1012,3 hPa 0,0 mm 0,1 km/h (0 Bft) S-SW 196 0 min 0,000 mm 0,0 UV-I 0 W/m 17,3 C 1,6 km/h (1 Bft)
11.07.2016 21:58 17,9 C 17,9 C 96 % 1012,3 hPa 0,0 mm 0,0 km/h (0 Bft) S-SW 196 0 min 0,000 mm 0,0 UV-I 0 W/m 17,3 C 0,0 km/h (0 Bft)
11.07.2016 21:59 17,9 C 17,9 C 96 % 1012,3 hPa 0,0 mm 0,1 km/h (0 Bft) S-SW 196 0 min 0,000 mm 0,0 UV-I 0 W/m 17,3 C 1,6 km/h (1 Bft)
11.07.2016 22:00 17,9 C 17,9 C 96 % 1012,3 hPa 0,0 mm 0,7 km/h (0 Bft) S-SW 192 0 min 0,000 mm 0,0 UV-I 0 W/m 17,3 C 3,2 km/h (1 Bft)
11.07.2016 22:01 17,8 C 17,9 C 96 % 1012,3 hPa 0,2 mm 1,2 km/h (1 Bft) S-SW 192 0 min 0,000 mm 0,0 UV-I 0 W/m 17,2 C 1,6 km/h (1 Bft)
11.07.2016 22:02 17,8 C 17,8 C 96 % 1012,3 hPa 0,0 mm 0,3 km/h (0 Bft) S-SW 192 0 min 0,000 mm 0,0 UV-I 0 W/m 17,2 C 1,6 km/h (1 Bft)
11.07.2016 22:03 17,8 C 17,8 C 96 % 1012,2 hPa 0,0 mm 0,3 km/h (0 Bft) S-SW 192 0 min 0,000 mm 0,0 UV-I 0 W/m 17,2 C 1,6 km/h (1 Bft)
11.07.2016 22:04 17,8 C 17,8 C 96 % 1012,2 hPa 0,0 mm 0,0 km/h (0 Bft) S-SW 192 0 min 0,000 mm 0,0 UV-I 0 W/m 17,2 C 0,0 km/h (0 Bft)
11.07.2016 22:05 17,8 C 17,8 C 96 % 1012,3 hPa 0,0 mm 0,0 km/h (0 Bft) S-SW 192 0 min 0,000 mm 0,0 UV-I 0 W/m 17,2 C 0,0 km/h (0 Bft)
11.07.2016 22:06 17,8 C 17,8 C 96 % 1012,2 hPa 0,0 mm 0,0 km/h (0 Bft) S-SW 192 0 min 0,000 mm 0,0 UV-I 0 W/m 17,2 C 0,0 km/h (0 Bft)
11.07.2016 22:07 17,8 C 17,8 C 96 % 1012,2 hPa 0,0 mm 0,0 km/h (0 Bft) S-SW 192 0 min 0,000 mm 0,0 UV-I 0 W/m 17,2 C 0,0 km/h (0 Bft)
11.07.2016 22:08 17,7 C 17,8 C 96 % 1012,2 hPa 0,0 mm 1,4 km/h (1 Bft) SO 135 0 min 0,000 mm 0,0 UV-I 0 W/m 17,1 C 1,6 km/h (1 Bft)
11.07.2016 22:09 17,8 C 17,8 C 96 % 1012,2 hPa 0,0 mm 1,2 km/h (1 Bft) SO 135 0 min 0,000 mm 0,0 UV-I 0 W/m 17,2 C 1,6 km/h (1 Bft)
11.07.2016 22:10 17,7 C 17,8 C 96 % 1012,2 hPa 0,0 mm 0,8 km/h (0 Bft) SO 135 0 min 0,000 mm 0,0 UV-I 0 W/m 17,1 C 1,6 km/h (1 Bft)
11.07.2016 22:11 17,7 C 17,7 C 96 % 1012,1 hPa 0,0 mm 0,9 km/h (0 Bft) SO 135 0 min 0,000 mm 0,0 UV-I 0 W/m 17,1 C 1,6 km/h (1 Bft)
11.07.2016 22:12 17,7 C 17,7 C 96 % 1012,1 hPa 0,0 mm 1,9 km/h (1 Bft) O-SO 121 0 min 0,000 mm 0,0 UV-I 0 W/m 17,1 C 3,2 km/h (1 Bft)
11.07.2016 22:13 17,7 C 17,7 C 96 % 1012,1 hPa 0,0 mm 1,1 km/h (1 Bft) O-SO 121 0 min 0,000 mm 0,0 UV-I 0 W/m 17,1 C 1,6 km/h (1 Bft)
11.07.2016 22:14 17,7 C 17,7 C 96 % 1012,1 hPa 0,0 mm 0,2 km/h (0 Bft) O-SO 121 0 min 0,000 mm 0,0 UV-I 0 W/m 17,1 C 1,6 km/h (1 Bft)
11.07.2016 22:15 17,7 C 17,7 C 96 % 1012,1 hPa 0,0 mm 0,1 km/h (0 Bft) O-SO 121 0 min 0,000 mm 0,0 UV-I 0 W/m 17,1 C 1,6 km/h (1 Bft)
11.07.2016 22:16 17,7 C 17,7 C 96 % 1012,1 hPa 0,0 mm 0,0 km/h (0 Bft) O-SO 120 0 min 0,000 mm 0,0 UV-I 0 W/m 17,1 C 0,0 km/h (0 Bft)
11.07.2016 22:17 17,7 C 17,7 C 96 % 1012,1 hPa 0,0 mm 0,0 km/h (0 Bft) O-SO 121 0 min 0,000 mm 0,0 UV-I 0 W/m 17,1 C 0,0 km/h (0 Bft)
11.07.2016 22:18 17,7 C 17,7 C 96 % 1012,1 hPa 0,0 mm 0,8 km/h (0 Bft) O-SO 121 0 min 0,000 mm 0,0 UV-I 0 W/m 17,1 C 1,6 km/h (1 Bft)
11.07.2016 22:19 17,7 C 17,7 C 96 % 1012,1 hPa 0,0 mm 1,3 km/h (1 Bft) O-SO 121 0 min 0,000 mm 0,0 UV-I 0 W/m 17,1 C 3,2 km/h (1 Bft)
11.07.2016 22:20 17,7 C 17,7 C 97 % 1012,1 hPa 0,0 mm 0,9 km/h (0 Bft) O-SO 121 0 min 0,000 mm 0,0 UV-I 0 W/m 17,2 C 1,6 km/h (1 Bft)
11.07.2016 22:21 17,7 C 17,7 C 97 % 1012,1 hPa 0,0 mm 0,8 km/h (0 Bft) O-SO 121 0 min 0,000 mm 0,0 UV-I 0 W/m 17,2 C 1,6 km/h (1 Bft)
11.07.2016 22:22 17,7 C 17,7 C 97 % 1012,1 hPa 0,0 mm 0,2 km/h (0 Bft) O-SO 121 0 min 0,000 mm 0,0 UV-I 0 W/m 17,2 C 1,6 km/h (1 Bft)
11.07.2016 22:23 17,7 C 17,7 C 97 % 1012,1 hPa 0,2 mm 0,0 km/h (0 Bft) O-SO 112 0 min 0,000 mm 0,0 UV-I 0 W/m 17,2 C 1,6 km/h (1 Bft)
11.07.2016 22:25 17,7 C 17,7 C 97 % 1012,2 hPa 0,0 mm 1,6 km/h (1 Bft) O-SO 105 0 min 0,000 mm 0,0 UV-I 0 W/m 17,2 C 1,6 km/h (1 Bft)
11.07.2016 22:26 17,7 C 17,7 C 97 % 1012,2 hPa 0,0 mm 1,3 km/h (1 Bft) O-SO 105 0 min 0,000 mm 0,0 UV-I 0 W/m 17,2 C 3,2 km/h (1 Bft)
11.07.2016 22:27 17,7 C 17,7 C 97 % 1012,3 hPa 0,0 mm 0,8 km/h (0 Bft) S-SO 160 0 min 0,000 mm 0,0 UV-I 0 W/m 17,2 C 3,2 km/h (1 Bft)
11.07.2016 22:28 17,7 C 17,7 C 97 % 1012,3 hPa 0,0 mm 0,2 km/h (0 Bft) S-SO 158 0 min 0,000 mm 0,0 UV-I 0 W/m 17,2 C 1,6 km/h (1 Bft)
11.07.2016 22:29 17,7 C 17,7 C 97 % 1012,3 hPa 0,0 mm 2,0 km/h (1 Bft) NW 314 0 min 0,000 mm 0,0 UV-I 0 W/m 17,2 C 4,8 km/h (1 Bft)
11.07.2016 22:30 17,7 C 17,7 C 97 % 1012,3 hPa 0,0 mm 1,4 km/h (1 Bft) N 355 0 min 0,000 mm 0,0 UV-I 0 W/m 17,2 C 3,2 km/h (1 Bft)
11.07.2016 22:31 17,7 C 17,7 C 97 % 1012,2 hPa 0,0 mm 0,9 km/h (0 Bft) N 355 0 min 0,000 mm 0,0 UV-I 0 W/m 17,2 C 1,6 km/h (1 Bft)
11.07.2016 22:32 17,7 C 17,7 C 97 % 1012,2 hPa 0,0 mm 0,7 km/h (0 Bft) N-NO 30 0 min 0,000 mm 0,0 UV-I 0 W/m 17,2 C 3,2 km/h (1 Bft)
11.07.2016 22:33 17,7 C 17,7 C 97 % 1012,2 hPa 0,0 mm 2,5 km/h (1 Bft) O-NO 65 0 min 0,000 mm 0,0 UV-I 0 W/m 17,2 C 3,2 km/h (1 Bft)
11.07.2016 22:34 17,7 C 17,7 C 97 % 1012,1 hPa 0,0 mm 2,0 km/h (1 Bft) O-NO 64 0 min 0,000 mm 0,0 UV-I 0 W/m 17,2 C 3,2 km/h (1 Bft)
11.07.2016 22:35 17,7 C 17,7 C 97 % 1012,0 hPa 0,0 mm 1,1 km/h (1 Bft) O-NO 64 0 min 0,000 mm 0,0 UV-I 0 W/m 17,2 C 3,2 km/h (1 Bft)
11.07.2016 22:36 17,7 C 17,7 C 97 % 1012,0 hPa 0,0 mm 0,6 km/h (0 Bft) O-NO 64 0 min 0,000 mm 0,0 UV-I 0 W/m 17,2 C 1,6 km/h (1 Bft)
11.07.2016 22:37 17,7 C 17,7 C 97 % 1012,0 hPa 0,0 mm 0,7 km/h (0 Bft) O-NO 64 0 min 0,000 mm 0,0 UV-I 0 W/m 17,2 C 1,6 km/h (1 Bft)
11.07.2016 22:38 17,7 C 17,7 C 97 % 1012,0 hPa 0,0 mm 1,3 km/h (1 Bft) O-NO 73 0 min 0,000 mm 0,0 UV-I 0 W/m 17,2 C 3,2 km/h (1 Bft)
11.07.2016 22:39 17,7 C 17,7 C 97 % 1012,0 hPa 0,0 mm 0,7 km/h (0 Bft) O-NO 73 0 min 0,000 mm 0,0 UV-I 0 W/m 17,2 C 1,6 km/h (1 Bft)
11.07.2016 22:40 17,6 C 17,7 C 96 % 1011,9 hPa 0,0 mm 0,2 km/h (0 Bft) O-NO 73 0 min 0,000 mm 0,0 UV-I 0 W/m 17,0 C 1,6 km/h (1 Bft)
11.07.2016 22:41 17,6 C 17,6 C 96 % 1011,9 hPa 0,0 mm 0,6 km/h (0 Bft) O-NO 73 0 min 0,000 mm 0,0 UV-I 0 W/m 17,0 C 1,6 km/h (1 Bft)
11.07.2016 22:42 17,6 C 17,6 C 96 % 1012,0 hPa 0,0 mm 0,4 km/h (0 Bft) O-NO 62 0 min 0,000 mm 0,0 UV-I 0 W/m 17,0 C 1,6 km/h (1 Bft)
11.07.2016 22:43 17,7 C 17,7 C 96 % 1011,9 hPa 0,0 mm 0,3 km/h (0 Bft) O-NO 62 0 min 0,000 mm 0,0 UV-I 0 W/m 17,1 C 1,6 km/h (1 Bft)
11.07.2016 22:44 17,6 C 17,7 C 96 % 1011,9 hPa 0,0 mm 0,4 km/h (0 Bft) O-NO 62 0 min 0,000 mm 0,0 UV-I 0 W/m 17,0 C 1,6 km/h (1 Bft)
11.07.2016 22:45 17,6 C 17,6 C 96 % 1011,9 hPa 0,0 mm 0,2 km/h (0 Bft) O-NO 62 0 min 0,000 mm 0,0 UV-I 0 W/m 17,0 C 1,6 km/h (1 Bft)
11.07.2016 22:46 17,6 C 17,6 C 96 % 1011,8 hPa 0,0 mm 0,7 km/h (0 Bft) O-NO 62 0 min 0,000 mm 0,0 UV-I 0 W/m 17,0 C 1,6 km/h (1 Bft)
11.07.2016 22:47 17,6 C 17,6 C 96 % 1011,8 hPa 0,0 mm 1,7 km/h (1 Bft) O-NO 69 0 min 0,000 mm 0,0 UV-I 0 W/m 17,0 C 3,2 km/h (1 Bft)
11.07.2016 22:48 17,6 C 17,6 C 96 % 1011,8 hPa 0,0 mm 1,3 km/h (1 Bft) O-NO 74 0 min 0,000 mm 0,0 UV-I 0 W/m 17,0 C 3,2 km/h (1 Bft)
11.07.2016 22:49 17,6 C 17,6 C 97 % 1011,8 hPa 0,0 mm 1,8 km/h (1 Bft) W-NW 300 0 min 0,000 mm 0,0 UV-I 0 W/m 17,1 C 6,4 km/h (2 Bft)
11.07.2016 22:50 17,6 C 17,6 C 97 % 1011,8 hPa 0,0 mm 1,3 km/h (1 Bft) W-NW 300 0 min 0,000 mm 0,0 UV-I 0 W/m 17,1 C 3,2 km/h (1 Bft)
11.07.2016 22:51 17,6 C 17,6 C 97 % 1011,7 hPa 0,0 mm 1,1 km/h (1 Bft) W-NW 300 0 min 0,000 mm 0,0 UV-I 0 W/m 17,1 C 3,2 km/h (1 Bft)
11.07.2016 22:52 17,6 C 17,6 C 97 % 1011,8 hPa 0,0 mm 0,7 km/h (0 Bft) W-NW 300 0 min 0,000 mm 0,0 UV-I 0 W/m 17,1 C 1,6 km/h (1 Bft)
11.07.2016 22:53 17,6 C 17,6 C 97 % 1011,7 hPa 0,0 mm 0,0 km/h (0 Bft) NW 321 0 min 0,000 mm 0,0 UV-I 0 W/m 17,1 C 0,0 km/h (0 Bft)
11.07.2016 22:54 17,6 C 17,6 C 97 % 1011,7 hPa 0,0 mm 0,0 km/h (0 Bft) N-NW 330 0 min 0,000 mm 0,0 UV-I 0 W/m 17,1 C 0,0 km/h (0 Bft)
11.07.2016 22:55 17,6 C 17,6 C 97 % 1011,8 hPa 0,0 mm 0,0 km/h (0 Bft) N-NW 334 0 min 0,000 mm 0,0 UV-I 0 W/m 17,1 C 0,0 km/h (0 Bft)
11.07.2016 22:56 17,5 C 17,6 C 96 % 1011,7 hPa 0,0 mm 0,0 km/h (0 Bft) N 9 0 min 0,000 mm 0,0 UV-I 0 W/m 16,9 C 0,0 km/h (0 Bft)
11.07.2016 22:57 17,6 C 17,6 C 97 % 1011,7 hPa 0,0 mm 0,0 km/h (0 Bft) N 9 0 min 0,000 mm 0,0 UV-I 0 W/m 17,1 C 0,0 km/h (0 Bft)
11.07.2016 22:58 17,6 C 17,6 C 97 % 1011,7 hPa 0,0 mm 1,4 km/h (1 Bft) SO 130 0 min 0,000 mm 0,0 UV-I 0 W/m 17,1 C 3,2 km/h (1 Bft)
11.07.2016 22:59 17,6 C 17,6 C 97 % 1011,7 hPa 0,0 mm 0,6 km/h (0 Bft) SO 130 0 min 0,000 mm 0,0 UV-I 0 W/m 17,1 C 1,6 km/h (1 Bft)
11.07.2016 23:00 17,6 C 17,6 C 97 % 1011,6 hPa 0,0 mm 1,0 km/h (0 Bft) O 82 0 min 0,000 mm 0,0 UV-I 0 W/m 17,1 C 3,2 km/h (1 Bft)
11.07.2016 23:01 17,6 C 17,6 C 97 % 1011,6 hPa 0,0 mm 0,8 km/h (0 Bft) O 82 0 min 0,025 mm 0,0 UV-I 0 W/m 17,1 C 1,6 km/h (1 Bft)
11.07.2016 23:02 17,5 C 17,6 C 97 % 1011,6 hPa 0,0 mm 0,1 km/h (0 Bft) O 82 0 min 0,000 mm 0,0 UV-I 0 W/m 17,0 C 1,6 km/h (1 Bft)
11.07.2016 23:03 17,5 C 17,6 C 97 % 1011,6 hPa 0,0 mm 0,1 km/h (0 Bft) O 82 0 min 0,000 mm 0,0 UV-I 0 W/m 17,0 C 1,6 km/h (1 Bft)
11.07.2016 23:04 17,5 C 17,6 C 97 % 1011,6 hPa 0,0 mm 1,9 km/h (1 Bft) O-NO 65 0 min 0,000 mm 0,0 UV-I 0 W/m 17,0 C 3,2 km/h (1 Bft)
11.07.2016 23:05 17,5 C 17,5 C 97 % 1011,6 hPa 0,0 mm 1,7 km/h (1 Bft) W-NW 291 0 min 0,000 mm 0,0 UV-I 0 W/m 17,0 C 3,2 km/h (1 Bft)
11.07.2016 23:06 17,5 C 17,6 C 97 % 1011,6 hPa 0,0 mm 1,9 km/h (1 Bft) SO 139 0 min 0,000 mm 0,0 UV-I 0 W/m 17,0 C 3,2 km/h (1 Bft)
11.07.2016 23:07 17,5 C 17,5 C 97 % 1011,7 hPa 0,0 mm 1,2 km/h (1 Bft) NO 40 0 min 0,000 mm 0,0 UV-I 0 W/m 17,0 C 3,2 km/h (1 Bft)
11.07.2016 23:08 17,5 C 17,5 C 97 % 1011,7 hPa 0,0 mm 1,9 km/h (1 Bft) N-NW 333 0 min 0,000 mm 0,0 UV-I 0 W/m 17,0 C 4,8 km/h (1 Bft)
11.07.2016 23:09 17,5 C 17,5 C 97 % 1011,6 hPa 0,0 mm 1,5 km/h (1 Bft) S-SO 166 0 min 0,000 mm 0,0 UV-I 0 W/m 17,0 C 4,8 km/h (1 Bft)
11.07.2016 23:10 17,5 C 17,5 C 97 % 1011,7 hPa 0,0 mm 1,3 km/h (1 Bft) S-SO 165 0 min 0,000 mm 0,0 UV-I 0 W/m 17,0 C 4,8 km/h (1 Bft)
11.07.2016 23:11 17,5 C 17,5 C 97 % 1011,7 hPa 0,0 mm 0,0 km/h (0 Bft) S-SO 150 0 min 0,000 mm 0,0 UV-I 0 W/m 17,0 C 0,0 km/h (0 Bft)
11.07.2016 23:12 17,5 C 17,5 C 97 % 1011,7 hPa 0,0 mm 0,0 km/h (0 Bft) N-NO 25 0 min 0,000 mm 0,0 UV-I 0 W/m 17,0 C 0,0 km/h (0 Bft)
11.07.2016 23:13 17,4 C 17,5 C 97 % 1011,6 hPa 0,0 mm 0,5 km/h (0 Bft) N-NO 26 0 min 0,000 mm 0,0 UV-I 0 W/m 16,9 C 3,2 km/h (1 Bft)
11.07.2016 23:14 17,4 C 17,5 C 97 % 1011,6 hPa 0,0 mm 0,1 km/h (0 Bft) NO 43 0 min 0,000 mm 0,0 UV-I 0 W/m 16,9 C 1,6 km/h (1 Bft)
11.07.2016 23:15 17,4 C 17,5 C 97 % 1011,6 hPa 0,0 mm 0,0 km/h (0 Bft) NO 43 0 min 0,000 mm 0,0 UV-I 0 W/m 16,9 C 0,0 km/h (0 Bft)
11.07.2016 23:16 17,4 C 17,5 C 97 % 1011,5 hPa 0,0 mm 0,0 km/h (0 Bft) N-NO 18 0 min 0,000 mm 0,0 UV-I 0 W/m 16,9 C 0,0 km/h (0 Bft)
11.07.2016 23:17 17,4 C 17,4 C 97 % 1011,6 hPa 0,0 mm 0,0 km/h (0 Bft) N-NO 18 0 min 0,000 mm 0,0 UV-I 0 W/m 16,9 C 0,0 km/h (0 Bft)
11.07.2016 23:18 17,4 C 17,5 C 97 % 1011,5 hPa 0,0 mm 0,0 km/h (0 Bft) N-NO 19 0 min 0,000 mm 0,0 UV-I 0 W/m 16,9 C 0,0 km/h (0 Bft)
11.07.2016 23:19 17,5 C 17,5 C 97 % 1011,5 hPa 0,0 mm 0,0 km/h (0 Bft) N-NO 19 0 min 0,000 mm 0,0 UV-I 0 W/m 17,0 C 0,0 km/h (0 Bft)
11.07.2016 23:20 17,4 C 17,5 C 97 % 1011,5 hPa 0,0 mm 0,0 km/h (0 Bft) N-NO 19 0 min 0,000 mm 0,0 UV-I 0 W/m 16,9 C 0,0 km/h (0 Bft)
11.07.2016 23:21 17,4 C 17,4 C 97 % 1011,5 hPa 0,0 mm 0,0 km/h (0 Bft) N-NO 19 0 min 0,000 mm 0,0 UV-I 0 W/m 16,9 C 0,0 km/h (0 Bft)
11.07.2016 23:22 17,4 C 17,4 C 97 % 1011,5 hPa 0,0 mm 0,0 km/h (0 Bft) N-NO 19 0 min 0,000 mm 0,0 UV-I 0 W/m 16,9 C 0,0 km/h (0 Bft)
11.07.2016 23:23 17,4 C 17,4 C 97 % 1011,4 hPa 0,0 mm 0,0 km/h (0 Bft) N-NO 19 0 min 0,000 mm 0,0 UV-I 0 W/m 16,9 C 0,0 km/h (0 Bft)
11.07.2016 23:24 17,4 C 17,4 C 97 % 1011,5 hPa 0,0 mm 0,0 km/h (0 Bft) N-NO 19 0 min 0,000 mm 0,0 UV-I 0 W/m 16,9 C 0,0 km/h (0 Bft)
11.07.2016 23:25 17,4 C 17,4 C 97 % 1011,4 hPa 0,0 mm 0,0 km/h (0 Bft) N-NO 19 0 min 0,000 mm 0,0 UV-I 0 W/m 16,9 C 0,0 km/h (0 Bft)
11.07.2016 23:26 17,4 C 17,4 C 97 % 1011,4 hPa 0,0 mm 0,0 km/h (0 Bft) N-NO 19 0 min 0,000 mm 0,0 UV-I 0 W/m 16,9 C 0,0 km/h (0 Bft)
11.07.2016 23:27 17,3 C 17,4 C 97 % 1011,4 hPa 0,0 mm 0,0 km/h (0 Bft) N-NO 22 0 min 0,000 mm 0,0 UV-I 0 W/m 16,8 C 0,0 km/h (0 Bft)
11.07.2016 23:28 17,3 C 17,4 C 97 % 1011,4 hPa 0,0 mm 0,0 km/h (0 Bft) N-NO 22 0 min 0,000 mm 0,0 UV-I 0 W/m 16,8 C 0,0 km/h (0 Bft)
11.07.2016 23:29 17,3 C 17,3 C 97 % 1011,3 hPa 0,0 mm 0,0 km/h (0 Bft) N-NO 22 0 min 0,000 mm 0,0 UV-I 0 W/m 16,8 C 0,0 km/h (0 Bft)
11.07.2016 23:30 17,3 C 17,3 C 97 % 1011,3 hPa 0,0 mm 0,0 km/h (0 Bft) N-NO 21 0 min 0,000 mm 0,0 UV-I 0 W/m 16,8 C 0,0 km/h (0 Bft)
11.07.2016 23:31 17,3 C 17,3 C 97 % 1011,3 hPa 0,0 mm 0,0 km/h (0 Bft) N-NO 21 0 min 0,000 mm 0,0 UV-I 0 W/m 16,8 C 0,0 km/h (0 Bft)
11.07.2016 23:32 17,3 C 17,3 C 97 % 1011,3 hPa 0,0 mm 0,0 km/h (0 Bft) N-NO 21 0 min 0,000 mm 0,0 UV-I 0 W/m 16,8 C 0,0 km/h (0 Bft)
11.07.2016 23:33 17,3 C 17,3 C 97 % 1011,3 hPa 0,0 mm 0,0 km/h (0 Bft) N-NO 21 0 min 0,000 mm 0,0 UV-I 0 W/m 16,8 C 0,0 km/h (0 Bft)
11.07.2016 23:34 17,3 C 17,3 C 97 % 1011,3 hPa 0,0 mm 0,0 km/h (0 Bft) N-NO 21 0 min 0,000 mm 0,0 UV-I 0 W/m 16,8 C 0,0 km/h (0 Bft)
11.07.2016 23:35 17,3 C 17,3 C 97 % 1011,2 hPa 0,0 mm 0,0 km/h (0 Bft) S-SW 201 0 min 0,000 mm 0,0 UV-I 0 W/m 16,8 C 0,0 km/h (0 Bft)
11.07.2016 23:36 17,3 C 17,3 C 97 % 1011,2 hPa 0,0 mm 0,0 km/h (0 Bft) N-NW 331 0 min 0,000 mm 0,0 UV-I 0 W/m 16,8 C 0,0 km/h (0 Bft)
11.07.2016 23:37 17,3 C 17,3 C 97 % 1011,2 hPa 0,0 mm 0,1 km/h (0 Bft) N-NW 331 0 min 0,000 mm 0,0 UV-I 0 W/m 16,8 C 1,6 km/h (1 Bft)
11.07.2016 23:38 17,2 C 17,3 C 97 % 1011,2 hPa 0,0 mm 0,2 km/h (0 Bft) N-NW 331 0 min 0,000 mm 0,0 UV-I 0 W/m 16,7 C 1,6 km/h (1 Bft)
11.07.2016 23:39 17,2 C 17,3 C 97 % 1011,2 hPa 0,0 mm 0,0 km/h (0 Bft) N-NW 331 0 min 0,000 mm 0,0 UV-I 0 W/m 16,7 C 0,0 km/h (0 Bft)
11.07.2016 23:40 17,2 C 17,2 C 97 % 1011,2 hPa 0,0 mm 1,3 km/h (1 Bft) NW 323 0 min 0,000 mm 0,0 UV-I 0 W/m 16,7 C 4,8 km/h (1 Bft)
11.07.2016 23:41 17,2 C 17,2 C 97 % 1011,2 hPa 0,0 mm 2,1 km/h (1 Bft) NO 44 0 min 0,000 mm 0,0 UV-I 0 W/m 16,7 C 4,8 km/h (1 Bft)
11.07.2016 23:42 17,2 C 17,2 C 97 % 1011,2 hPa 0,0 mm 0,7 km/h (0 Bft) NO 44 0 min 0,000 mm 0,0 UV-I 0 W/m 16,7 C 1,6 km/h (1 Bft)
11.07.2016 23:43 17,2 C 17,2 C 97 % 1011,2 hPa 0,0 mm 0,5 km/h (0 Bft) NO 44 0 min 0,000 mm 0,0 UV-I 0 W/m 16,7 C 1,6 km/h (1 Bft)
11.07.2016 23:44 17,2 C 17,2 C 96 % 1011,2 hPa 0,0 mm 1,1 km/h (1 Bft) N-NO 17 0 min 0,000 mm 0,0 UV-I 0 W/m 16,6 C 3,2 km/h (1 Bft)
11.07.2016 23:45 17,2 C 17,2 C 97 % 1011,1 hPa 0,0 mm 0,9 km/h (0 Bft) N-NO 17 0 min 0,000 mm 0,0 UV-I 0 W/m 16,7 C 3,2 km/h (1 Bft)
11.07.2016 23:46 17,1 C 17,2 C 97 % 1011,0 hPa 0,0 mm 1,6 km/h (1 Bft) N-NO 18 0 min 0,000 mm 0,0 UV-I 0 W/m 16,6 C 3,2 km/h (1 Bft)
11.07.2016 23:47 17,1 C 17,1 C 97 % 1011,1 hPa 0,0 mm 1,9 km/h (1 Bft) NO 53 0 min 0,000 mm 0,0 UV-I 0 W/m 16,6 C 3,2 km/h (1 Bft)
11.07.2016 23:48 17,1 C 17,1 C 97 % 1011,0 hPa 0,0 mm 1,7 km/h (1 Bft) O 88 0 min 0,000 mm 0,0 UV-I 0 W/m 16,6 C 4,8 km/h (1 Bft)
11.07.2016 23:49 17,1 C 17,1 C 97 % 1011,0 hPa 0,0 mm 2,9 km/h (1 Bft) N-NO 12 0 min 0,000 mm 0,0 UV-I 0 W/m 16,6 C 4,8 km/h (1 Bft)
11.07.2016 23:50 17,1 C 17,1 C 97 % 1011,0 hPa 0,0 mm 0,8 km/h (0 Bft) N-NO 12 0 min 0,000 mm 0,0 UV-I 0 W/m 16,6 C 1,6 km/h (1 Bft)
11.07.2016 23:51 17,1 C 17,1 C 97 % 1011,0 hPa 0,0 mm 0,8 km/h (0 Bft) N-NO 12 0 min 0,000 mm 0,0 UV-I 0 W/m 16,6 C 1,6 km/h (1 Bft)
11.07.2016 23:52 17,1 C 17,1 C 97 % 1011,0 hPa 0,0 mm 0,9 km/h (0 Bft) N-NO 12 0 min 0,000 mm 0,0 UV-I 0 W/m 16,6 C 1,6 km/h (1 Bft)
11.07.2016 23:53 17,1 C 17,1 C 97 % 1011,0 hPa 0,0 mm 0,9 km/h (0 Bft) N-NO 12 0 min 0,000 mm 0,0 UV-I 0 W/m 16,6 C 1,6 km/h (1 Bft)
11.07.2016 23:54 17,1 C 17,1 C 97 % 1011,0 hPa 0,0 mm 0,3 km/h (0 Bft) N-NO 13 0 min 0,000 mm 0,0 UV-I 0 W/m 16,6 C 1,6 km/h (1 Bft)
11.07.2016 23:55 17,0 C 17,1 C 97 % 1011,0 hPa 0,0 mm 0,5 km/h (0 Bft) N-NO 12 0 min 0,000 mm 0,0 UV-I 0 W/m 16,5 C 1,6 km/h (1 Bft)
11.07.2016 23:56 17,0 C 17,1 C 97 % 1011,1 hPa 0,0 mm 0,0 km/h (0 Bft) N-NO 12 0 min 0,000 mm 0,0 UV-I 0 W/m 16,5 C 0,0 km/h (0 Bft)
11.07.2016 23:57 17,0 C 17,0 C 97 % 1011,1 hPa 0,0 mm 0,0 km/h (0 Bft) N-NO 12 0 min 0,000 mm 0,0 UV-I 0 W/m 16,5 C 0,0 km/h (0 Bft)
11.07.2016 23:58 17,0 C 17,0 C 97 % 1011,1 hPa 0,0 mm 0,1 km/h (0 Bft) N-NO 12 0 min 0,000 mm 0,0 UV-I 0 W/m 16,5 C 1,6 km/h (1 Bft)
11.07.2016 23:59 17,0 C 17,0 C 97 % 1011,1 hPa 0,0 mm 0,8 km/h (0 Bft) N-NO 12 0 min 0,000 mm 0,0 UV-I 0 W/m 16,5 C 1,6 km/h (1 Bft)
_ Min-Zeit 05:30 05:30 14:01 17:20 - 23:57 - - - - - - 05:38 23:57
Minimum _ 16,3 C 16,3 C 49 % 1009,1 hPa - 0,0 km/h (0 Bft) - - - - - - 12,9 C 0,0 km/h (0 Bft)
_ Max-Zeit 13:59 14:01 23:59 21:47 17:48 17:52 - - 16:14 12:01 12:50 13:08 14:47 17:52
Maximum _ 28,3 C 28,3 C 97 % 1012,5 hPa 1,6 mm 23,1 km/h
W-SW (4 Bft)
- - 1 min 0,559 mm 7,5 UV-I 942 W/m 20,6 C 35,4 km/h
W-SW (5 Bft)
Durchschnitt _ 21,1 C 21,1 C 77 % 1011,2 hPa #19,4 mm 2,4 km/h (1 Bft) W-NW - #7:29 h #3,658 mm 3,7 UV-I 216 W/m 16,5 C 4,4 km/h (1 Bft)